<?xml version="1.0" encoding="UTF-8" standalone="no" ?>
<gpx xmlns="http://www.topografix.com/GPX/1/1" xmlns:xsi="http://www.w3.org/2001/XMLSchema-instance" xsi:schemaLocation="http://www.topografix.com/GPX/1/1 http://www.topografix.com/GPX/1/1/gpx.xsd" version="1.1" creator="VisuGPX - https://www.visugpx.com">
  <metadata>
    <name>Tiercé-Montreuil sur Loir</name>
    <desc><![CDATA[Sortie sympa, peut de dénivelé très bien pour reprendre.]]></desc>
  </metadata>
  <trk>
    <name><![CDATA[2017-01-15 09:05]]></name>
    <desc><![CDATA[<p>Heure de départ: 01/15/2017 09:05</p><p>Heure d'arrivée: 01/15/2017 11:30</p><p>Distance: 32,9 km (02:24)</p><p>Temps déplacement: 01:54</p><p>Vitesse moyenne: 13,61 km/h</p><p>Vitesse moyenne mouv.: 17,23 km/h</p><p>Vitesse Max.: 43,01km/h</p><p>Altitude minimale: 19 m</p><p>Altitude maximale: 60 m</p><p>Vitesse de montée: 249,7 m/h</p><p>Vitesse de descente: -318,2 m/h</p><p>Gain d'altitude: 227 m</p><p>Perte d'altitude: -214 m</p><p>Temps de montée: 00:54</p><p>Temps de descente: 00:40</p><hr align="center" width="480" style="height: 2px; width: 517px"/>]]></desc>
    <trkseg>
      <trkpt lat="47.62176" lon="-0.46608">
        <ele>19.31</ele>
        <time>2017-01-15T08:05:23Z</time>
      </trkpt>
      <trkpt lat="47.62159" lon="-0.46593">
        <ele>25.85</ele>
        <time>2017-01-15T08:08:50Z</time>
      </trkpt>
      <trkpt lat="47.6214" lon="-0.46599">
        <ele>25.12</ele>
        <time>2017-01-15T08:08:55Z</time>
      </trkpt>
      <trkpt lat="47.62122" lon="-0.46605">
        <ele>25.31</ele>
        <time>2017-01-15T08:09:00Z</time>
      </trkpt>
      <trkpt lat="47.62103" lon="-0.46612">
        <ele>25.48</ele>
        <time>2017-01-15T08:09:05Z</time>
      </trkpt>
      <trkpt lat="47.62082" lon="-0.46621">
        <ele>26.08</ele>
        <time>2017-01-15T08:09:11Z</time>
      </trkpt>
      <trkpt lat="47.62064" lon="-0.46629">
        <ele>26.68</ele>
        <time>2017-01-15T08:09:17Z</time>
      </trkpt>
      <trkpt lat="47.62046" lon="-0.46628">
        <ele>26.19</ele>
        <time>2017-01-15T08:09:25Z</time>
      </trkpt>
      <trkpt lat="47.6204" lon="-0.46599">
        <ele>26.29</ele>
        <time>2017-01-15T08:09:31Z</time>
      </trkpt>
      <trkpt lat="47.62049" lon="-0.46568">
        <ele>25.83</ele>
        <time>2017-01-15T08:09:36Z</time>
      </trkpt>
      <trkpt lat="47.62061" lon="-0.46544">
        <ele>25.81</ele>
        <time>2017-01-15T08:09:40Z</time>
      </trkpt>
      <trkpt lat="47.6207" lon="-0.46518">
        <ele>26.09</ele>
        <time>2017-01-15T08:09:44Z</time>
      </trkpt>
      <trkpt lat="47.62079" lon="-0.46492">
        <ele>26.21</ele>
        <time>2017-01-15T08:09:48Z</time>
      </trkpt>
      <trkpt lat="47.6209" lon="-0.46469">
        <ele>25.93</ele>
        <time>2017-01-15T08:09:52Z</time>
      </trkpt>
      <trkpt lat="47.62101" lon="-0.46443">
        <ele>25.26</ele>
        <time>2017-01-15T08:09:56Z</time>
      </trkpt>
      <trkpt lat="47.6211" lon="-0.46418">
        <ele>24.91</ele>
        <time>2017-01-15T08:10:00Z</time>
      </trkpt>
      <trkpt lat="47.62118" lon="-0.46392">
        <ele>24.83</ele>
        <time>2017-01-15T08:10:05Z</time>
      </trkpt>
      <trkpt lat="47.62106" lon="-0.4637">
        <ele>24.81</ele>
        <time>2017-01-15T08:10:12Z</time>
      </trkpt>
      <trkpt lat="47.62093" lon="-0.46347">
        <ele>24.83</ele>
        <time>2017-01-15T08:10:19Z</time>
      </trkpt>
      <trkpt lat="47.62082" lon="-0.46324">
        <ele>24.15</ele>
        <time>2017-01-15T08:10:26Z</time>
      </trkpt>
      <trkpt lat="47.62071" lon="-0.46302">
        <ele>23.73</ele>
        <time>2017-01-15T08:10:34Z</time>
      </trkpt>
      <trkpt lat="47.62059" lon="-0.46277">
        <ele>23.31</ele>
        <time>2017-01-15T08:10:40Z</time>
      </trkpt>
      <trkpt lat="47.62046" lon="-0.46254">
        <ele>23.68</ele>
        <time>2017-01-15T08:10:46Z</time>
      </trkpt>
      <trkpt lat="47.62033" lon="-0.46231">
        <ele>23.62</ele>
        <time>2017-01-15T08:10:53Z</time>
      </trkpt>
      <trkpt lat="47.62022" lon="-0.46205">
        <ele>23.81</ele>
        <time>2017-01-15T08:10:59Z</time>
      </trkpt>
      <trkpt lat="47.62013" lon="-0.46176">
        <ele>23.71</ele>
        <time>2017-01-15T08:11:05Z</time>
      </trkpt>
      <trkpt lat="47.62022" lon="-0.46152">
        <ele>23.11</ele>
        <time>2017-01-15T08:11:13Z</time>
      </trkpt>
      <trkpt lat="47.62034" lon="-0.46131">
        <ele>23.21</ele>
        <time>2017-01-15T08:11:19Z</time>
      </trkpt>
      <trkpt lat="47.62043" lon="-0.46103">
        <ele>23.21</ele>
        <time>2017-01-15T08:11:25Z</time>
      </trkpt>
      <trkpt lat="47.62045" lon="-0.46074">
        <ele>22.81</ele>
        <time>2017-01-15T08:11:32Z</time>
      </trkpt>
      <trkpt lat="47.62039" lon="-0.46045">
        <ele>22.83</ele>
        <time>2017-01-15T08:11:39Z</time>
      </trkpt>
      <trkpt lat="47.62027" lon="-0.46021">
        <ele>22.63</ele>
        <time>2017-01-15T08:11:45Z</time>
      </trkpt>
      <trkpt lat="47.62035" lon="-0.45992">
        <ele>22.41</ele>
        <time>2017-01-15T08:11:52Z</time>
      </trkpt>
      <trkpt lat="47.62048" lon="-0.45972">
        <ele>22.01</ele>
        <time>2017-01-15T08:11:57Z</time>
      </trkpt>
      <trkpt lat="47.62057" lon="-0.45948">
        <ele>22.38</ele>
        <time>2017-01-15T08:12:03Z</time>
      </trkpt>
      <trkpt lat="47.62039" lon="-0.45935">
        <ele>22.21</ele>
        <time>2017-01-15T08:12:08Z</time>
      </trkpt>
      <trkpt lat="47.62029" lon="-0.4591">
        <ele>21.91</ele>
        <time>2017-01-15T08:12:13Z</time>
      </trkpt>
      <trkpt lat="47.62029" lon="-0.45879">
        <ele>22.01</ele>
        <time>2017-01-15T08:12:18Z</time>
      </trkpt>
      <trkpt lat="47.62031" lon="-0.45846">
        <ele>22.19</ele>
        <time>2017-01-15T08:12:23Z</time>
      </trkpt>
      <trkpt lat="47.62032" lon="-0.45813">
        <ele>22.13</ele>
        <time>2017-01-15T08:12:28Z</time>
      </trkpt>
      <trkpt lat="47.62033" lon="-0.45787">
        <ele>21.56</ele>
        <time>2017-01-15T08:12:32Z</time>
      </trkpt>
      <trkpt lat="47.62035" lon="-0.45754">
        <ele>21.53</ele>
        <time>2017-01-15T08:12:37Z</time>
      </trkpt>
      <trkpt lat="47.62036" lon="-0.45722">
        <ele>21.31</ele>
        <time>2017-01-15T08:12:42Z</time>
      </trkpt>
      <trkpt lat="47.62037" lon="-0.45689">
        <ele>21.13</ele>
        <time>2017-01-15T08:12:47Z</time>
      </trkpt>
      <trkpt lat="47.62039" lon="-0.45657">
        <ele>21.11</ele>
        <time>2017-01-15T08:12:52Z</time>
      </trkpt>
      <trkpt lat="47.62041" lon="-0.45624">
        <ele>21.2</ele>
        <time>2017-01-15T08:12:57Z</time>
      </trkpt>
      <trkpt lat="47.62043" lon="-0.45598">
        <ele>21.58</ele>
        <time>2017-01-15T08:13:01Z</time>
      </trkpt>
      <trkpt lat="47.62042" lon="-0.45565">
        <ele>21.98</ele>
        <time>2017-01-15T08:13:06Z</time>
      </trkpt>
      <trkpt lat="47.62043" lon="-0.45537">
        <ele>22.2</ele>
        <time>2017-01-15T08:13:10Z</time>
      </trkpt>
      <trkpt lat="47.62045" lon="-0.45509">
        <ele>22.09</ele>
        <time>2017-01-15T08:13:14Z</time>
      </trkpt>
      <trkpt lat="47.62046" lon="-0.45481">
        <ele>21.73</ele>
        <time>2017-01-15T08:13:18Z</time>
      </trkpt>
      <trkpt lat="47.62047" lon="-0.45453">
        <ele>21.51</ele>
        <time>2017-01-15T08:13:22Z</time>
      </trkpt>
      <trkpt lat="47.62048" lon="-0.45421">
        <ele>21.03</ele>
        <time>2017-01-15T08:13:27Z</time>
      </trkpt>
      <trkpt lat="47.62049" lon="-0.45389">
        <ele>21.01</ele>
        <time>2017-01-15T08:13:32Z</time>
      </trkpt>
      <trkpt lat="47.6205" lon="-0.45362">
        <ele>21.38</ele>
        <time>2017-01-15T08:13:36Z</time>
      </trkpt>
      <trkpt lat="47.62051" lon="-0.45334">
        <ele>21.69</ele>
        <time>2017-01-15T08:13:40Z</time>
      </trkpt>
      <trkpt lat="47.62053" lon="-0.45306">
        <ele>22.28</ele>
        <time>2017-01-15T08:13:44Z</time>
      </trkpt>
      <trkpt lat="47.62056" lon="-0.45278">
        <ele>22.41</ele>
        <time>2017-01-15T08:13:48Z</time>
      </trkpt>
      <trkpt lat="47.6206" lon="-0.45249">
        <ele>22.41</ele>
        <time>2017-01-15T08:13:52Z</time>
      </trkpt>
      <trkpt lat="47.62065" lon="-0.45222">
        <ele>22.23</ele>
        <time>2017-01-15T08:13:56Z</time>
      </trkpt>
      <trkpt lat="47.6207" lon="-0.45194">
        <ele>22.21</ele>
        <time>2017-01-15T08:14:00Z</time>
      </trkpt>
      <trkpt lat="47.62076" lon="-0.45166">
        <ele>22.21</ele>
        <time>2017-01-15T08:14:04Z</time>
      </trkpt>
      <trkpt lat="47.62081" lon="-0.4514">
        <ele>22.11</ele>
        <time>2017-01-15T08:14:08Z</time>
      </trkpt>
      <trkpt lat="47.62087" lon="-0.45114">
        <ele>22.01</ele>
        <time>2017-01-15T08:14:12Z</time>
      </trkpt>
      <trkpt lat="47.62092" lon="-0.45088">
        <ele>22.12</ele>
        <time>2017-01-15T08:14:16Z</time>
      </trkpt>
      <trkpt lat="47.62098" lon="-0.45057">
        <ele>22.21</ele>
        <time>2017-01-15T08:14:21Z</time>
      </trkpt>
      <trkpt lat="47.62102" lon="-0.4503">
        <ele>22.11</ele>
        <time>2017-01-15T08:14:26Z</time>
      </trkpt>
      <trkpt lat="47.62108" lon="-0.44998">
        <ele>22.31</ele>
        <time>2017-01-15T08:14:32Z</time>
      </trkpt>
      <trkpt lat="47.62114" lon="-0.44967">
        <ele>22.39</ele>
        <time>2017-01-15T08:14:37Z</time>
      </trkpt>
      <trkpt lat="47.62119" lon="-0.44938">
        <ele>22.59</ele>
        <time>2017-01-15T08:14:42Z</time>
      </trkpt>
      <trkpt lat="47.62126" lon="-0.4491">
        <ele>22.99</ele>
        <time>2017-01-15T08:14:47Z</time>
      </trkpt>
      <trkpt lat="47.62131" lon="-0.44883">
        <ele>23.48</ele>
        <time>2017-01-15T08:14:51Z</time>
      </trkpt>
      <trkpt lat="47.62136" lon="-0.44856">
        <ele>23.98</ele>
        <time>2017-01-15T08:14:55Z</time>
      </trkpt>
      <trkpt lat="47.62142" lon="-0.44829">
        <ele>24.58</ele>
        <time>2017-01-15T08:14:59Z</time>
      </trkpt>
      <trkpt lat="47.62147" lon="-0.44801">
        <ele>25.18</ele>
        <time>2017-01-15T08:15:03Z</time>
      </trkpt>
      <trkpt lat="47.62151" lon="-0.44775">
        <ele>25.96</ele>
        <time>2017-01-15T08:15:07Z</time>
      </trkpt>
      <trkpt lat="47.62154" lon="-0.44746">
        <ele>26.84</ele>
        <time>2017-01-15T08:15:11Z</time>
      </trkpt>
      <trkpt lat="47.62155" lon="-0.44715">
        <ele>27.66</ele>
        <time>2017-01-15T08:15:15Z</time>
      </trkpt>
      <trkpt lat="47.62158" lon="-0.44686">
        <ele>27.25</ele>
        <time>2017-01-15T08:15:19Z</time>
      </trkpt>
      <trkpt lat="47.62161" lon="-0.44653">
        <ele>26.1</ele>
        <time>2017-01-15T08:15:23Z</time>
      </trkpt>
      <trkpt lat="47.62163" lon="-0.44622">
        <ele>25.88</ele>
        <time>2017-01-15T08:15:27Z</time>
      </trkpt>
      <trkpt lat="47.62166" lon="-0.44592">
        <ele>26.2</ele>
        <time>2017-01-15T08:15:31Z</time>
      </trkpt>
      <trkpt lat="47.62168" lon="-0.44562">
        <ele>26.48</ele>
        <time>2017-01-15T08:15:35Z</time>
      </trkpt>
      <trkpt lat="47.62171" lon="-0.44533">
        <ele>26.31</ele>
        <time>2017-01-15T08:15:39Z</time>
      </trkpt>
      <trkpt lat="47.62174" lon="-0.44502">
        <ele>26.03</ele>
        <time>2017-01-15T08:15:43Z</time>
      </trkpt>
      <trkpt lat="47.62178" lon="-0.44473">
        <ele>25.57</ele>
        <time>2017-01-15T08:15:47Z</time>
      </trkpt>
      <trkpt lat="47.62181" lon="-0.44444">
        <ele>25.51</ele>
        <time>2017-01-15T08:15:51Z</time>
      </trkpt>
      <trkpt lat="47.62185" lon="-0.44415">
        <ele>25.04</ele>
        <time>2017-01-15T08:15:55Z</time>
      </trkpt>
      <trkpt lat="47.62189" lon="-0.44386">
        <ele>24.81</ele>
        <time>2017-01-15T08:15:59Z</time>
      </trkpt>
      <trkpt lat="47.62194" lon="-0.44357">
        <ele>24.53</ele>
        <time>2017-01-15T08:16:03Z</time>
      </trkpt>
      <trkpt lat="47.622" lon="-0.44327">
        <ele>24.13</ele>
        <time>2017-01-15T08:16:07Z</time>
      </trkpt>
      <trkpt lat="47.62206" lon="-0.44296">
        <ele>23.66</ele>
        <time>2017-01-15T08:16:09Z</time>
      </trkpt>
      <trkpt lat="47.62212" lon="-0.44267">
        <ele>23.7</ele>
        <time>2017-01-15T08:16:13Z</time>
      </trkpt>
      <trkpt lat="47.62217" lon="-0.44239">
        <ele>23.53</ele>
        <time>2017-01-15T08:16:17Z</time>
      </trkpt>
      <trkpt lat="47.62224" lon="-0.4421">
        <ele>23.16</ele>
        <time>2017-01-15T08:16:21Z</time>
      </trkpt>
      <trkpt lat="47.6223" lon="-0.44182">
        <ele>23.16</ele>
        <time>2017-01-15T08:16:25Z</time>
      </trkpt>
      <trkpt lat="47.62228" lon="-0.4415">
        <ele>23.21</ele>
        <time>2017-01-15T08:16:31Z</time>
      </trkpt>
      <trkpt lat="47.62224" lon="-0.44118">
        <ele>22.91</ele>
        <time>2017-01-15T08:16:36Z</time>
      </trkpt>
      <trkpt lat="47.62219" lon="-0.44089">
        <ele>23.08</ele>
        <time>2017-01-15T08:16:40Z</time>
      </trkpt>
      <trkpt lat="47.62214" lon="-0.4406">
        <ele>23.11</ele>
        <time>2017-01-15T08:16:44Z</time>
      </trkpt>
      <trkpt lat="47.62209" lon="-0.4403">
        <ele>23.19</ele>
        <time>2017-01-15T08:16:48Z</time>
      </trkpt>
      <trkpt lat="47.62203" lon="-0.44">
        <ele>23.32</ele>
        <time>2017-01-15T08:16:52Z</time>
      </trkpt>
      <trkpt lat="47.62198" lon="-0.4397">
        <ele>23.86</ele>
        <time>2017-01-15T08:16:56Z</time>
      </trkpt>
      <trkpt lat="47.62193" lon="-0.43942">
        <ele>23.28</ele>
        <time>2017-01-15T08:17:00Z</time>
      </trkpt>
      <trkpt lat="47.62189" lon="-0.43915">
        <ele>23.01</ele>
        <time>2017-01-15T08:17:04Z</time>
      </trkpt>
      <trkpt lat="47.62184" lon="-0.43888">
        <ele>23.28</ele>
        <time>2017-01-15T08:17:08Z</time>
      </trkpt>
      <trkpt lat="47.62179" lon="-0.43858">
        <ele>23.15</ele>
        <time>2017-01-15T08:17:12Z</time>
      </trkpt>
      <trkpt lat="47.62176" lon="-0.43828">
        <ele>23.1</ele>
        <time>2017-01-15T08:17:16Z</time>
      </trkpt>
      <trkpt lat="47.62172" lon="-0.43799">
        <ele>23.01</ele>
        <time>2017-01-15T08:17:20Z</time>
      </trkpt>
      <trkpt lat="47.62169" lon="-0.43771">
        <ele>22.73</ele>
        <time>2017-01-15T08:17:24Z</time>
      </trkpt>
      <trkpt lat="47.62171" lon="-0.43741">
        <ele>22.53</ele>
        <time>2017-01-15T08:17:28Z</time>
      </trkpt>
      <trkpt lat="47.62176" lon="-0.43713">
        <ele>22.5</ele>
        <time>2017-01-15T08:17:32Z</time>
      </trkpt>
      <trkpt lat="47.62182" lon="-0.43684">
        <ele>22.69</ele>
        <time>2017-01-15T08:17:36Z</time>
      </trkpt>
      <trkpt lat="47.62187" lon="-0.43654">
        <ele>23.08</ele>
        <time>2017-01-15T08:17:40Z</time>
      </trkpt>
      <trkpt lat="47.62192" lon="-0.43624">
        <ele>23.3</ele>
        <time>2017-01-15T08:17:44Z</time>
      </trkpt>
      <trkpt lat="47.62198" lon="-0.43592">
        <ele>23.33</ele>
        <time>2017-01-15T08:17:48Z</time>
      </trkpt>
      <trkpt lat="47.62205" lon="-0.43561">
        <ele>23.5</ele>
        <time>2017-01-15T08:17:52Z</time>
      </trkpt>
      <trkpt lat="47.62214" lon="-0.4353">
        <ele>23.41</ele>
        <time>2017-01-15T08:17:56Z</time>
      </trkpt>
      <trkpt lat="47.62222" lon="-0.435">
        <ele>23.39</ele>
        <time>2017-01-15T08:18:00Z</time>
      </trkpt>
      <trkpt lat="47.62231" lon="-0.4347">
        <ele>23.05</ele>
        <time>2017-01-15T08:18:04Z</time>
      </trkpt>
      <trkpt lat="47.62239" lon="-0.43439">
        <ele>22.73</ele>
        <time>2017-01-15T08:18:08Z</time>
      </trkpt>
      <trkpt lat="47.62246" lon="-0.4341">
        <ele>22.71</ele>
        <time>2017-01-15T08:18:12Z</time>
      </trkpt>
      <trkpt lat="47.62254" lon="-0.4338">
        <ele>22.71</ele>
        <time>2017-01-15T08:18:16Z</time>
      </trkpt>
      <trkpt lat="47.62263" lon="-0.43353">
        <ele>22.89</ele>
        <time>2017-01-15T08:18:20Z</time>
      </trkpt>
      <trkpt lat="47.62277" lon="-0.4333">
        <ele>22.99</ele>
        <time>2017-01-15T08:18:24Z</time>
      </trkpt>
      <trkpt lat="47.62294" lon="-0.43314">
        <ele>23.31</ele>
        <time>2017-01-15T08:18:28Z</time>
      </trkpt>
      <trkpt lat="47.62313" lon="-0.43299">
        <ele>23.21</ele>
        <time>2017-01-15T08:18:32Z</time>
      </trkpt>
      <trkpt lat="47.62332" lon="-0.43285">
        <ele>23.19</ele>
        <time>2017-01-15T08:18:36Z</time>
      </trkpt>
      <trkpt lat="47.62351" lon="-0.43271">
        <ele>23.31</ele>
        <time>2017-01-15T08:18:40Z</time>
      </trkpt>
      <trkpt lat="47.62369" lon="-0.43257">
        <ele>23.39</ele>
        <time>2017-01-15T08:18:44Z</time>
      </trkpt>
      <trkpt lat="47.62387" lon="-0.43243">
        <ele>23.69</ele>
        <time>2017-01-15T08:18:48Z</time>
      </trkpt>
      <trkpt lat="47.62405" lon="-0.43229">
        <ele>23.88</ele>
        <time>2017-01-15T08:18:52Z</time>
      </trkpt>
      <trkpt lat="47.62423" lon="-0.43216">
        <ele>24.08</ele>
        <time>2017-01-15T08:18:56Z</time>
      </trkpt>
      <trkpt lat="47.62441" lon="-0.43202">
        <ele>24.38</ele>
        <time>2017-01-15T08:19:00Z</time>
      </trkpt>
      <trkpt lat="47.6246" lon="-0.43191">
        <ele>24.41</ele>
        <time>2017-01-15T08:19:04Z</time>
      </trkpt>
      <trkpt lat="47.62478" lon="-0.43181">
        <ele>24.52</ele>
        <time>2017-01-15T08:19:08Z</time>
      </trkpt>
      <trkpt lat="47.62496" lon="-0.4317">
        <ele>24.69</ele>
        <time>2017-01-15T08:19:12Z</time>
      </trkpt>
      <trkpt lat="47.62513" lon="-0.4316">
        <ele>24.72</ele>
        <time>2017-01-15T08:19:16Z</time>
      </trkpt>
      <trkpt lat="47.62531" lon="-0.43149">
        <ele>25.08</ele>
        <time>2017-01-15T08:19:20Z</time>
      </trkpt>
      <trkpt lat="47.62548" lon="-0.43139">
        <ele>25.68</ele>
        <time>2017-01-15T08:19:24Z</time>
      </trkpt>
      <trkpt lat="47.62565" lon="-0.43129">
        <ele>26.35</ele>
        <time>2017-01-15T08:19:28Z</time>
      </trkpt>
      <trkpt lat="47.62582" lon="-0.4312">
        <ele>27.36</ele>
        <time>2017-01-15T08:19:32Z</time>
      </trkpt>
      <trkpt lat="47.626" lon="-0.43109">
        <ele>27.88</ele>
        <time>2017-01-15T08:19:36Z</time>
      </trkpt>
      <trkpt lat="47.62618" lon="-0.43099">
        <ele>28.4</ele>
        <time>2017-01-15T08:19:40Z</time>
      </trkpt>
      <trkpt lat="47.62635" lon="-0.43087">
        <ele>28.7</ele>
        <time>2017-01-15T08:19:44Z</time>
      </trkpt>
      <trkpt lat="47.62653" lon="-0.43076">
        <ele>28.61</ele>
        <time>2017-01-15T08:19:48Z</time>
      </trkpt>
      <trkpt lat="47.62671" lon="-0.43066">
        <ele>29.26</ele>
        <time>2017-01-15T08:19:52Z</time>
      </trkpt>
      <trkpt lat="47.62688" lon="-0.43057">
        <ele>29.86</ele>
        <time>2017-01-15T08:19:56Z</time>
      </trkpt>
      <trkpt lat="47.62709" lon="-0.43051">
        <ele>31.23</ele>
        <time>2017-01-15T08:20:01Z</time>
      </trkpt>
      <trkpt lat="47.62731" lon="-0.43046">
        <ele>32.26</ele>
        <time>2017-01-15T08:20:06Z</time>
      </trkpt>
      <trkpt lat="47.62753" lon="-0.43042">
        <ele>33.23</ele>
        <time>2017-01-15T08:20:11Z</time>
      </trkpt>
      <trkpt lat="47.62774" lon="-0.43036">
        <ele>34.26</ele>
        <time>2017-01-15T08:20:16Z</time>
      </trkpt>
      <trkpt lat="47.62795" lon="-0.43032">
        <ele>35.05</ele>
        <time>2017-01-15T08:20:21Z</time>
      </trkpt>
      <trkpt lat="47.62817" lon="-0.43027">
        <ele>36.08</ele>
        <time>2017-01-15T08:20:26Z</time>
      </trkpt>
      <trkpt lat="47.62838" lon="-0.43022">
        <ele>36.94</ele>
        <time>2017-01-15T08:20:31Z</time>
      </trkpt>
      <trkpt lat="47.6286" lon="-0.43017">
        <ele>37.86</ele>
        <time>2017-01-15T08:20:36Z</time>
      </trkpt>
      <trkpt lat="47.62882" lon="-0.43011">
        <ele>38.19</ele>
        <time>2017-01-15T08:20:41Z</time>
      </trkpt>
      <trkpt lat="47.62903" lon="-0.43006">
        <ele>38.48</ele>
        <time>2017-01-15T08:20:46Z</time>
      </trkpt>
      <trkpt lat="47.62925" lon="-0.43">
        <ele>39.18</ele>
        <time>2017-01-15T08:20:51Z</time>
      </trkpt>
      <trkpt lat="47.62948" lon="-0.42995">
        <ele>39.49</ele>
        <time>2017-01-15T08:20:56Z</time>
      </trkpt>
      <trkpt lat="47.6297" lon="-0.4299">
        <ele>39.99</ele>
        <time>2017-01-15T08:21:01Z</time>
      </trkpt>
      <trkpt lat="47.62992" lon="-0.42985">
        <ele>40.6</ele>
        <time>2017-01-15T08:21:06Z</time>
      </trkpt>
      <trkpt lat="47.6301" lon="-0.42981">
        <ele>40.71</ele>
        <time>2017-01-15T08:21:10Z</time>
      </trkpt>
      <trkpt lat="47.63032" lon="-0.42977">
        <ele>40.81</ele>
        <time>2017-01-15T08:21:15Z</time>
      </trkpt>
      <trkpt lat="47.63053" lon="-0.42972">
        <ele>41.18</ele>
        <time>2017-01-15T08:21:20Z</time>
      </trkpt>
      <trkpt lat="47.63068" lon="-0.42955">
        <ele>41.38</ele>
        <time>2017-01-15T08:21:25Z</time>
      </trkpt>
      <trkpt lat="47.63064" lon="-0.42924">
        <ele>41.88</ele>
        <time>2017-01-15T08:21:30Z</time>
      </trkpt>
      <trkpt lat="47.63058" lon="-0.42899">
        <ele>42.25</ele>
        <time>2017-01-15T08:21:34Z</time>
      </trkpt>
      <trkpt lat="47.63052" lon="-0.42872">
        <ele>42.21</ele>
        <time>2017-01-15T08:21:38Z</time>
      </trkpt>
      <trkpt lat="47.63045" lon="-0.42847">
        <ele>42.21</ele>
        <time>2017-01-15T08:21:42Z</time>
      </trkpt>
      <trkpt lat="47.63036" lon="-0.42823">
        <ele>42.39</ele>
        <time>2017-01-15T08:21:46Z</time>
      </trkpt>
      <trkpt lat="47.63027" lon="-0.42799">
        <ele>42.51</ele>
        <time>2017-01-15T08:21:50Z</time>
      </trkpt>
      <trkpt lat="47.63018" lon="-0.42776">
        <ele>42.68</ele>
        <time>2017-01-15T08:21:54Z</time>
      </trkpt>
      <trkpt lat="47.63009" lon="-0.42752">
        <ele>42.82</ele>
        <time>2017-01-15T08:21:58Z</time>
      </trkpt>
      <trkpt lat="47.63002" lon="-0.42722">
        <ele>42.61</ele>
        <time>2017-01-15T08:22:03Z</time>
      </trkpt>
      <trkpt lat="47.62991" lon="-0.42697">
        <ele>42.69</ele>
        <time>2017-01-15T08:22:08Z</time>
      </trkpt>
      <trkpt lat="47.62976" lon="-0.42672">
        <ele>42.79</ele>
        <time>2017-01-15T08:22:13Z</time>
      </trkpt>
      <trkpt lat="47.62964" lon="-0.42652">
        <ele>42.81</ele>
        <time>2017-01-15T08:22:18Z</time>
      </trkpt>
      <trkpt lat="47.62954" lon="-0.42629">
        <ele>43.1</ele>
        <time>2017-01-15T08:22:23Z</time>
      </trkpt>
      <trkpt lat="47.6295" lon="-0.42599">
        <ele>42.73</ele>
        <time>2017-01-15T08:22:29Z</time>
      </trkpt>
      <trkpt lat="47.62949" lon="-0.42571">
        <ele>42.63</ele>
        <time>2017-01-15T08:22:34Z</time>
      </trkpt>
      <trkpt lat="47.62952" lon="-0.42544">
        <ele>42.63</ele>
        <time>2017-01-15T08:22:38Z</time>
      </trkpt>
      <trkpt lat="47.62954" lon="-0.42513">
        <ele>42.69</ele>
        <time>2017-01-15T08:22:43Z</time>
      </trkpt>
      <trkpt lat="47.62961" lon="-0.42484">
        <ele>42.8</ele>
        <time>2017-01-15T08:22:49Z</time>
      </trkpt>
      <trkpt lat="47.62972" lon="-0.42457">
        <ele>43.66</ele>
        <time>2017-01-15T08:22:55Z</time>
      </trkpt>
      <trkpt lat="47.6298" lon="-0.42431">
        <ele>44.77</ele>
        <time>2017-01-15T08:23:01Z</time>
      </trkpt>
      <trkpt lat="47.62987" lon="-0.42405">
        <ele>45.86</ele>
        <time>2017-01-15T08:23:07Z</time>
      </trkpt>
      <trkpt lat="47.62991" lon="-0.42374">
        <ele>47.71</ele>
        <time>2017-01-15T08:23:15Z</time>
      </trkpt>
      <trkpt lat="47.62988" lon="-0.42347">
        <ele>48.78</ele>
        <time>2017-01-15T08:23:22Z</time>
      </trkpt>
      <trkpt lat="47.62985" lon="-0.42317">
        <ele>49.88</ele>
        <time>2017-01-15T08:23:30Z</time>
      </trkpt>
      <trkpt lat="47.62983" lon="-0.42285">
        <ele>50.88</ele>
        <time>2017-01-15T08:23:36Z</time>
      </trkpt>
      <trkpt lat="47.62978" lon="-0.42254">
        <ele>51.5</ele>
        <time>2017-01-15T08:23:42Z</time>
      </trkpt>
      <trkpt lat="47.62974" lon="-0.42227">
        <ele>51.88</ele>
        <time>2017-01-15T08:23:47Z</time>
      </trkpt>
      <trkpt lat="47.62975" lon="-0.42191">
        <ele>52.57</ele>
        <time>2017-01-15T08:23:51Z</time>
      </trkpt>
      <trkpt lat="47.62978" lon="-0.42157">
        <ele>53.82</ele>
        <time>2017-01-15T08:23:55Z</time>
      </trkpt>
      <trkpt lat="47.62985" lon="-0.42126">
        <ele>54.66</ele>
        <time>2017-01-15T08:23:59Z</time>
      </trkpt>
      <trkpt lat="47.62991" lon="-0.42098">
        <ele>55.17</ele>
        <time>2017-01-15T08:24:04Z</time>
      </trkpt>
      <trkpt lat="47.62986" lon="-0.4207">
        <ele>56.54</ele>
        <time>2017-01-15T08:24:10Z</time>
      </trkpt>
      <trkpt lat="47.62969" lon="-0.42061">
        <ele>56.9</ele>
        <time>2017-01-15T08:24:14Z</time>
      </trkpt>
      <trkpt lat="47.62949" lon="-0.42049">
        <ele>56.89</ele>
        <time>2017-01-15T08:24:18Z</time>
      </trkpt>
      <trkpt lat="47.62929" lon="-0.42037">
        <ele>57.46</ele>
        <time>2017-01-15T08:24:22Z</time>
      </trkpt>
      <trkpt lat="47.6291" lon="-0.42027">
        <ele>57.61</ele>
        <time>2017-01-15T08:24:26Z</time>
      </trkpt>
      <trkpt lat="47.62893" lon="-0.4202">
        <ele>58.08</ele>
        <time>2017-01-15T08:24:30Z</time>
      </trkpt>
      <trkpt lat="47.62874" lon="-0.4201">
        <ele>58.21</ele>
        <time>2017-01-15T08:24:34Z</time>
      </trkpt>
      <trkpt lat="47.62855" lon="-0.42">
        <ele>57.36</ele>
        <time>2017-01-15T08:24:38Z</time>
      </trkpt>
      <trkpt lat="47.62837" lon="-0.41991">
        <ele>56.86</ele>
        <time>2017-01-15T08:24:42Z</time>
      </trkpt>
      <trkpt lat="47.62816" lon="-0.41987">
        <ele>56.71</ele>
        <time>2017-01-15T08:24:47Z</time>
      </trkpt>
      <trkpt lat="47.62803" lon="-0.42012">
        <ele>56.72</ele>
        <time>2017-01-15T08:24:52Z</time>
      </trkpt>
      <trkpt lat="47.62793" lon="-0.42035">
        <ele>57.08</ele>
        <time>2017-01-15T08:24:58Z</time>
      </trkpt>
      <trkpt lat="47.62784" lon="-0.42061">
        <ele>56.71</ele>
        <time>2017-01-15T08:25:19Z</time>
      </trkpt>
      <trkpt lat="47.62773" lon="-0.42088">
        <ele>55.76</ele>
        <time>2017-01-15T08:25:26Z</time>
      </trkpt>
      <trkpt lat="47.62755" lon="-0.4211">
        <ele>55.35</ele>
        <time>2017-01-15T08:25:30Z</time>
      </trkpt>
      <trkpt lat="47.62746" lon="-0.42137">
        <ele>55.03</ele>
        <time>2017-01-15T08:25:33Z</time>
      </trkpt>
      <trkpt lat="47.6274" lon="-0.42169">
        <ele>54.44</ele>
        <time>2017-01-15T08:25:36Z</time>
      </trkpt>
      <trkpt lat="47.62735" lon="-0.42202">
        <ele>53.75</ele>
        <time>2017-01-15T08:25:40Z</time>
      </trkpt>
      <trkpt lat="47.6273" lon="-0.42229">
        <ele>53.23</ele>
        <time>2017-01-15T08:25:44Z</time>
      </trkpt>
      <trkpt lat="47.62722" lon="-0.42266">
        <ele>53.02</ele>
        <time>2017-01-15T08:25:48Z</time>
      </trkpt>
      <trkpt lat="47.62718" lon="-0.423">
        <ele>52.54</ele>
        <time>2017-01-15T08:25:51Z</time>
      </trkpt>
      <trkpt lat="47.62714" lon="-0.42328">
        <ele>51.78</ele>
        <time>2017-01-15T08:25:54Z</time>
      </trkpt>
      <trkpt lat="47.62694" lon="-0.42325">
        <ele>50.65</ele>
        <time>2017-01-15T08:26:01Z</time>
      </trkpt>
      <trkpt lat="47.62679" lon="-0.42307">
        <ele>50.13</ele>
        <time>2017-01-15T08:26:05Z</time>
      </trkpt>
      <trkpt lat="47.62663" lon="-0.42282">
        <ele>49.83</ele>
        <time>2017-01-15T08:26:09Z</time>
      </trkpt>
      <trkpt lat="47.62648" lon="-0.42258">
        <ele>49.61</ele>
        <time>2017-01-15T08:26:13Z</time>
      </trkpt>
      <trkpt lat="47.62633" lon="-0.42231">
        <ele>49.45</ele>
        <time>2017-01-15T08:26:17Z</time>
      </trkpt>
      <trkpt lat="47.6262" lon="-0.42208">
        <ele>49.53</ele>
        <time>2017-01-15T08:26:20Z</time>
      </trkpt>
      <trkpt lat="47.62607" lon="-0.4218">
        <ele>48.95</ele>
        <time>2017-01-15T08:26:24Z</time>
      </trkpt>
      <trkpt lat="47.62594" lon="-0.42153">
        <ele>47.56</ele>
        <time>2017-01-15T08:26:28Z</time>
      </trkpt>
      <trkpt lat="47.62584" lon="-0.4213">
        <ele>46.95</ele>
        <time>2017-01-15T08:26:32Z</time>
      </trkpt>
      <trkpt lat="47.62571" lon="-0.42101">
        <ele>45.97</ele>
        <time>2017-01-15T08:26:37Z</time>
      </trkpt>
      <trkpt lat="47.6256" lon="-0.42079">
        <ele>45.62</ele>
        <time>2017-01-15T08:26:41Z</time>
      </trkpt>
      <trkpt lat="47.62547" lon="-0.42053">
        <ele>45.58</ele>
        <time>2017-01-15T08:26:46Z</time>
      </trkpt>
      <trkpt lat="47.62533" lon="-0.42029">
        <ele>46.17</ele>
        <time>2017-01-15T08:26:51Z</time>
      </trkpt>
      <trkpt lat="47.62522" lon="-0.42003">
        <ele>46.31</ele>
        <time>2017-01-15T08:26:56Z</time>
      </trkpt>
      <trkpt lat="47.62514" lon="-0.41975">
        <ele>45.4</ele>
        <time>2017-01-15T08:27:01Z</time>
      </trkpt>
      <trkpt lat="47.62502" lon="-0.41953">
        <ele>44.14</ele>
        <time>2017-01-15T08:27:06Z</time>
      </trkpt>
      <trkpt lat="47.62493" lon="-0.41927">
        <ele>43.45</ele>
        <time>2017-01-15T08:27:11Z</time>
      </trkpt>
      <trkpt lat="47.62483" lon="-0.419">
        <ele>42.32</ele>
        <time>2017-01-15T08:27:16Z</time>
      </trkpt>
      <trkpt lat="47.62475" lon="-0.41873">
        <ele>41.85</ele>
        <time>2017-01-15T08:27:21Z</time>
      </trkpt>
      <trkpt lat="47.62468" lon="-0.41845">
        <ele>41.88</ele>
        <time>2017-01-15T08:27:26Z</time>
      </trkpt>
      <trkpt lat="47.62462" lon="-0.41819">
        <ele>41.77</ele>
        <time>2017-01-15T08:27:32Z</time>
      </trkpt>
      <trkpt lat="47.62443" lon="-0.41805">
        <ele>41.22</ele>
        <time>2017-01-15T08:27:39Z</time>
      </trkpt>
      <trkpt lat="47.62425" lon="-0.418">
        <ele>40.74</ele>
        <time>2017-01-15T08:27:44Z</time>
      </trkpt>
      <trkpt lat="47.62405" lon="-0.41798">
        <ele>40.31</ele>
        <time>2017-01-15T08:27:49Z</time>
      </trkpt>
      <trkpt lat="47.62388" lon="-0.41811">
        <ele>39.89</ele>
        <time>2017-01-15T08:27:53Z</time>
      </trkpt>
      <trkpt lat="47.62372" lon="-0.41823">
        <ele>39.36</ele>
        <time>2017-01-15T08:27:57Z</time>
      </trkpt>
      <trkpt lat="47.62354" lon="-0.41836">
        <ele>38.75</ele>
        <time>2017-01-15T08:28:00Z</time>
      </trkpt>
      <trkpt lat="47.62335" lon="-0.41852">
        <ele>37.98</ele>
        <time>2017-01-15T08:28:03Z</time>
      </trkpt>
      <trkpt lat="47.62315" lon="-0.41863">
        <ele>37.18</ele>
        <time>2017-01-15T08:28:06Z</time>
      </trkpt>
      <trkpt lat="47.62294" lon="-0.41876">
        <ele>36.07</ele>
        <time>2017-01-15T08:28:09Z</time>
      </trkpt>
      <trkpt lat="47.62277" lon="-0.41893">
        <ele>35.72</ele>
        <time>2017-01-15T08:28:12Z</time>
      </trkpt>
      <trkpt lat="47.62262" lon="-0.41908">
        <ele>35.34</ele>
        <time>2017-01-15T08:28:15Z</time>
      </trkpt>
      <trkpt lat="47.62246" lon="-0.41924">
        <ele>35.22</ele>
        <time>2017-01-15T08:28:18Z</time>
      </trkpt>
      <trkpt lat="47.62226" lon="-0.41945">
        <ele>34.75</ele>
        <time>2017-01-15T08:28:22Z</time>
      </trkpt>
      <trkpt lat="47.62211" lon="-0.41965">
        <ele>33.94</ele>
        <time>2017-01-15T08:28:25Z</time>
      </trkpt>
      <trkpt lat="47.62199" lon="-0.41986">
        <ele>32.98</ele>
        <time>2017-01-15T08:28:28Z</time>
      </trkpt>
      <trkpt lat="47.62184" lon="-0.42007">
        <ele>32.44</ele>
        <time>2017-01-15T08:28:31Z</time>
      </trkpt>
      <trkpt lat="47.62169" lon="-0.42027">
        <ele>32.15</ele>
        <time>2017-01-15T08:28:34Z</time>
      </trkpt>
      <trkpt lat="47.62154" lon="-0.42043">
        <ele>31.73</ele>
        <time>2017-01-15T08:28:37Z</time>
      </trkpt>
      <trkpt lat="47.62136" lon="-0.42064">
        <ele>31.12</ele>
        <time>2017-01-15T08:28:41Z</time>
      </trkpt>
      <trkpt lat="47.6212" lon="-0.42078">
        <ele>30.56</ele>
        <time>2017-01-15T08:28:44Z</time>
      </trkpt>
      <trkpt lat="47.62104" lon="-0.42091">
        <ele>29.9</ele>
        <time>2017-01-15T08:28:47Z</time>
      </trkpt>
      <trkpt lat="47.62084" lon="-0.42108">
        <ele>28.96</ele>
        <time>2017-01-15T08:28:51Z</time>
      </trkpt>
      <trkpt lat="47.62068" lon="-0.4212">
        <ele>28.18</ele>
        <time>2017-01-15T08:28:55Z</time>
      </trkpt>
      <trkpt lat="47.62051" lon="-0.42132">
        <ele>26.69</ele>
        <time>2017-01-15T08:28:59Z</time>
      </trkpt>
      <trkpt lat="47.62033" lon="-0.42147">
        <ele>26.15</ele>
        <time>2017-01-15T08:29:03Z</time>
      </trkpt>
      <trkpt lat="47.62015" lon="-0.42161">
        <ele>25.06</ele>
        <time>2017-01-15T08:29:07Z</time>
      </trkpt>
      <trkpt lat="47.61997" lon="-0.42174">
        <ele>24.45</ele>
        <time>2017-01-15T08:29:11Z</time>
      </trkpt>
      <trkpt lat="47.6198" lon="-0.42185">
        <ele>23.75</ele>
        <time>2017-01-15T08:29:15Z</time>
      </trkpt>
      <trkpt lat="47.61962" lon="-0.42197">
        <ele>21.93</ele>
        <time>2017-01-15T08:29:19Z</time>
      </trkpt>
      <trkpt lat="47.61945" lon="-0.42209">
        <ele>21.37</ele>
        <time>2017-01-15T08:29:23Z</time>
      </trkpt>
      <trkpt lat="47.61927" lon="-0.42222">
        <ele>21.31</ele>
        <time>2017-01-15T08:29:27Z</time>
      </trkpt>
      <trkpt lat="47.61912" lon="-0.42239">
        <ele>21.13</ele>
        <time>2017-01-15T08:29:31Z</time>
      </trkpt>
      <trkpt lat="47.61895" lon="-0.42255">
        <ele>21.13</ele>
        <time>2017-01-15T08:29:35Z</time>
      </trkpt>
      <trkpt lat="47.61879" lon="-0.42271">
        <ele>20.92</ele>
        <time>2017-01-15T08:29:39Z</time>
      </trkpt>
      <trkpt lat="47.61863" lon="-0.4229">
        <ele>20.99</ele>
        <time>2017-01-15T08:29:44Z</time>
      </trkpt>
      <trkpt lat="47.61849" lon="-0.42308">
        <ele>21.48</ele>
        <time>2017-01-15T08:29:49Z</time>
      </trkpt>
      <trkpt lat="47.61835" lon="-0.42327">
        <ele>21.88</ele>
        <time>2017-01-15T08:29:54Z</time>
      </trkpt>
      <trkpt lat="47.6182" lon="-0.42344">
        <ele>22.86</ele>
        <time>2017-01-15T08:29:59Z</time>
      </trkpt>
      <trkpt lat="47.61804" lon="-0.42362">
        <ele>22.72</ele>
        <time>2017-01-15T08:30:04Z</time>
      </trkpt>
      <trkpt lat="47.61787" lon="-0.42376">
        <ele>22.43</ele>
        <time>2017-01-15T08:30:09Z</time>
      </trkpt>
      <trkpt lat="47.61772" lon="-0.42392">
        <ele>22.13</ele>
        <time>2017-01-15T08:30:15Z</time>
      </trkpt>
      <trkpt lat="47.61756" lon="-0.42409">
        <ele>22.21</ele>
        <time>2017-01-15T08:30:51Z</time>
      </trkpt>
      <trkpt lat="47.61741" lon="-0.42424">
        <ele>22.23</ele>
        <time>2017-01-15T08:30:56Z</time>
      </trkpt>
      <trkpt lat="47.61723" lon="-0.42441">
        <ele>21.97</ele>
        <time>2017-01-15T08:31:01Z</time>
      </trkpt>
      <trkpt lat="47.61706" lon="-0.42458">
        <ele>22.39</ele>
        <time>2017-01-15T08:31:06Z</time>
      </trkpt>
      <trkpt lat="47.61689" lon="-0.42475">
        <ele>22.3</ele>
        <time>2017-01-15T08:31:11Z</time>
      </trkpt>
      <trkpt lat="47.61674" lon="-0.42491">
        <ele>21.95</ele>
        <time>2017-01-15T08:31:15Z</time>
      </trkpt>
      <trkpt lat="47.61659" lon="-0.42505">
        <ele>21.72</ele>
        <time>2017-01-15T08:31:19Z</time>
      </trkpt>
      <trkpt lat="47.61639" lon="-0.4252">
        <ele>22.08</ele>
        <time>2017-01-15T08:31:24Z</time>
      </trkpt>
      <trkpt lat="47.6162" lon="-0.42531">
        <ele>22.3</ele>
        <time>2017-01-15T08:31:29Z</time>
      </trkpt>
      <trkpt lat="47.616" lon="-0.42543">
        <ele>22.09</ele>
        <time>2017-01-15T08:31:34Z</time>
      </trkpt>
      <trkpt lat="47.61579" lon="-0.42551">
        <ele>22.6</ele>
        <time>2017-01-15T08:31:39Z</time>
      </trkpt>
      <trkpt lat="47.61558" lon="-0.42561">
        <ele>22.77</ele>
        <time>2017-01-15T08:31:44Z</time>
      </trkpt>
      <trkpt lat="47.6154" lon="-0.42571">
        <ele>22.61</ele>
        <time>2017-01-15T08:31:48Z</time>
      </trkpt>
      <trkpt lat="47.61523" lon="-0.42579">
        <ele>22.43</ele>
        <time>2017-01-15T08:31:52Z</time>
      </trkpt>
      <trkpt lat="47.61503" lon="-0.42588">
        <ele>22.04</ele>
        <time>2017-01-15T08:31:57Z</time>
      </trkpt>
      <trkpt lat="47.61482" lon="-0.42596">
        <ele>22.09</ele>
        <time>2017-01-15T08:32:02Z</time>
      </trkpt>
      <trkpt lat="47.61462" lon="-0.42605">
        <ele>21.75</ele>
        <time>2017-01-15T08:32:07Z</time>
      </trkpt>
      <trkpt lat="47.61441" lon="-0.42611">
        <ele>21.11</ele>
        <time>2017-01-15T08:32:12Z</time>
      </trkpt>
      <trkpt lat="47.61419" lon="-0.42618">
        <ele>21.32</ele>
        <time>2017-01-15T08:32:17Z</time>
      </trkpt>
      <trkpt lat="47.614" lon="-0.42621">
        <ele>21.37</ele>
        <time>2017-01-15T08:32:21Z</time>
      </trkpt>
      <trkpt lat="47.61382" lon="-0.42625">
        <ele>21.49</ele>
        <time>2017-01-15T08:32:25Z</time>
      </trkpt>
      <trkpt lat="47.61364" lon="-0.42628">
        <ele>21.98</ele>
        <time>2017-01-15T08:32:29Z</time>
      </trkpt>
      <trkpt lat="47.61345" lon="-0.42631">
        <ele>22.28</ele>
        <time>2017-01-15T08:32:33Z</time>
      </trkpt>
      <trkpt lat="47.61326" lon="-0.42637">
        <ele>22.39</ele>
        <time>2017-01-15T08:32:37Z</time>
      </trkpt>
      <trkpt lat="47.61307" lon="-0.4264">
        <ele>22.51</ele>
        <time>2017-01-15T08:32:41Z</time>
      </trkpt>
      <trkpt lat="47.61289" lon="-0.42644">
        <ele>22.88</ele>
        <time>2017-01-15T08:32:45Z</time>
      </trkpt>
      <trkpt lat="47.6127" lon="-0.42649">
        <ele>23.38</ele>
        <time>2017-01-15T08:32:49Z</time>
      </trkpt>
      <trkpt lat="47.61252" lon="-0.42653">
        <ele>23.71</ele>
        <time>2017-01-15T08:32:53Z</time>
      </trkpt>
      <trkpt lat="47.61233" lon="-0.42659">
        <ele>23.37</ele>
        <time>2017-01-15T08:32:57Z</time>
      </trkpt>
      <trkpt lat="47.61214" lon="-0.42666">
        <ele>22.93</ele>
        <time>2017-01-15T08:33:01Z</time>
      </trkpt>
      <trkpt lat="47.61195" lon="-0.42673">
        <ele>22.9</ele>
        <time>2017-01-15T08:33:05Z</time>
      </trkpt>
      <trkpt lat="47.61178" lon="-0.42683">
        <ele>22.63</ele>
        <time>2017-01-15T08:33:09Z</time>
      </trkpt>
      <trkpt lat="47.61158" lon="-0.42692">
        <ele>22.24</ele>
        <time>2017-01-15T08:33:13Z</time>
      </trkpt>
      <trkpt lat="47.6114" lon="-0.42702">
        <ele>22.66</ele>
        <time>2017-01-15T08:33:17Z</time>
      </trkpt>
      <trkpt lat="47.61122" lon="-0.42719">
        <ele>22.8</ele>
        <time>2017-01-15T08:33:21Z</time>
      </trkpt>
      <trkpt lat="47.61107" lon="-0.42735">
        <ele>23.08</ele>
        <time>2017-01-15T08:33:25Z</time>
      </trkpt>
      <trkpt lat="47.61094" lon="-0.42753">
        <ele>22.67</ele>
        <time>2017-01-15T08:33:28Z</time>
      </trkpt>
      <trkpt lat="47.61078" lon="-0.42771">
        <ele>22.02</ele>
        <time>2017-01-15T08:33:31Z</time>
      </trkpt>
      <trkpt lat="47.61062" lon="-0.4279">
        <ele>22.67</ele>
        <time>2017-01-15T08:33:35Z</time>
      </trkpt>
      <trkpt lat="47.61047" lon="-0.42812">
        <ele>23.38</ele>
        <time>2017-01-15T08:33:39Z</time>
      </trkpt>
      <trkpt lat="47.61035" lon="-0.42832">
        <ele>23.68</ele>
        <time>2017-01-15T08:33:43Z</time>
      </trkpt>
      <trkpt lat="47.61022" lon="-0.42855">
        <ele>23.61</ele>
        <time>2017-01-15T08:33:47Z</time>
      </trkpt>
      <trkpt lat="47.6101" lon="-0.42876">
        <ele>23.79</ele>
        <time>2017-01-15T08:33:51Z</time>
      </trkpt>
      <trkpt lat="47.60997" lon="-0.42899">
        <ele>23.51</ele>
        <time>2017-01-15T08:33:56Z</time>
      </trkpt>
      <trkpt lat="47.60987" lon="-0.42922">
        <ele>23.13</ele>
        <time>2017-01-15T08:34:00Z</time>
      </trkpt>
      <trkpt lat="47.60975" lon="-0.42949">
        <ele>23.19</ele>
        <time>2017-01-15T08:34:04Z</time>
      </trkpt>
      <trkpt lat="47.60966" lon="-0.42975">
        <ele>23.19</ele>
        <time>2017-01-15T08:34:08Z</time>
      </trkpt>
      <trkpt lat="47.60957" lon="-0.43001">
        <ele>23.21</ele>
        <time>2017-01-15T08:34:12Z</time>
      </trkpt>
      <trkpt lat="47.60949" lon="-0.43026">
        <ele>23.64</ele>
        <time>2017-01-15T08:34:16Z</time>
      </trkpt>
      <trkpt lat="47.60938" lon="-0.43055">
        <ele>24.1</ele>
        <time>2017-01-15T08:34:21Z</time>
      </trkpt>
      <trkpt lat="47.60927" lon="-0.43082">
        <ele>24.46</ele>
        <time>2017-01-15T08:34:26Z</time>
      </trkpt>
      <trkpt lat="47.60917" lon="-0.43111">
        <ele>24.87</ele>
        <time>2017-01-15T08:34:31Z</time>
      </trkpt>
      <trkpt lat="47.60909" lon="-0.43135">
        <ele>24.98</ele>
        <time>2017-01-15T08:34:35Z</time>
      </trkpt>
      <trkpt lat="47.609" lon="-0.43162">
        <ele>24.91</ele>
        <time>2017-01-15T08:34:40Z</time>
      </trkpt>
      <trkpt lat="47.60891" lon="-0.43192">
        <ele>24.91</ele>
        <time>2017-01-15T08:34:45Z</time>
      </trkpt>
      <trkpt lat="47.60882" lon="-0.43222">
        <ele>24.65</ele>
        <time>2017-01-15T08:34:50Z</time>
      </trkpt>
      <trkpt lat="47.60873" lon="-0.43251">
        <ele>24.33</ele>
        <time>2017-01-15T08:34:55Z</time>
      </trkpt>
      <trkpt lat="47.60864" lon="-0.4328">
        <ele>23.53</ele>
        <time>2017-01-15T08:35:00Z</time>
      </trkpt>
      <trkpt lat="47.60856" lon="-0.43305">
        <ele>23.43</ele>
        <time>2017-01-15T08:35:04Z</time>
      </trkpt>
      <trkpt lat="47.60849" lon="-0.43329">
        <ele>22.86</ele>
        <time>2017-01-15T08:35:08Z</time>
      </trkpt>
      <trkpt lat="47.6084" lon="-0.43359">
        <ele>22.43</ele>
        <time>2017-01-15T08:35:13Z</time>
      </trkpt>
      <trkpt lat="47.60828" lon="-0.43384">
        <ele>21.81</ele>
        <time>2017-01-15T08:35:18Z</time>
      </trkpt>
      <trkpt lat="47.60808" lon="-0.43369">
        <ele>22.19</ele>
        <time>2017-01-15T08:35:23Z</time>
      </trkpt>
      <trkpt lat="47.60794" lon="-0.4335">
        <ele>22.58</ele>
        <time>2017-01-15T08:35:27Z</time>
      </trkpt>
      <trkpt lat="47.60781" lon="-0.4333">
        <ele>22.96</ele>
        <time>2017-01-15T08:35:31Z</time>
      </trkpt>
      <trkpt lat="47.60769" lon="-0.43309">
        <ele>23.31</ele>
        <time>2017-01-15T08:35:35Z</time>
      </trkpt>
      <trkpt lat="47.60758" lon="-0.43288">
        <ele>23.76</ele>
        <time>2017-01-15T08:35:39Z</time>
      </trkpt>
      <trkpt lat="47.60746" lon="-0.43267">
        <ele>24.38</ele>
        <time>2017-01-15T08:35:43Z</time>
      </trkpt>
      <trkpt lat="47.60733" lon="-0.43248">
        <ele>24.8</ele>
        <time>2017-01-15T08:35:47Z</time>
      </trkpt>
      <trkpt lat="47.60716" lon="-0.43227">
        <ele>25.36</ele>
        <time>2017-01-15T08:35:52Z</time>
      </trkpt>
      <trkpt lat="47.60703" lon="-0.43208">
        <ele>25.86</ele>
        <time>2017-01-15T08:35:56Z</time>
      </trkpt>
      <trkpt lat="47.60691" lon="-0.43185">
        <ele>26.96</ele>
        <time>2017-01-15T08:36:03Z</time>
      </trkpt>
      <trkpt lat="47.60686" lon="-0.43158">
        <ele>27.94</ele>
        <time>2017-01-15T08:36:08Z</time>
      </trkpt>
      <trkpt lat="47.60679" lon="-0.43126">
        <ele>28.88</ele>
        <time>2017-01-15T08:36:13Z</time>
      </trkpt>
      <trkpt lat="47.60673" lon="-0.43098">
        <ele>29.78</ele>
        <time>2017-01-15T08:36:18Z</time>
      </trkpt>
      <trkpt lat="47.60668" lon="-0.43068">
        <ele>30.58</ele>
        <time>2017-01-15T08:36:23Z</time>
      </trkpt>
      <trkpt lat="47.60664" lon="-0.4304">
        <ele>31.1</ele>
        <time>2017-01-15T08:36:28Z</time>
      </trkpt>
      <trkpt lat="47.60658" lon="-0.43013">
        <ele>31.86</ele>
        <time>2017-01-15T08:36:33Z</time>
      </trkpt>
      <trkpt lat="47.60651" lon="-0.42984">
        <ele>32.49</ele>
        <time>2017-01-15T08:36:38Z</time>
      </trkpt>
      <trkpt lat="47.60646" lon="-0.42959">
        <ele>33.08</ele>
        <time>2017-01-15T08:36:42Z</time>
      </trkpt>
      <trkpt lat="47.60641" lon="-0.42926">
        <ele>33.19</ele>
        <time>2017-01-15T08:36:47Z</time>
      </trkpt>
      <trkpt lat="47.60636" lon="-0.42896">
        <ele>33.88</ele>
        <time>2017-01-15T08:36:52Z</time>
      </trkpt>
      <trkpt lat="47.60629" lon="-0.42867">
        <ele>34.5</ele>
        <time>2017-01-15T08:36:57Z</time>
      </trkpt>
      <trkpt lat="47.60624" lon="-0.42838">
        <ele>34.91</ele>
        <time>2017-01-15T08:37:02Z</time>
      </trkpt>
      <trkpt lat="47.60618" lon="-0.42808">
        <ele>34.81</ele>
        <time>2017-01-15T08:37:07Z</time>
      </trkpt>
      <trkpt lat="47.60613" lon="-0.42779">
        <ele>34.51</ele>
        <time>2017-01-15T08:37:12Z</time>
      </trkpt>
      <trkpt lat="47.606" lon="-0.4276">
        <ele>34.4</ele>
        <time>2017-01-15T08:37:18Z</time>
      </trkpt>
      <trkpt lat="47.6059" lon="-0.42784">
        <ele>33.99</ele>
        <time>2017-01-15T08:37:27Z</time>
      </trkpt>
      <trkpt lat="47.60572" lon="-0.42784">
        <ele>33.72</ele>
        <time>2017-01-15T08:37:33Z</time>
      </trkpt>
      <trkpt lat="47.60554" lon="-0.428">
        <ele>33.51</ele>
        <time>2017-01-15T08:37:40Z</time>
      </trkpt>
      <trkpt lat="47.60534" lon="-0.42812">
        <ele>32.24</ele>
        <time>2017-01-15T08:37:46Z</time>
      </trkpt>
      <trkpt lat="47.60515" lon="-0.42822">
        <ele>30.83</ele>
        <time>2017-01-15T08:37:50Z</time>
      </trkpt>
      <trkpt lat="47.60497" lon="-0.42831">
        <ele>31.01</ele>
        <time>2017-01-15T08:37:55Z</time>
      </trkpt>
      <trkpt lat="47.60481" lon="-0.42842">
        <ele>31.31</ele>
        <time>2017-01-15T08:38:04Z</time>
      </trkpt>
      <trkpt lat="47.60462" lon="-0.42853">
        <ele>31.13</ele>
        <time>2017-01-15T08:38:14Z</time>
      </trkpt>
      <trkpt lat="47.60442" lon="-0.4286">
        <ele>29.8</ele>
        <time>2017-01-15T08:38:20Z</time>
      </trkpt>
      <trkpt lat="47.60421" lon="-0.42867">
        <ele>27.76</ele>
        <time>2017-01-15T08:38:25Z</time>
      </trkpt>
      <trkpt lat="47.60401" lon="-0.42874">
        <ele>26.37</ele>
        <time>2017-01-15T08:38:29Z</time>
      </trkpt>
      <trkpt lat="47.60387" lon="-0.42892">
        <ele>26.03</ele>
        <time>2017-01-15T08:38:34Z</time>
      </trkpt>
      <trkpt lat="47.60376" lon="-0.42919">
        <ele>26.1</ele>
        <time>2017-01-15T08:38:39Z</time>
      </trkpt>
      <trkpt lat="47.60372" lon="-0.42946">
        <ele>25.91</ele>
        <time>2017-01-15T08:38:44Z</time>
      </trkpt>
      <trkpt lat="47.60363" lon="-0.42974">
        <ele>26.01</ele>
        <time>2017-01-15T08:38:51Z</time>
      </trkpt>
      <trkpt lat="47.60356" lon="-0.43002">
        <ele>25.71</ele>
        <time>2017-01-15T08:38:56Z</time>
      </trkpt>
      <trkpt lat="47.60344" lon="-0.43023">
        <ele>26.11</ele>
        <time>2017-01-15T08:39:02Z</time>
      </trkpt>
      <trkpt lat="47.60327" lon="-0.43044">
        <ele>25.12</ele>
        <time>2017-01-15T08:39:07Z</time>
      </trkpt>
      <trkpt lat="47.60314" lon="-0.43066">
        <ele>24.92</ele>
        <time>2017-01-15T08:39:12Z</time>
      </trkpt>
      <trkpt lat="47.60318" lon="-0.43092">
        <ele>23.86</ele>
        <time>2017-01-15T08:39:16Z</time>
      </trkpt>
      <trkpt lat="47.60326" lon="-0.4312">
        <ele>22.85</ele>
        <time>2017-01-15T08:39:21Z</time>
      </trkpt>
      <trkpt lat="47.60336" lon="-0.43146">
        <ele>22.29</ele>
        <time>2017-01-15T08:39:26Z</time>
      </trkpt>
      <trkpt lat="47.60359" lon="-0.43145">
        <ele>22.67</ele>
        <time>2017-01-15T08:39:33Z</time>
      </trkpt>
      <trkpt lat="47.60379" lon="-0.43152">
        <ele>22.51</ele>
        <time>2017-01-15T08:39:38Z</time>
      </trkpt>
      <trkpt lat="47.60396" lon="-0.43166">
        <ele>22.66</ele>
        <time>2017-01-15T08:39:42Z</time>
      </trkpt>
      <trkpt lat="47.60414" lon="-0.43177">
        <ele>23.76</ele>
        <time>2017-01-15T08:39:46Z</time>
      </trkpt>
      <trkpt lat="47.60433" lon="-0.43189">
        <ele>25.06</ele>
        <time>2017-01-15T08:39:52Z</time>
      </trkpt>
      <trkpt lat="47.60443" lon="-0.43215">
        <ele>25.79</ele>
        <time>2017-01-15T08:39:59Z</time>
      </trkpt>
      <trkpt lat="47.60432" lon="-0.4324">
        <ele>26.76</ele>
        <time>2017-01-15T08:40:06Z</time>
      </trkpt>
      <trkpt lat="47.60421" lon="-0.43261">
        <ele>27.19</ele>
        <time>2017-01-15T08:40:12Z</time>
      </trkpt>
      <trkpt lat="47.60402" lon="-0.43267">
        <ele>27.26</ele>
        <time>2017-01-15T08:41:01Z</time>
      </trkpt>
      <trkpt lat="47.60386" lon="-0.4325">
        <ele>28.96</ele>
        <time>2017-01-15T08:41:09Z</time>
      </trkpt>
      <trkpt lat="47.6037" lon="-0.43234">
        <ele>30.44</ele>
        <time>2017-01-15T08:41:15Z</time>
      </trkpt>
      <trkpt lat="47.60353" lon="-0.43217">
        <ele>30.96</ele>
        <time>2017-01-15T08:41:21Z</time>
      </trkpt>
      <trkpt lat="47.60335" lon="-0.432">
        <ele>31.5</ele>
        <time>2017-01-15T08:41:27Z</time>
      </trkpt>
      <trkpt lat="47.60318" lon="-0.43183">
        <ele>31.69</ele>
        <time>2017-01-15T08:41:32Z</time>
      </trkpt>
      <trkpt lat="47.603" lon="-0.43166">
        <ele>31.71</ele>
        <time>2017-01-15T08:41:37Z</time>
      </trkpt>
      <trkpt lat="47.60282" lon="-0.43149">
        <ele>32</ele>
        <time>2017-01-15T08:41:42Z</time>
      </trkpt>
      <trkpt lat="47.60264" lon="-0.43132">
        <ele>32.21</ele>
        <time>2017-01-15T08:41:47Z</time>
      </trkpt>
      <trkpt lat="47.60244" lon="-0.4312">
        <ele>32.13</ele>
        <time>2017-01-15T08:41:52Z</time>
      </trkpt>
      <trkpt lat="47.60225" lon="-0.43117">
        <ele>32.2</ele>
        <time>2017-01-15T08:41:56Z</time>
      </trkpt>
      <trkpt lat="47.60205" lon="-0.43116">
        <ele>32.23</ele>
        <time>2017-01-15T08:42:00Z</time>
      </trkpt>
      <trkpt lat="47.60186" lon="-0.43113">
        <ele>32.22</ele>
        <time>2017-01-15T08:42:04Z</time>
      </trkpt>
      <trkpt lat="47.60167" lon="-0.43107">
        <ele>32.11</ele>
        <time>2017-01-15T08:42:08Z</time>
      </trkpt>
      <trkpt lat="47.60148" lon="-0.431">
        <ele>32.3</ele>
        <time>2017-01-15T08:42:12Z</time>
      </trkpt>
      <trkpt lat="47.6013" lon="-0.43089">
        <ele>32.58</ele>
        <time>2017-01-15T08:42:16Z</time>
      </trkpt>
      <trkpt lat="47.60112" lon="-0.43079">
        <ele>32.45</ele>
        <time>2017-01-15T08:42:20Z</time>
      </trkpt>
      <trkpt lat="47.60095" lon="-0.43068">
        <ele>32.6</ele>
        <time>2017-01-15T08:42:24Z</time>
      </trkpt>
      <trkpt lat="47.60075" lon="-0.43058">
        <ele>32.24</ele>
        <time>2017-01-15T08:42:29Z</time>
      </trkpt>
      <trkpt lat="47.60054" lon="-0.43047">
        <ele>32.51</ele>
        <time>2017-01-15T08:42:34Z</time>
      </trkpt>
      <trkpt lat="47.60033" lon="-0.43038">
        <ele>32.88</ele>
        <time>2017-01-15T08:42:39Z</time>
      </trkpt>
      <trkpt lat="47.60016" lon="-0.43032">
        <ele>33.59</ele>
        <time>2017-01-15T08:42:43Z</time>
      </trkpt>
      <trkpt lat="47.59998" lon="-0.43026">
        <ele>33.98</ele>
        <time>2017-01-15T08:42:47Z</time>
      </trkpt>
      <trkpt lat="47.5998" lon="-0.4302">
        <ele>34.28</ele>
        <time>2017-01-15T08:42:51Z</time>
      </trkpt>
      <trkpt lat="47.59961" lon="-0.43016">
        <ele>34.41</ele>
        <time>2017-01-15T08:42:55Z</time>
      </trkpt>
      <trkpt lat="47.59942" lon="-0.43012">
        <ele>34.23</ele>
        <time>2017-01-15T08:42:59Z</time>
      </trkpt>
      <trkpt lat="47.59924" lon="-0.43007">
        <ele>34.46</ele>
        <time>2017-01-15T08:43:03Z</time>
      </trkpt>
      <trkpt lat="47.59905" lon="-0.43001">
        <ele>35.16</ele>
        <time>2017-01-15T08:43:07Z</time>
      </trkpt>
      <trkpt lat="47.59887" lon="-0.42995">
        <ele>35.93</ele>
        <time>2017-01-15T08:43:11Z</time>
      </trkpt>
      <trkpt lat="47.59869" lon="-0.42988">
        <ele>36.38</ele>
        <time>2017-01-15T08:43:15Z</time>
      </trkpt>
      <trkpt lat="47.59851" lon="-0.42982">
        <ele>36.59</ele>
        <time>2017-01-15T08:43:19Z</time>
      </trkpt>
      <trkpt lat="47.59829" lon="-0.42977">
        <ele>37.16</ele>
        <time>2017-01-15T08:43:24Z</time>
      </trkpt>
      <trkpt lat="47.59808" lon="-0.42973">
        <ele>37.69</ele>
        <time>2017-01-15T08:43:29Z</time>
      </trkpt>
      <trkpt lat="47.59786" lon="-0.42969">
        <ele>38.38</ele>
        <time>2017-01-15T08:43:34Z</time>
      </trkpt>
      <trkpt lat="47.59769" lon="-0.42963">
        <ele>38.76</ele>
        <time>2017-01-15T08:43:38Z</time>
      </trkpt>
      <trkpt lat="47.5975" lon="-0.42958">
        <ele>39.16</ele>
        <time>2017-01-15T08:43:42Z</time>
      </trkpt>
      <trkpt lat="47.59729" lon="-0.42952">
        <ele>39.96</ele>
        <time>2017-01-15T08:43:47Z</time>
      </trkpt>
      <trkpt lat="47.59709" lon="-0.42946">
        <ele>40.67</ele>
        <time>2017-01-15T08:43:52Z</time>
      </trkpt>
      <trkpt lat="47.59691" lon="-0.4294">
        <ele>41.39</ele>
        <time>2017-01-15T08:43:59Z</time>
      </trkpt>
      <trkpt lat="47.59679" lon="-0.42964">
        <ele>40.99</ele>
        <time>2017-01-15T08:44:07Z</time>
      </trkpt>
      <trkpt lat="47.5967" lon="-0.42991">
        <ele>40.81</ele>
        <time>2017-01-15T08:44:12Z</time>
      </trkpt>
      <trkpt lat="47.5966" lon="-0.43016">
        <ele>40.53</ele>
        <time>2017-01-15T08:44:17Z</time>
      </trkpt>
      <trkpt lat="47.5965" lon="-0.43045">
        <ele>40.61</ele>
        <time>2017-01-15T08:44:22Z</time>
      </trkpt>
      <trkpt lat="47.59642" lon="-0.43075">
        <ele>40.51</ele>
        <time>2017-01-15T08:44:27Z</time>
      </trkpt>
      <trkpt lat="47.59634" lon="-0.43103">
        <ele>40.49</ele>
        <time>2017-01-15T08:44:31Z</time>
      </trkpt>
      <trkpt lat="47.59627" lon="-0.43132">
        <ele>40.51</ele>
        <time>2017-01-15T08:44:35Z</time>
      </trkpt>
      <trkpt lat="47.59619" lon="-0.4316">
        <ele>40.15</ele>
        <time>2017-01-15T08:44:39Z</time>
      </trkpt>
      <trkpt lat="47.59611" lon="-0.43185">
        <ele>40.03</ele>
        <time>2017-01-15T08:44:43Z</time>
      </trkpt>
      <trkpt lat="47.59603" lon="-0.43212">
        <ele>39.83</ele>
        <time>2017-01-15T08:44:47Z</time>
      </trkpt>
      <trkpt lat="47.59594" lon="-0.43236">
        <ele>39.9</ele>
        <time>2017-01-15T08:44:51Z</time>
      </trkpt>
      <trkpt lat="47.59586" lon="-0.43262">
        <ele>39.16</ele>
        <time>2017-01-15T08:44:55Z</time>
      </trkpt>
      <trkpt lat="47.59577" lon="-0.43288">
        <ele>38.25</ele>
        <time>2017-01-15T08:45:00Z</time>
      </trkpt>
      <trkpt lat="47.59557" lon="-0.43284">
        <ele>37.61</ele>
        <time>2017-01-15T08:45:08Z</time>
      </trkpt>
      <trkpt lat="47.59538" lon="-0.43268">
        <ele>37.89</ele>
        <time>2017-01-15T08:45:13Z</time>
      </trkpt>
      <trkpt lat="47.5952" lon="-0.43253">
        <ele>37.63</ele>
        <time>2017-01-15T08:45:18Z</time>
      </trkpt>
      <trkpt lat="47.59504" lon="-0.43238">
        <ele>37.9</ele>
        <time>2017-01-15T08:45:22Z</time>
      </trkpt>
      <trkpt lat="47.59487" lon="-0.43223">
        <ele>37.73</ele>
        <time>2017-01-15T08:45:26Z</time>
      </trkpt>
      <trkpt lat="47.59468" lon="-0.43206">
        <ele>36.96</ele>
        <time>2017-01-15T08:45:30Z</time>
      </trkpt>
      <trkpt lat="47.59451" lon="-0.43189">
        <ele>36.3</ele>
        <time>2017-01-15T08:45:34Z</time>
      </trkpt>
      <trkpt lat="47.59433" lon="-0.43183">
        <ele>35.3</ele>
        <time>2017-01-15T08:45:38Z</time>
      </trkpt>
      <trkpt lat="47.59414" lon="-0.43193">
        <ele>34.28</ele>
        <time>2017-01-15T08:45:42Z</time>
      </trkpt>
      <trkpt lat="47.59395" lon="-0.43198">
        <ele>33.45</ele>
        <time>2017-01-15T08:45:46Z</time>
      </trkpt>
      <trkpt lat="47.59375" lon="-0.43198">
        <ele>33.3</ele>
        <time>2017-01-15T08:45:50Z</time>
      </trkpt>
      <trkpt lat="47.59363" lon="-0.43174">
        <ele>33.54</ele>
        <time>2017-01-15T08:45:57Z</time>
      </trkpt>
      <trkpt lat="47.59354" lon="-0.43146">
        <ele>34.27</ele>
        <time>2017-01-15T08:46:03Z</time>
      </trkpt>
      <trkpt lat="47.59348" lon="-0.43115">
        <ele>35.85</ele>
        <time>2017-01-15T08:46:09Z</time>
      </trkpt>
      <trkpt lat="47.59342" lon="-0.43087">
        <ele>37.05</ele>
        <time>2017-01-15T08:46:14Z</time>
      </trkpt>
      <trkpt lat="47.59335" lon="-0.43061">
        <ele>38.04</ele>
        <time>2017-01-15T08:46:19Z</time>
      </trkpt>
      <trkpt lat="47.59329" lon="-0.43032">
        <ele>38.72</ele>
        <time>2017-01-15T08:46:25Z</time>
      </trkpt>
      <trkpt lat="47.59323" lon="-0.43006">
        <ele>40.35</ele>
        <time>2017-01-15T08:46:30Z</time>
      </trkpt>
      <trkpt lat="47.59317" lon="-0.42978">
        <ele>40.78</ele>
        <time>2017-01-15T08:46:35Z</time>
      </trkpt>
      <trkpt lat="47.5931" lon="-0.4295">
        <ele>40.7</ele>
        <time>2017-01-15T08:46:40Z</time>
      </trkpt>
      <trkpt lat="47.59304" lon="-0.42923">
        <ele>41.18</ele>
        <time>2017-01-15T08:46:45Z</time>
      </trkpt>
      <trkpt lat="47.59299" lon="-0.42897">
        <ele>41.92</ele>
        <time>2017-01-15T08:46:50Z</time>
      </trkpt>
      <trkpt lat="47.59296" lon="-0.42867">
        <ele>42.32</ele>
        <time>2017-01-15T08:46:56Z</time>
      </trkpt>
      <trkpt lat="47.59291" lon="-0.4284">
        <ele>42.41</ele>
        <time>2017-01-15T08:47:02Z</time>
      </trkpt>
      <trkpt lat="47.59283" lon="-0.4281">
        <ele>42.29</ele>
        <time>2017-01-15T08:47:07Z</time>
      </trkpt>
      <trkpt lat="47.59272" lon="-0.42781">
        <ele>42.51</ele>
        <time>2017-01-15T08:47:12Z</time>
      </trkpt>
      <trkpt lat="47.59264" lon="-0.42752">
        <ele>42.88</ele>
        <time>2017-01-15T08:47:17Z</time>
      </trkpt>
      <trkpt lat="47.59253" lon="-0.42725">
        <ele>42.97</ele>
        <time>2017-01-15T08:47:22Z</time>
      </trkpt>
      <trkpt lat="47.59244" lon="-0.42698">
        <ele>42.79</ele>
        <time>2017-01-15T08:47:28Z</time>
      </trkpt>
      <trkpt lat="47.59236" lon="-0.42674">
        <ele>42.86</ele>
        <time>2017-01-15T08:47:49Z</time>
      </trkpt>
      <trkpt lat="47.59229" lon="-0.42647">
        <ele>42.09</ele>
        <time>2017-01-15T08:47:57Z</time>
      </trkpt>
      <trkpt lat="47.59224" lon="-0.42621">
        <ele>40.21</ele>
        <time>2017-01-15T08:49:44Z</time>
      </trkpt>
      <trkpt lat="47.59217" lon="-0.42595">
        <ele>40.88</ele>
        <time>2017-01-15T08:49:52Z</time>
      </trkpt>
      <trkpt lat="47.59208" lon="-0.42567">
        <ele>41</ele>
        <time>2017-01-15T08:49:58Z</time>
      </trkpt>
      <trkpt lat="47.59201" lon="-0.42538">
        <ele>41.2</ele>
        <time>2017-01-15T08:50:04Z</time>
      </trkpt>
      <trkpt lat="47.59196" lon="-0.42509">
        <ele>42.63</ele>
        <time>2017-01-15T08:50:09Z</time>
      </trkpt>
      <trkpt lat="47.5919" lon="-0.42477">
        <ele>43.74</ele>
        <time>2017-01-15T08:50:14Z</time>
      </trkpt>
      <trkpt lat="47.59182" lon="-0.42448">
        <ele>44.37</ele>
        <time>2017-01-15T08:50:19Z</time>
      </trkpt>
      <trkpt lat="47.59172" lon="-0.42423">
        <ele>45.04</ele>
        <time>2017-01-15T08:50:24Z</time>
      </trkpt>
      <trkpt lat="47.59169" lon="-0.42396">
        <ele>45.43</ele>
        <time>2017-01-15T08:50:29Z</time>
      </trkpt>
      <trkpt lat="47.59182" lon="-0.42377">
        <ele>44.62</ele>
        <time>2017-01-15T08:50:35Z</time>
      </trkpt>
      <trkpt lat="47.59198" lon="-0.42364">
        <ele>44.88</ele>
        <time>2017-01-15T08:50:42Z</time>
      </trkpt>
      <trkpt lat="47.59213" lon="-0.42346">
        <ele>45.26</ele>
        <time>2017-01-15T08:50:49Z</time>
      </trkpt>
      <trkpt lat="47.59225" lon="-0.42324">
        <ele>45.21</ele>
        <time>2017-01-15T08:50:58Z</time>
      </trkpt>
      <trkpt lat="47.59224" lon="-0.42296">
        <ele>46.12</ele>
        <time>2017-01-15T08:51:07Z</time>
      </trkpt>
      <trkpt lat="47.59225" lon="-0.42268">
        <ele>46.21</ele>
        <time>2017-01-15T08:51:14Z</time>
      </trkpt>
      <trkpt lat="47.59228" lon="-0.42237">
        <ele>45.7</ele>
        <time>2017-01-15T08:51:20Z</time>
      </trkpt>
      <trkpt lat="47.59231" lon="-0.42205">
        <ele>45.61</ele>
        <time>2017-01-15T08:51:26Z</time>
      </trkpt>
      <trkpt lat="47.59231" lon="-0.42176">
        <ele>46.3</ele>
        <time>2017-01-15T08:51:33Z</time>
      </trkpt>
      <trkpt lat="47.59247" lon="-0.42159">
        <ele>45.36</ele>
        <time>2017-01-15T08:51:45Z</time>
      </trkpt>
      <trkpt lat="47.59266" lon="-0.42157">
        <ele>43.98</ele>
        <time>2017-01-15T08:51:52Z</time>
      </trkpt>
      <trkpt lat="47.59286" lon="-0.42151">
        <ele>42.63</ele>
        <time>2017-01-15T08:51:58Z</time>
      </trkpt>
      <trkpt lat="47.59305" lon="-0.42144">
        <ele>41.46</ele>
        <time>2017-01-15T08:52:03Z</time>
      </trkpt>
      <trkpt lat="47.59322" lon="-0.42136">
        <ele>40.64</ele>
        <time>2017-01-15T08:52:08Z</time>
      </trkpt>
      <trkpt lat="47.5934" lon="-0.42129">
        <ele>40.05</ele>
        <time>2017-01-15T08:52:13Z</time>
      </trkpt>
      <trkpt lat="47.59359" lon="-0.42123">
        <ele>39.43</ele>
        <time>2017-01-15T08:52:18Z</time>
      </trkpt>
      <trkpt lat="47.59377" lon="-0.42116">
        <ele>38.94</ele>
        <time>2017-01-15T08:52:22Z</time>
      </trkpt>
      <trkpt lat="47.59396" lon="-0.42107">
        <ele>38.55</ele>
        <time>2017-01-15T08:52:27Z</time>
      </trkpt>
      <trkpt lat="47.59414" lon="-0.421">
        <ele>37.66</ele>
        <time>2017-01-15T08:52:31Z</time>
      </trkpt>
      <trkpt lat="47.59432" lon="-0.42095">
        <ele>36.91</ele>
        <time>2017-01-15T08:52:35Z</time>
      </trkpt>
      <trkpt lat="47.59453" lon="-0.42088">
        <ele>36.51</ele>
        <time>2017-01-15T08:52:40Z</time>
      </trkpt>
      <trkpt lat="47.59475" lon="-0.42081">
        <ele>35.83</ele>
        <time>2017-01-15T08:52:45Z</time>
      </trkpt>
      <trkpt lat="47.59496" lon="-0.42075">
        <ele>34.96</ele>
        <time>2017-01-15T08:52:50Z</time>
      </trkpt>
      <trkpt lat="47.59514" lon="-0.42067">
        <ele>34.26</ele>
        <time>2017-01-15T08:52:54Z</time>
      </trkpt>
      <trkpt lat="47.59531" lon="-0.42059">
        <ele>33.36</ele>
        <time>2017-01-15T08:52:58Z</time>
      </trkpt>
      <trkpt lat="47.5955" lon="-0.42051">
        <ele>33.19</ele>
        <time>2017-01-15T08:53:02Z</time>
      </trkpt>
      <trkpt lat="47.59567" lon="-0.42044">
        <ele>33.35</ele>
        <time>2017-01-15T08:53:06Z</time>
      </trkpt>
      <trkpt lat="47.59586" lon="-0.42036">
        <ele>33.11</ele>
        <time>2017-01-15T08:53:10Z</time>
      </trkpt>
      <trkpt lat="47.59605" lon="-0.42028">
        <ele>33.29</ele>
        <time>2017-01-15T08:53:14Z</time>
      </trkpt>
      <trkpt lat="47.59622" lon="-0.4202">
        <ele>32.95</ele>
        <time>2017-01-15T08:53:18Z</time>
      </trkpt>
      <trkpt lat="47.59642" lon="-0.42008">
        <ele>33.38</ele>
        <time>2017-01-15T08:53:23Z</time>
      </trkpt>
      <trkpt lat="47.59658" lon="-0.41993">
        <ele>33.6</ele>
        <time>2017-01-15T08:53:27Z</time>
      </trkpt>
      <trkpt lat="47.59675" lon="-0.41977">
        <ele>33.82</ele>
        <time>2017-01-15T08:53:31Z</time>
      </trkpt>
      <trkpt lat="47.5969" lon="-0.4196">
        <ele>34.39</ele>
        <time>2017-01-15T08:53:35Z</time>
      </trkpt>
      <trkpt lat="47.59704" lon="-0.41941">
        <ele>33.8</ele>
        <time>2017-01-15T08:53:39Z</time>
      </trkpt>
      <trkpt lat="47.5972" lon="-0.41917">
        <ele>35.22</ele>
        <time>2017-01-15T08:53:44Z</time>
      </trkpt>
      <trkpt lat="47.59732" lon="-0.41896">
        <ele>36.89</ele>
        <time>2017-01-15T08:53:48Z</time>
      </trkpt>
      <trkpt lat="47.59729" lon="-0.41866">
        <ele>38.62</ele>
        <time>2017-01-15T08:53:53Z</time>
      </trkpt>
      <trkpt lat="47.59721" lon="-0.41837">
        <ele>40.33</ele>
        <time>2017-01-15T08:53:58Z</time>
      </trkpt>
      <trkpt lat="47.59714" lon="-0.41809">
        <ele>42.51</ele>
        <time>2017-01-15T08:54:03Z</time>
      </trkpt>
      <trkpt lat="47.59708" lon="-0.41781">
        <ele>44.23</ele>
        <time>2017-01-15T08:54:08Z</time>
      </trkpt>
      <trkpt lat="47.597" lon="-0.41756">
        <ele>45.64</ele>
        <time>2017-01-15T08:54:13Z</time>
      </trkpt>
      <trkpt lat="47.59691" lon="-0.4173">
        <ele>47.31</ele>
        <time>2017-01-15T08:54:18Z</time>
      </trkpt>
      <trkpt lat="47.59681" lon="-0.41703">
        <ele>48.28</ele>
        <time>2017-01-15T08:54:23Z</time>
      </trkpt>
      <trkpt lat="47.59672" lon="-0.41677">
        <ele>48.88</ele>
        <time>2017-01-15T08:54:29Z</time>
      </trkpt>
      <trkpt lat="47.59662" lon="-0.41649">
        <ele>50.52</ele>
        <time>2017-01-15T08:54:35Z</time>
      </trkpt>
      <trkpt lat="47.5965" lon="-0.41624">
        <ele>51.84</ele>
        <time>2017-01-15T08:54:40Z</time>
      </trkpt>
      <trkpt lat="47.59638" lon="-0.41599">
        <ele>52.74</ele>
        <time>2017-01-15T08:54:45Z</time>
      </trkpt>
      <trkpt lat="47.59624" lon="-0.41577">
        <ele>53.64</ele>
        <time>2017-01-15T08:54:50Z</time>
      </trkpt>
      <trkpt lat="47.59608" lon="-0.41555">
        <ele>54.65</ele>
        <time>2017-01-15T08:54:55Z</time>
      </trkpt>
      <trkpt lat="47.59592" lon="-0.4154">
        <ele>55.08</ele>
        <time>2017-01-15T08:55:00Z</time>
      </trkpt>
      <trkpt lat="47.59573" lon="-0.41546">
        <ele>55.11</ele>
        <time>2017-01-15T08:55:07Z</time>
      </trkpt>
      <trkpt lat="47.59556" lon="-0.41533">
        <ele>55.6</ele>
        <time>2017-01-15T08:55:15Z</time>
      </trkpt>
      <trkpt lat="47.59539" lon="-0.41515">
        <ele>55.99</ele>
        <time>2017-01-15T08:55:22Z</time>
      </trkpt>
      <trkpt lat="47.59524" lon="-0.41498">
        <ele>55.71</ele>
        <time>2017-01-15T08:55:26Z</time>
      </trkpt>
      <trkpt lat="47.59514" lon="-0.41472">
        <ele>55.31</ele>
        <time>2017-01-15T08:55:34Z</time>
      </trkpt>
      <trkpt lat="47.595" lon="-0.4145">
        <ele>54.96</ele>
        <time>2017-01-15T08:55:40Z</time>
      </trkpt>
      <trkpt lat="47.59484" lon="-0.41435">
        <ele>54.81</ele>
        <time>2017-01-15T08:55:46Z</time>
      </trkpt>
      <trkpt lat="47.59467" lon="-0.41421">
        <ele>57.26</ele>
        <time>2017-01-15T08:58:48Z</time>
      </trkpt>
      <trkpt lat="47.5945" lon="-0.41401">
        <ele>57.26</ele>
        <time>2017-01-15T08:58:56Z</time>
      </trkpt>
      <trkpt lat="47.5943" lon="-0.41388">
        <ele>57.21</ele>
        <time>2017-01-15T08:59:01Z</time>
      </trkpt>
      <trkpt lat="47.59411" lon="-0.41373">
        <ele>56.82</ele>
        <time>2017-01-15T08:59:05Z</time>
      </trkpt>
      <trkpt lat="47.59392" lon="-0.41354">
        <ele>56.13</ele>
        <time>2017-01-15T08:59:10Z</time>
      </trkpt>
      <trkpt lat="47.59378" lon="-0.41337">
        <ele>55.91</ele>
        <time>2017-01-15T08:59:14Z</time>
      </trkpt>
      <trkpt lat="47.59362" lon="-0.41323">
        <ele>56.66</ele>
        <time>2017-01-15T08:59:18Z</time>
      </trkpt>
      <trkpt lat="47.59343" lon="-0.4133">
        <ele>55.86</ele>
        <time>2017-01-15T08:59:25Z</time>
      </trkpt>
      <trkpt lat="47.59329" lon="-0.41349">
        <ele>56</ele>
        <time>2017-01-15T08:59:33Z</time>
      </trkpt>
      <trkpt lat="47.59315" lon="-0.41373">
        <ele>55.14</ele>
        <time>2017-01-15T08:59:41Z</time>
      </trkpt>
      <trkpt lat="47.593" lon="-0.41389">
        <ele>54.23</ele>
        <time>2017-01-15T08:59:49Z</time>
      </trkpt>
      <trkpt lat="47.59282" lon="-0.414">
        <ele>52.19</ele>
        <time>2017-01-15T09:01:47Z</time>
      </trkpt>
      <trkpt lat="47.59264" lon="-0.41413">
        <ele>52.38</ele>
        <time>2017-01-15T09:01:54Z</time>
      </trkpt>
      <trkpt lat="47.59244" lon="-0.41426">
        <ele>52.7</ele>
        <time>2017-01-15T09:02:01Z</time>
      </trkpt>
      <trkpt lat="47.59228" lon="-0.4144">
        <ele>53.19</ele>
        <time>2017-01-15T09:02:06Z</time>
      </trkpt>
      <trkpt lat="47.5921" lon="-0.41458">
        <ele>53.4</ele>
        <time>2017-01-15T09:02:12Z</time>
      </trkpt>
      <trkpt lat="47.59194" lon="-0.41473">
        <ele>53.49</ele>
        <time>2017-01-15T09:02:17Z</time>
      </trkpt>
      <trkpt lat="47.59178" lon="-0.41488">
        <ele>53.9</ele>
        <time>2017-01-15T09:02:22Z</time>
      </trkpt>
      <trkpt lat="47.59159" lon="-0.415">
        <ele>54.29</ele>
        <time>2017-01-15T09:02:27Z</time>
      </trkpt>
      <trkpt lat="47.5914" lon="-0.41518">
        <ele>54.61</ele>
        <time>2017-01-15T09:02:32Z</time>
      </trkpt>
      <trkpt lat="47.59124" lon="-0.41531">
        <ele>54.51</ele>
        <time>2017-01-15T09:02:36Z</time>
      </trkpt>
      <trkpt lat="47.59106" lon="-0.41548">
        <ele>54.4</ele>
        <time>2017-01-15T09:02:41Z</time>
      </trkpt>
      <trkpt lat="47.59086" lon="-0.41562">
        <ele>54.31</ele>
        <time>2017-01-15T09:02:46Z</time>
      </trkpt>
      <trkpt lat="47.59067" lon="-0.41553">
        <ele>54.35</ele>
        <time>2017-01-15T09:02:52Z</time>
      </trkpt>
      <trkpt lat="47.59059" lon="-0.41526">
        <ele>55.08</ele>
        <time>2017-01-15T09:02:57Z</time>
      </trkpt>
      <trkpt lat="47.5905" lon="-0.41499">
        <ele>55.6</ele>
        <time>2017-01-15T09:03:02Z</time>
      </trkpt>
      <trkpt lat="47.59039" lon="-0.41473">
        <ele>55.89</ele>
        <time>2017-01-15T09:03:08Z</time>
      </trkpt>
      <trkpt lat="47.5902" lon="-0.41471">
        <ele>56.95</ele>
        <time>2017-01-15T09:03:14Z</time>
      </trkpt>
      <trkpt lat="47.58999" lon="-0.41469">
        <ele>58.45</ele>
        <time>2017-01-15T09:03:20Z</time>
      </trkpt>
      <trkpt lat="47.58978" lon="-0.41466">
        <ele>59.28</ele>
        <time>2017-01-15T09:03:26Z</time>
      </trkpt>
      <trkpt lat="47.5896" lon="-0.41461">
        <ele>59.51</ele>
        <time>2017-01-15T09:03:31Z</time>
      </trkpt>
      <trkpt lat="47.58938" lon="-0.41457">
        <ele>60.05</ele>
        <time>2017-01-15T09:03:37Z</time>
      </trkpt>
      <trkpt lat="47.58918" lon="-0.41459">
        <ele>60.5</ele>
        <time>2017-01-15T09:03:43Z</time>
      </trkpt>
      <trkpt lat="47.58908" lon="-0.41485">
        <ele>59.64</ele>
        <time>2017-01-15T09:03:48Z</time>
      </trkpt>
      <trkpt lat="47.58899" lon="-0.41515">
        <ele>58.38</ele>
        <time>2017-01-15T09:03:53Z</time>
      </trkpt>
      <trkpt lat="47.58893" lon="-0.41542">
        <ele>57.38</ele>
        <time>2017-01-15T09:03:57Z</time>
      </trkpt>
      <trkpt lat="47.58887" lon="-0.41574">
        <ele>56.06</ele>
        <time>2017-01-15T09:04:02Z</time>
      </trkpt>
      <trkpt lat="47.5888" lon="-0.41602">
        <ele>55.46</ele>
        <time>2017-01-15T09:04:06Z</time>
      </trkpt>
      <trkpt lat="47.58874" lon="-0.41628">
        <ele>55.15</ele>
        <time>2017-01-15T09:04:10Z</time>
      </trkpt>
      <trkpt lat="47.58861" lon="-0.41649">
        <ele>53.95</ele>
        <time>2017-01-15T09:04:17Z</time>
      </trkpt>
      <trkpt lat="47.58841" lon="-0.41643">
        <ele>53.91</ele>
        <time>2017-01-15T09:04:22Z</time>
      </trkpt>
      <trkpt lat="47.58822" lon="-0.41641">
        <ele>54.78</ele>
        <time>2017-01-15T09:04:27Z</time>
      </trkpt>
      <trkpt lat="47.588" lon="-0.41641">
        <ele>54.99</ele>
        <time>2017-01-15T09:04:32Z</time>
      </trkpt>
      <trkpt lat="47.58779" lon="-0.4164">
        <ele>55.86</ele>
        <time>2017-01-15T09:04:37Z</time>
      </trkpt>
      <trkpt lat="47.58758" lon="-0.41641">
        <ele>55.98</ele>
        <time>2017-01-15T09:04:42Z</time>
      </trkpt>
      <trkpt lat="47.58738" lon="-0.41633">
        <ele>56.32</ele>
        <time>2017-01-15T09:04:47Z</time>
      </trkpt>
      <trkpt lat="47.58732" lon="-0.41606">
        <ele>57.26</ele>
        <time>2017-01-15T09:04:52Z</time>
      </trkpt>
      <trkpt lat="47.58733" lon="-0.41577">
        <ele>58.04</ele>
        <time>2017-01-15T09:04:57Z</time>
      </trkpt>
      <trkpt lat="47.58732" lon="-0.41547">
        <ele>58.61</ele>
        <time>2017-01-15T09:05:02Z</time>
      </trkpt>
      <trkpt lat="47.58729" lon="-0.41518">
        <ele>58.6</ele>
        <time>2017-01-15T09:05:07Z</time>
      </trkpt>
      <trkpt lat="47.58726" lon="-0.41487">
        <ele>59.08</ele>
        <time>2017-01-15T09:05:12Z</time>
      </trkpt>
      <trkpt lat="47.58722" lon="-0.41456">
        <ele>59.7</ele>
        <time>2017-01-15T09:05:17Z</time>
      </trkpt>
      <trkpt lat="47.58718" lon="-0.41429">
        <ele>59.9</ele>
        <time>2017-01-15T09:05:21Z</time>
      </trkpt>
      <trkpt lat="47.58712" lon="-0.414">
        <ele>59.92</ele>
        <time>2017-01-15T09:05:25Z</time>
      </trkpt>
      <trkpt lat="47.58709" lon="-0.41373">
        <ele>59.8</ele>
        <time>2017-01-15T09:05:29Z</time>
      </trkpt>
      <trkpt lat="47.58705" lon="-0.41344">
        <ele>59.51</ele>
        <time>2017-01-15T09:05:33Z</time>
      </trkpt>
      <trkpt lat="47.58703" lon="-0.41312">
        <ele>59.03</ele>
        <time>2017-01-15T09:05:37Z</time>
      </trkpt>
      <trkpt lat="47.58703" lon="-0.41283">
        <ele>58.91</ele>
        <time>2017-01-15T09:05:41Z</time>
      </trkpt>
      <trkpt lat="47.5872" lon="-0.41274">
        <ele>58.11</ele>
        <time>2017-01-15T09:05:50Z</time>
      </trkpt>
      <trkpt lat="47.58741" lon="-0.41275">
        <ele>57.34</ele>
        <time>2017-01-15T09:05:56Z</time>
      </trkpt>
      <trkpt lat="47.58763" lon="-0.41273">
        <ele>57.11</ele>
        <time>2017-01-15T09:06:01Z</time>
      </trkpt>
      <trkpt lat="47.58784" lon="-0.41271">
        <ele>56.91</ele>
        <time>2017-01-15T09:06:06Z</time>
      </trkpt>
      <trkpt lat="47.58803" lon="-0.4127">
        <ele>56.2</ele>
        <time>2017-01-15T09:06:10Z</time>
      </trkpt>
      <trkpt lat="47.58821" lon="-0.41274">
        <ele>55.84</ele>
        <time>2017-01-15T09:06:14Z</time>
      </trkpt>
      <trkpt lat="47.58842" lon="-0.41282">
        <ele>55.51</ele>
        <time>2017-01-15T09:06:19Z</time>
      </trkpt>
      <trkpt lat="47.58859" lon="-0.41293">
        <ele>55.51</ele>
        <time>2017-01-15T09:06:23Z</time>
      </trkpt>
      <trkpt lat="47.58877" lon="-0.413">
        <ele>56.16</ele>
        <time>2017-01-15T09:06:28Z</time>
      </trkpt>
      <trkpt lat="47.58892" lon="-0.41316">
        <ele>56.41</ele>
        <time>2017-01-15T09:06:33Z</time>
      </trkpt>
      <trkpt lat="47.58895" lon="-0.41345">
        <ele>55.85</ele>
        <time>2017-01-15T09:06:38Z</time>
      </trkpt>
      <trkpt lat="47.58895" lon="-0.41375">
        <ele>55.16</ele>
        <time>2017-01-15T09:06:43Z</time>
      </trkpt>
      <trkpt lat="47.58894" lon="-0.41405">
        <ele>54.57</ele>
        <time>2017-01-15T09:06:48Z</time>
      </trkpt>
      <trkpt lat="47.58892" lon="-0.41434">
        <ele>54.03</ele>
        <time>2017-01-15T09:06:53Z</time>
      </trkpt>
      <trkpt lat="47.58905" lon="-0.41454">
        <ele>54.41</ele>
        <time>2017-01-15T09:07:01Z</time>
      </trkpt>
      <trkpt lat="47.58925" lon="-0.41458">
        <ele>54.69</ele>
        <time>2017-01-15T09:07:07Z</time>
      </trkpt>
      <trkpt lat="47.58945" lon="-0.41466">
        <ele>54.88</ele>
        <time>2017-01-15T09:07:13Z</time>
      </trkpt>
      <trkpt lat="47.58966" lon="-0.41469">
        <ele>54.66</ele>
        <time>2017-01-15T09:07:19Z</time>
      </trkpt>
      <trkpt lat="47.58987" lon="-0.41473">
        <ele>53.27</ele>
        <time>2017-01-15T09:07:24Z</time>
      </trkpt>
      <trkpt lat="47.59008" lon="-0.41476">
        <ele>52.94</ele>
        <time>2017-01-15T09:07:29Z</time>
      </trkpt>
      <trkpt lat="47.59026" lon="-0.41469">
        <ele>52.4</ele>
        <time>2017-01-15T09:07:33Z</time>
      </trkpt>
      <trkpt lat="47.59026" lon="-0.41438">
        <ele>53.57</ele>
        <time>2017-01-15T09:07:38Z</time>
      </trkpt>
      <trkpt lat="47.59022" lon="-0.41411">
        <ele>54</ele>
        <time>2017-01-15T09:07:42Z</time>
      </trkpt>
      <trkpt lat="47.59017" lon="-0.41385">
        <ele>54.48</ele>
        <time>2017-01-15T09:07:46Z</time>
      </trkpt>
      <trkpt lat="47.59011" lon="-0.41357">
        <ele>54.7</ele>
        <time>2017-01-15T09:07:50Z</time>
      </trkpt>
      <trkpt lat="47.59005" lon="-0.41329">
        <ele>54.81</ele>
        <time>2017-01-15T09:07:54Z</time>
      </trkpt>
      <trkpt lat="47.58998" lon="-0.413">
        <ele>54.63</ele>
        <time>2017-01-15T09:07:58Z</time>
      </trkpt>
      <trkpt lat="47.58989" lon="-0.41269">
        <ele>54.7</ele>
        <time>2017-01-15T09:08:02Z</time>
      </trkpt>
      <trkpt lat="47.58982" lon="-0.41236">
        <ele>54.71</ele>
        <time>2017-01-15T09:08:06Z</time>
      </trkpt>
      <trkpt lat="47.58974" lon="-0.41205">
        <ele>55.35</ele>
        <time>2017-01-15T09:08:10Z</time>
      </trkpt>
      <trkpt lat="47.58966" lon="-0.41176">
        <ele>55.98</ele>
        <time>2017-01-15T09:08:14Z</time>
      </trkpt>
      <trkpt lat="47.58978" lon="-0.4115">
        <ele>55.28</ele>
        <time>2017-01-15T09:08:19Z</time>
      </trkpt>
      <trkpt lat="47.58997" lon="-0.41149">
        <ele>54.74</ele>
        <time>2017-01-15T09:08:22Z</time>
      </trkpt>
      <trkpt lat="47.59018" lon="-0.41149">
        <ele>54.45</ele>
        <time>2017-01-15T09:08:25Z</time>
      </trkpt>
      <trkpt lat="47.59041" lon="-0.41145">
        <ele>53.47</ele>
        <time>2017-01-15T09:08:28Z</time>
      </trkpt>
      <trkpt lat="47.59068" lon="-0.41143">
        <ele>52.48</ele>
        <time>2017-01-15T09:08:31Z</time>
      </trkpt>
      <trkpt lat="47.59089" lon="-0.41143">
        <ele>51.87</ele>
        <time>2017-01-15T09:08:33Z</time>
      </trkpt>
      <trkpt lat="47.59112" lon="-0.41142">
        <ele>51.28</ele>
        <time>2017-01-15T09:08:35Z</time>
      </trkpt>
      <trkpt lat="47.59134" lon="-0.4114">
        <ele>50.41</ele>
        <time>2017-01-15T09:08:37Z</time>
      </trkpt>
      <trkpt lat="47.59156" lon="-0.41137">
        <ele>50.14</ele>
        <time>2017-01-15T09:08:39Z</time>
      </trkpt>
      <trkpt lat="47.59175" lon="-0.41132">
        <ele>49.15</ele>
        <time>2017-01-15T09:08:41Z</time>
      </trkpt>
      <trkpt lat="47.59195" lon="-0.4113">
        <ele>48.5</ele>
        <time>2017-01-15T09:08:43Z</time>
      </trkpt>
      <trkpt lat="47.59214" lon="-0.41125">
        <ele>47.69</ele>
        <time>2017-01-15T09:08:45Z</time>
      </trkpt>
      <trkpt lat="47.59232" lon="-0.41117">
        <ele>46.59</ele>
        <time>2017-01-15T09:08:47Z</time>
      </trkpt>
      <trkpt lat="47.59247" lon="-0.41101">
        <ele>46.3</ele>
        <time>2017-01-15T09:08:49Z</time>
      </trkpt>
      <trkpt lat="47.5926" lon="-0.41081">
        <ele>45.87</ele>
        <time>2017-01-15T09:08:51Z</time>
      </trkpt>
      <trkpt lat="47.59277" lon="-0.41052">
        <ele>44.46</ele>
        <time>2017-01-15T09:08:54Z</time>
      </trkpt>
      <trkpt lat="47.5929" lon="-0.41027">
        <ele>43.03</ele>
        <time>2017-01-15T09:08:57Z</time>
      </trkpt>
      <trkpt lat="47.59304" lon="-0.41003">
        <ele>41.73</ele>
        <time>2017-01-15T09:09:01Z</time>
      </trkpt>
      <trkpt lat="47.59318" lon="-0.4098">
        <ele>39.17</ele>
        <time>2017-01-15T09:09:05Z</time>
      </trkpt>
      <trkpt lat="47.59331" lon="-0.40957">
        <ele>38.54</ele>
        <time>2017-01-15T09:09:09Z</time>
      </trkpt>
      <trkpt lat="47.59332" lon="-0.40927">
        <ele>37.58</ele>
        <time>2017-01-15T09:09:14Z</time>
      </trkpt>
      <trkpt lat="47.59313" lon="-0.40913">
        <ele>36.34</ele>
        <time>2017-01-15T09:09:19Z</time>
      </trkpt>
      <trkpt lat="47.59295" lon="-0.40903">
        <ele>35.86</ele>
        <time>2017-01-15T09:09:23Z</time>
      </trkpt>
      <trkpt lat="47.59277" lon="-0.40891">
        <ele>34.28</ele>
        <time>2017-01-15T09:09:27Z</time>
      </trkpt>
      <trkpt lat="47.59258" lon="-0.40879">
        <ele>32.31</ele>
        <time>2017-01-15T09:09:31Z</time>
      </trkpt>
      <trkpt lat="47.59242" lon="-0.40867">
        <ele>31.34</ele>
        <time>2017-01-15T09:09:35Z</time>
      </trkpt>
      <trkpt lat="47.59225" lon="-0.40855">
        <ele>31.01</ele>
        <time>2017-01-15T09:09:39Z</time>
      </trkpt>
      <trkpt lat="47.59207" lon="-0.40844">
        <ele>30.63</ele>
        <time>2017-01-15T09:09:43Z</time>
      </trkpt>
      <trkpt lat="47.5919" lon="-0.40833">
        <ele>30.63</ele>
        <time>2017-01-15T09:09:47Z</time>
      </trkpt>
      <trkpt lat="47.59172" lon="-0.40822">
        <ele>30.71</ele>
        <time>2017-01-15T09:09:51Z</time>
      </trkpt>
      <trkpt lat="47.59155" lon="-0.4081">
        <ele>30.61</ele>
        <time>2017-01-15T09:09:55Z</time>
      </trkpt>
      <trkpt lat="47.59137" lon="-0.40799">
        <ele>30.51</ele>
        <time>2017-01-15T09:09:59Z</time>
      </trkpt>
      <trkpt lat="47.59119" lon="-0.40788">
        <ele>30.49</ele>
        <time>2017-01-15T09:10:03Z</time>
      </trkpt>
      <trkpt lat="47.591" lon="-0.40776">
        <ele>30.52</ele>
        <time>2017-01-15T09:10:07Z</time>
      </trkpt>
      <trkpt lat="47.59081" lon="-0.40763">
        <ele>30.41</ele>
        <time>2017-01-15T09:10:11Z</time>
      </trkpt>
      <trkpt lat="47.59062" lon="-0.40749">
        <ele>30.21</ele>
        <time>2017-01-15T09:10:15Z</time>
      </trkpt>
      <trkpt lat="47.59045" lon="-0.40732">
        <ele>30.11</ele>
        <time>2017-01-15T09:10:19Z</time>
      </trkpt>
      <trkpt lat="47.59029" lon="-0.40711">
        <ele>30.21</ele>
        <time>2017-01-15T09:10:23Z</time>
      </trkpt>
      <trkpt lat="47.59013" lon="-0.40688">
        <ele>30.3</ele>
        <time>2017-01-15T09:10:27Z</time>
      </trkpt>
      <trkpt lat="47.58998" lon="-0.40663">
        <ele>30.15</ele>
        <time>2017-01-15T09:10:31Z</time>
      </trkpt>
      <trkpt lat="47.58983" lon="-0.40637">
        <ele>30.01</ele>
        <time>2017-01-15T09:10:35Z</time>
      </trkpt>
      <trkpt lat="47.58967" lon="-0.40611">
        <ele>30.21</ele>
        <time>2017-01-15T09:10:39Z</time>
      </trkpt>
      <trkpt lat="47.58951" lon="-0.40585">
        <ele>30.31</ele>
        <time>2017-01-15T09:10:43Z</time>
      </trkpt>
      <trkpt lat="47.58935" lon="-0.4056">
        <ele>29.84</ele>
        <time>2017-01-15T09:10:47Z</time>
      </trkpt>
      <trkpt lat="47.58917" lon="-0.4054">
        <ele>29.23</ele>
        <time>2017-01-15T09:10:51Z</time>
      </trkpt>
      <trkpt lat="47.58897" lon="-0.40523">
        <ele>29.38</ele>
        <time>2017-01-15T09:10:55Z</time>
      </trkpt>
      <trkpt lat="47.58877" lon="-0.40508">
        <ele>29.7</ele>
        <time>2017-01-15T09:10:59Z</time>
      </trkpt>
      <trkpt lat="47.58857" lon="-0.40491">
        <ele>29.81</ele>
        <time>2017-01-15T09:11:03Z</time>
      </trkpt>
      <trkpt lat="47.58836" lon="-0.40474">
        <ele>29.99</ele>
        <time>2017-01-15T09:11:07Z</time>
      </trkpt>
      <trkpt lat="47.5882" lon="-0.40461">
        <ele>30.1</ele>
        <time>2017-01-15T09:11:10Z</time>
      </trkpt>
      <trkpt lat="47.58804" lon="-0.40449">
        <ele>30.29</ele>
        <time>2017-01-15T09:11:13Z</time>
      </trkpt>
      <trkpt lat="47.58788" lon="-0.40436">
        <ele>30.56</ele>
        <time>2017-01-15T09:11:16Z</time>
      </trkpt>
      <trkpt lat="47.58767" lon="-0.40418">
        <ele>30.97</ele>
        <time>2017-01-15T09:11:20Z</time>
      </trkpt>
      <trkpt lat="47.58747" lon="-0.40402">
        <ele>30.85</ele>
        <time>2017-01-15T09:11:24Z</time>
      </trkpt>
      <trkpt lat="47.58726" lon="-0.40385">
        <ele>30.36</ele>
        <time>2017-01-15T09:11:28Z</time>
      </trkpt>
      <trkpt lat="47.58706" lon="-0.40368">
        <ele>29.64</ele>
        <time>2017-01-15T09:11:32Z</time>
      </trkpt>
      <trkpt lat="47.58685" lon="-0.40351">
        <ele>29.04</ele>
        <time>2017-01-15T09:11:36Z</time>
      </trkpt>
      <trkpt lat="47.58665" lon="-0.40333">
        <ele>28.93</ele>
        <time>2017-01-15T09:11:40Z</time>
      </trkpt>
      <trkpt lat="47.58647" lon="-0.40311">
        <ele>28.35</ele>
        <time>2017-01-15T09:11:44Z</time>
      </trkpt>
      <trkpt lat="47.58632" lon="-0.40283">
        <ele>28.41</ele>
        <time>2017-01-15T09:11:48Z</time>
      </trkpt>
      <trkpt lat="47.58618" lon="-0.40255">
        <ele>28.23</ele>
        <time>2017-01-15T09:11:52Z</time>
      </trkpt>
      <trkpt lat="47.58602" lon="-0.40231">
        <ele>27.84</ele>
        <time>2017-01-15T09:11:56Z</time>
      </trkpt>
      <trkpt lat="47.58581" lon="-0.40215">
        <ele>27.88</ele>
        <time>2017-01-15T09:12:00Z</time>
      </trkpt>
      <trkpt lat="47.58559" lon="-0.40205">
        <ele>28.48</ele>
        <time>2017-01-15T09:12:04Z</time>
      </trkpt>
      <trkpt lat="47.58537" lon="-0.40197">
        <ele>28.51</ele>
        <time>2017-01-15T09:12:08Z</time>
      </trkpt>
      <trkpt lat="47.58517" lon="-0.40188">
        <ele>28.33</ele>
        <time>2017-01-15T09:12:12Z</time>
      </trkpt>
      <trkpt lat="47.58495" lon="-0.40179">
        <ele>28.5</ele>
        <time>2017-01-15T09:12:16Z</time>
      </trkpt>
      <trkpt lat="47.58475" lon="-0.40169">
        <ele>28.59</ele>
        <time>2017-01-15T09:12:21Z</time>
      </trkpt>
      <trkpt lat="47.58477" lon="-0.40139">
        <ele>28.51</ele>
        <time>2017-01-15T09:12:27Z</time>
      </trkpt>
      <trkpt lat="47.58488" lon="-0.40115">
        <ele>28.33</ele>
        <time>2017-01-15T09:12:31Z</time>
      </trkpt>
      <trkpt lat="47.58498" lon="-0.40088">
        <ele>28.11</ele>
        <time>2017-01-15T09:12:35Z</time>
      </trkpt>
      <trkpt lat="47.58509" lon="-0.4006">
        <ele>27.75</ele>
        <time>2017-01-15T09:12:39Z</time>
      </trkpt>
      <trkpt lat="47.58521" lon="-0.40032">
        <ele>26.88</ele>
        <time>2017-01-15T09:12:43Z</time>
      </trkpt>
      <trkpt lat="47.58533" lon="-0.40003">
        <ele>25.58</ele>
        <time>2017-01-15T09:12:47Z</time>
      </trkpt>
      <trkpt lat="47.58544" lon="-0.39976">
        <ele>25.59</ele>
        <time>2017-01-15T09:12:51Z</time>
      </trkpt>
      <trkpt lat="47.58553" lon="-0.39948">
        <ele>26.06</ele>
        <time>2017-01-15T09:12:55Z</time>
      </trkpt>
      <trkpt lat="47.58563" lon="-0.39922">
        <ele>26.48</ele>
        <time>2017-01-15T09:12:59Z</time>
      </trkpt>
      <trkpt lat="47.58572" lon="-0.39893">
        <ele>27.26</ele>
        <time>2017-01-15T09:13:04Z</time>
      </trkpt>
      <trkpt lat="47.58574" lon="-0.39863">
        <ele>27.51</ele>
        <time>2017-01-15T09:13:09Z</time>
      </trkpt>
      <trkpt lat="47.58576" lon="-0.39833">
        <ele>27.72</ele>
        <time>2017-01-15T09:13:13Z</time>
      </trkpt>
      <trkpt lat="47.58578" lon="-0.39802">
        <ele>27.41</ele>
        <time>2017-01-15T09:13:17Z</time>
      </trkpt>
      <trkpt lat="47.58583" lon="-0.39773">
        <ele>27.21</ele>
        <time>2017-01-15T09:13:21Z</time>
      </trkpt>
      <trkpt lat="47.58587" lon="-0.39744">
        <ele>27.31</ele>
        <time>2017-01-15T09:13:25Z</time>
      </trkpt>
      <trkpt lat="47.58592" lon="-0.39715">
        <ele>27.68</ele>
        <time>2017-01-15T09:13:29Z</time>
      </trkpt>
      <trkpt lat="47.58596" lon="-0.39687">
        <ele>27.81</ele>
        <time>2017-01-15T09:13:33Z</time>
      </trkpt>
      <trkpt lat="47.58598" lon="-0.39658">
        <ele>28</ele>
        <time>2017-01-15T09:13:37Z</time>
      </trkpt>
      <trkpt lat="47.58602" lon="-0.39629">
        <ele>28.11</ele>
        <time>2017-01-15T09:13:41Z</time>
      </trkpt>
      <trkpt lat="47.58605" lon="-0.39601">
        <ele>28.11</ele>
        <time>2017-01-15T09:13:45Z</time>
      </trkpt>
      <trkpt lat="47.5861" lon="-0.39573">
        <ele>28.09</ele>
        <time>2017-01-15T09:13:49Z</time>
      </trkpt>
      <trkpt lat="47.58615" lon="-0.39542">
        <ele>28.59</ele>
        <time>2017-01-15T09:13:54Z</time>
      </trkpt>
      <trkpt lat="47.58603" lon="-0.39518">
        <ele>29.06</ele>
        <time>2017-01-15T09:14:00Z</time>
      </trkpt>
      <trkpt lat="47.58584" lon="-0.39512">
        <ele>29.19</ele>
        <time>2017-01-15T09:14:05Z</time>
      </trkpt>
      <trkpt lat="47.58566" lon="-0.39497">
        <ele>29.96</ele>
        <time>2017-01-15T09:14:10Z</time>
      </trkpt>
      <trkpt lat="47.58552" lon="-0.39481">
        <ele>30.28</ele>
        <time>2017-01-15T09:14:14Z</time>
      </trkpt>
      <trkpt lat="47.58534" lon="-0.39459">
        <ele>30.11</ele>
        <time>2017-01-15T09:14:19Z</time>
      </trkpt>
      <trkpt lat="47.5852" lon="-0.39436">
        <ele>30.2</ele>
        <time>2017-01-15T09:14:24Z</time>
      </trkpt>
      <trkpt lat="47.58504" lon="-0.39414">
        <ele>30.09</ele>
        <time>2017-01-15T09:14:29Z</time>
      </trkpt>
      <trkpt lat="47.58489" lon="-0.39397">
        <ele>29.93</ele>
        <time>2017-01-15T09:14:33Z</time>
      </trkpt>
      <trkpt lat="47.58474" lon="-0.39375">
        <ele>31.23</ele>
        <time>2017-01-15T09:14:38Z</time>
      </trkpt>
      <trkpt lat="47.58459" lon="-0.39359">
        <ele>31.98</ele>
        <time>2017-01-15T09:14:43Z</time>
      </trkpt>
      <trkpt lat="47.58441" lon="-0.39349">
        <ele>32.01</ele>
        <time>2017-01-15T09:14:47Z</time>
      </trkpt>
      <trkpt lat="47.58422" lon="-0.39337">
        <ele>31.83</ele>
        <time>2017-01-15T09:14:51Z</time>
      </trkpt>
      <trkpt lat="47.58415" lon="-0.39312">
        <ele>32.24</ele>
        <time>2017-01-15T09:14:56Z</time>
      </trkpt>
      <trkpt lat="47.58423" lon="-0.39282">
        <ele>32.58</ele>
        <time>2017-01-15T09:15:01Z</time>
      </trkpt>
      <trkpt lat="47.5843" lon="-0.39252">
        <ele>33.1</ele>
        <time>2017-01-15T09:15:06Z</time>
      </trkpt>
      <trkpt lat="47.58439" lon="-0.39223">
        <ele>33.12</ele>
        <time>2017-01-15T09:15:12Z</time>
      </trkpt>
      <trkpt lat="47.58446" lon="-0.39199">
        <ele>33.2</ele>
        <time>2017-01-15T09:15:16Z</time>
      </trkpt>
      <trkpt lat="47.58456" lon="-0.39175">
        <ele>33.8</ele>
        <time>2017-01-15T09:15:20Z</time>
      </trkpt>
      <trkpt lat="47.58467" lon="-0.39151">
        <ele>33.53</ele>
        <time>2017-01-15T09:15:24Z</time>
      </trkpt>
      <trkpt lat="47.58476" lon="-0.39127">
        <ele>33.39</ele>
        <time>2017-01-15T09:15:28Z</time>
      </trkpt>
      <trkpt lat="47.58483" lon="-0.39101">
        <ele>33.61</ele>
        <time>2017-01-15T09:15:33Z</time>
      </trkpt>
      <trkpt lat="47.58487" lon="-0.39069">
        <ele>33.41</ele>
        <time>2017-01-15T09:15:38Z</time>
      </trkpt>
      <trkpt lat="47.58501" lon="-0.39046">
        <ele>33.14</ele>
        <time>2017-01-15T09:15:43Z</time>
      </trkpt>
      <trkpt lat="47.58517" lon="-0.39031">
        <ele>32.82</ele>
        <time>2017-01-15T09:15:47Z</time>
      </trkpt>
      <trkpt lat="47.58532" lon="-0.39016">
        <ele>32.54</ele>
        <time>2017-01-15T09:15:51Z</time>
      </trkpt>
      <trkpt lat="47.58548" lon="-0.38994">
        <ele>32.43</ele>
        <time>2017-01-15T09:15:56Z</time>
      </trkpt>
      <trkpt lat="47.58546" lon="-0.38963">
        <ele>31.58</ele>
        <time>2017-01-15T09:16:01Z</time>
      </trkpt>
      <trkpt lat="47.58535" lon="-0.38939">
        <ele>31.19</ele>
        <time>2017-01-15T09:16:05Z</time>
      </trkpt>
      <trkpt lat="47.58523" lon="-0.38912">
        <ele>31.78</ele>
        <time>2017-01-15T09:16:10Z</time>
      </trkpt>
      <trkpt lat="47.5851" lon="-0.38889">
        <ele>31.9</ele>
        <time>2017-01-15T09:16:14Z</time>
      </trkpt>
      <trkpt lat="47.58498" lon="-0.38865">
        <ele>31.75</ele>
        <time>2017-01-15T09:16:18Z</time>
      </trkpt>
      <trkpt lat="47.58484" lon="-0.38842">
        <ele>31.31</ele>
        <time>2017-01-15T09:16:22Z</time>
      </trkpt>
      <trkpt lat="47.58472" lon="-0.38814">
        <ele>31.4</ele>
        <time>2017-01-15T09:16:27Z</time>
      </trkpt>
      <trkpt lat="47.58481" lon="-0.38789">
        <ele>31.33</ele>
        <time>2017-01-15T09:16:32Z</time>
      </trkpt>
      <trkpt lat="47.58498" lon="-0.38775">
        <ele>31.01</ele>
        <time>2017-01-15T09:16:36Z</time>
      </trkpt>
      <trkpt lat="47.58515" lon="-0.38761">
        <ele>31.1</ele>
        <time>2017-01-15T09:16:40Z</time>
      </trkpt>
      <trkpt lat="47.58532" lon="-0.38747">
        <ele>31.48</ele>
        <time>2017-01-15T09:16:44Z</time>
      </trkpt>
      <trkpt lat="47.58549" lon="-0.38734">
        <ele>31.71</ele>
        <time>2017-01-15T09:16:48Z</time>
      </trkpt>
      <trkpt lat="47.58566" lon="-0.3872">
        <ele>31.9</ele>
        <time>2017-01-15T09:16:52Z</time>
      </trkpt>
      <trkpt lat="47.58582" lon="-0.38706">
        <ele>32.1</ele>
        <time>2017-01-15T09:16:56Z</time>
      </trkpt>
      <trkpt lat="47.58598" lon="-0.38693">
        <ele>32.48</ele>
        <time>2017-01-15T09:17:00Z</time>
      </trkpt>
      <trkpt lat="47.58616" lon="-0.38685">
        <ele>32.31</ele>
        <time>2017-01-15T09:17:04Z</time>
      </trkpt>
      <trkpt lat="47.58633" lon="-0.38676">
        <ele>32.21</ele>
        <time>2017-01-15T09:17:08Z</time>
      </trkpt>
      <trkpt lat="47.5865" lon="-0.38665">
        <ele>32.29</ele>
        <time>2017-01-15T09:17:12Z</time>
      </trkpt>
      <trkpt lat="47.5867" lon="-0.38651">
        <ele>32.49</ele>
        <time>2017-01-15T09:17:17Z</time>
      </trkpt>
      <trkpt lat="47.58688" lon="-0.38636">
        <ele>32.32</ele>
        <time>2017-01-15T09:17:22Z</time>
      </trkpt>
      <trkpt lat="47.58707" lon="-0.38622">
        <ele>31.42</ele>
        <time>2017-01-15T09:17:27Z</time>
      </trkpt>
      <trkpt lat="47.58727" lon="-0.38606">
        <ele>30.46</ele>
        <time>2017-01-15T09:17:32Z</time>
      </trkpt>
      <trkpt lat="47.58744" lon="-0.38588">
        <ele>30.29</ele>
        <time>2017-01-15T09:17:37Z</time>
      </trkpt>
      <trkpt lat="47.58762" lon="-0.3857">
        <ele>29.83</ele>
        <time>2017-01-15T09:17:42Z</time>
      </trkpt>
      <trkpt lat="47.58776" lon="-0.38548">
        <ele>29.71</ele>
        <time>2017-01-15T09:17:47Z</time>
      </trkpt>
      <trkpt lat="47.58789" lon="-0.38527">
        <ele>29.43</ele>
        <time>2017-01-15T09:17:51Z</time>
      </trkpt>
      <trkpt lat="47.58804" lon="-0.38506">
        <ele>29.11</ele>
        <time>2017-01-15T09:17:55Z</time>
      </trkpt>
      <trkpt lat="47.58819" lon="-0.38489">
        <ele>28.73</ele>
        <time>2017-01-15T09:17:59Z</time>
      </trkpt>
      <trkpt lat="47.58836" lon="-0.38471">
        <ele>28.53</ele>
        <time>2017-01-15T09:18:04Z</time>
      </trkpt>
      <trkpt lat="47.58823" lon="-0.38445">
        <ele>27.56</ele>
        <time>2017-01-15T09:18:11Z</time>
      </trkpt>
      <trkpt lat="47.58806" lon="-0.38429">
        <ele>27.14</ele>
        <time>2017-01-15T09:18:15Z</time>
      </trkpt>
      <trkpt lat="47.5879" lon="-0.38411">
        <ele>26.83</ele>
        <time>2017-01-15T09:18:19Z</time>
      </trkpt>
      <trkpt lat="47.58772" lon="-0.38391">
        <ele>26.83</ele>
        <time>2017-01-15T09:18:23Z</time>
      </trkpt>
      <trkpt lat="47.58753" lon="-0.38372">
        <ele>26.73</ele>
        <time>2017-01-15T09:18:27Z</time>
      </trkpt>
      <trkpt lat="47.58735" lon="-0.38352">
        <ele>26.73</ele>
        <time>2017-01-15T09:18:31Z</time>
      </trkpt>
      <trkpt lat="47.58717" lon="-0.38332">
        <ele>26.59</ele>
        <time>2017-01-15T09:18:35Z</time>
      </trkpt>
      <trkpt lat="47.587" lon="-0.38312">
        <ele>26.51</ele>
        <time>2017-01-15T09:18:39Z</time>
      </trkpt>
      <trkpt lat="47.58681" lon="-0.3829">
        <ele>26.51</ele>
        <time>2017-01-15T09:18:43Z</time>
      </trkpt>
      <trkpt lat="47.58666" lon="-0.38274">
        <ele>26.31</ele>
        <time>2017-01-15T09:18:46Z</time>
      </trkpt>
      <trkpt lat="47.58651" lon="-0.38258">
        <ele>26.29</ele>
        <time>2017-01-15T09:18:49Z</time>
      </trkpt>
      <trkpt lat="47.58636" lon="-0.38241">
        <ele>26.25</ele>
        <time>2017-01-15T09:18:52Z</time>
      </trkpt>
      <trkpt lat="47.58621" lon="-0.38225">
        <ele>25.56</ele>
        <time>2017-01-15T09:18:55Z</time>
      </trkpt>
      <trkpt lat="47.58607" lon="-0.38208">
        <ele>25.04</ele>
        <time>2017-01-15T09:18:58Z</time>
      </trkpt>
      <trkpt lat="47.58592" lon="-0.38191">
        <ele>25.01</ele>
        <time>2017-01-15T09:19:01Z</time>
      </trkpt>
      <trkpt lat="47.58578" lon="-0.38175">
        <ele>24.72</ele>
        <time>2017-01-15T09:19:04Z</time>
      </trkpt>
      <trkpt lat="47.58563" lon="-0.38159">
        <ele>24.43</ele>
        <time>2017-01-15T09:19:07Z</time>
      </trkpt>
      <trkpt lat="47.58548" lon="-0.38142">
        <ele>24.25</ele>
        <time>2017-01-15T09:19:10Z</time>
      </trkpt>
      <trkpt lat="47.58534" lon="-0.38126">
        <ele>23.92</ele>
        <time>2017-01-15T09:19:13Z</time>
      </trkpt>
      <trkpt lat="47.58518" lon="-0.38109">
        <ele>23.81</ele>
        <time>2017-01-15T09:19:16Z</time>
      </trkpt>
      <trkpt lat="47.585" lon="-0.38089">
        <ele>23.63</ele>
        <time>2017-01-15T09:19:20Z</time>
      </trkpt>
      <trkpt lat="47.58507" lon="-0.38059">
        <ele>23.07</ele>
        <time>2017-01-15T09:19:25Z</time>
      </trkpt>
      <trkpt lat="47.58527" lon="-0.38045">
        <ele>22.33</ele>
        <time>2017-01-15T09:19:29Z</time>
      </trkpt>
      <trkpt lat="47.5855" lon="-0.38047">
        <ele>22.2</ele>
        <time>2017-01-15T09:19:33Z</time>
      </trkpt>
      <trkpt lat="47.58572" lon="-0.38052">
        <ele>22.21</ele>
        <time>2017-01-15T09:19:37Z</time>
      </trkpt>
      <trkpt lat="47.58593" lon="-0.38054">
        <ele>22.4</ele>
        <time>2017-01-15T09:19:41Z</time>
      </trkpt>
      <trkpt lat="47.58608" lon="-0.38035">
        <ele>22.88</ele>
        <time>2017-01-15T09:19:45Z</time>
      </trkpt>
      <trkpt lat="47.58615" lon="-0.38005">
        <ele>23</ele>
        <time>2017-01-15T09:19:49Z</time>
      </trkpt>
      <trkpt lat="47.58622" lon="-0.37975">
        <ele>23.11</ele>
        <time>2017-01-15T09:19:53Z</time>
      </trkpt>
      <trkpt lat="47.58629" lon="-0.37948">
        <ele>23.4</ele>
        <time>2017-01-15T09:19:57Z</time>
      </trkpt>
      <trkpt lat="47.58635" lon="-0.37918">
        <ele>23.69</ele>
        <time>2017-01-15T09:20:01Z</time>
      </trkpt>
      <trkpt lat="47.58643" lon="-0.37887">
        <ele>23.89</ele>
        <time>2017-01-15T09:20:05Z</time>
      </trkpt>
      <trkpt lat="47.58653" lon="-0.37859">
        <ele>23.99</ele>
        <time>2017-01-15T09:20:09Z</time>
      </trkpt>
      <trkpt lat="47.58665" lon="-0.37832">
        <ele>24.12</ele>
        <time>2017-01-15T09:20:13Z</time>
      </trkpt>
      <trkpt lat="47.58678" lon="-0.37807">
        <ele>24.2</ele>
        <time>2017-01-15T09:20:17Z</time>
      </trkpt>
      <trkpt lat="47.58695" lon="-0.37784">
        <ele>23.74</ele>
        <time>2017-01-15T09:20:21Z</time>
      </trkpt>
      <trkpt lat="47.58709" lon="-0.37761">
        <ele>23.51</ele>
        <time>2017-01-15T09:20:25Z</time>
      </trkpt>
      <trkpt lat="47.58723" lon="-0.37738">
        <ele>23.97</ele>
        <time>2017-01-15T09:20:29Z</time>
      </trkpt>
      <trkpt lat="47.58735" lon="-0.37714">
        <ele>24.58</ele>
        <time>2017-01-15T09:20:33Z</time>
      </trkpt>
      <trkpt lat="47.58746" lon="-0.37688">
        <ele>25</ele>
        <time>2017-01-15T09:20:37Z</time>
      </trkpt>
      <trkpt lat="47.58757" lon="-0.37661">
        <ele>25.58</ele>
        <time>2017-01-15T09:20:41Z</time>
      </trkpt>
      <trkpt lat="47.58769" lon="-0.37635">
        <ele>26</ele>
        <time>2017-01-15T09:20:45Z</time>
      </trkpt>
      <trkpt lat="47.58777" lon="-0.37607">
        <ele>26.3</ele>
        <time>2017-01-15T09:20:49Z</time>
      </trkpt>
      <trkpt lat="47.5878" lon="-0.37581">
        <ele>26.24</ele>
        <time>2017-01-15T09:20:53Z</time>
      </trkpt>
      <trkpt lat="47.58785" lon="-0.37554">
        <ele>26.29</ele>
        <time>2017-01-15T09:20:57Z</time>
      </trkpt>
      <trkpt lat="47.5879" lon="-0.37527">
        <ele>26.04</ele>
        <time>2017-01-15T09:21:01Z</time>
      </trkpt>
      <trkpt lat="47.58794" lon="-0.375">
        <ele>25.75</ele>
        <time>2017-01-15T09:21:05Z</time>
      </trkpt>
      <trkpt lat="47.58798" lon="-0.37472">
        <ele>25.59</ele>
        <time>2017-01-15T09:21:09Z</time>
      </trkpt>
      <trkpt lat="47.58801" lon="-0.37443">
        <ele>25.61</ele>
        <time>2017-01-15T09:21:13Z</time>
      </trkpt>
      <trkpt lat="47.58806" lon="-0.37414">
        <ele>25.81</ele>
        <time>2017-01-15T09:21:17Z</time>
      </trkpt>
      <trkpt lat="47.58811" lon="-0.37383">
        <ele>25.83</ele>
        <time>2017-01-15T09:21:22Z</time>
      </trkpt>
      <trkpt lat="47.58824" lon="-0.37405">
        <ele>24.86</ele>
        <time>2017-01-15T09:21:29Z</time>
      </trkpt>
      <trkpt lat="47.58832" lon="-0.3743">
        <ele>24.13</ele>
        <time>2017-01-15T09:21:33Z</time>
      </trkpt>
      <trkpt lat="47.5884" lon="-0.37454">
        <ele>24</ele>
        <time>2017-01-15T09:21:37Z</time>
      </trkpt>
      <trkpt lat="47.5885" lon="-0.37482">
        <ele>24.11</ele>
        <time>2017-01-15T09:21:42Z</time>
      </trkpt>
      <trkpt lat="47.58861" lon="-0.3751">
        <ele>23.81</ele>
        <time>2017-01-15T09:21:47Z</time>
      </trkpt>
      <trkpt lat="47.58871" lon="-0.37538">
        <ele>23.73</ele>
        <time>2017-01-15T09:21:52Z</time>
      </trkpt>
      <trkpt lat="47.58882" lon="-0.37566">
        <ele>24.09</ele>
        <time>2017-01-15T09:21:57Z</time>
      </trkpt>
      <trkpt lat="47.58891" lon="-0.37594">
        <ele>24.11</ele>
        <time>2017-01-15T09:22:02Z</time>
      </trkpt>
      <trkpt lat="47.589" lon="-0.37622">
        <ele>24.21</ele>
        <time>2017-01-15T09:22:07Z</time>
      </trkpt>
      <trkpt lat="47.58907" lon="-0.37648">
        <ele>24.39</ele>
        <time>2017-01-15T09:22:11Z</time>
      </trkpt>
      <trkpt lat="47.58915" lon="-0.37677">
        <ele>24.7</ele>
        <time>2017-01-15T09:22:16Z</time>
      </trkpt>
      <trkpt lat="47.58925" lon="-0.37706">
        <ele>24.92</ele>
        <time>2017-01-15T09:22:21Z</time>
      </trkpt>
      <trkpt lat="47.58934" lon="-0.37734">
        <ele>24.51</ele>
        <time>2017-01-15T09:22:26Z</time>
      </trkpt>
      <trkpt lat="47.58943" lon="-0.37763">
        <ele>24.41</ele>
        <time>2017-01-15T09:22:31Z</time>
      </trkpt>
      <trkpt lat="47.58951" lon="-0.37786">
        <ele>24.58</ele>
        <time>2017-01-15T09:22:35Z</time>
      </trkpt>
      <trkpt lat="47.58963" lon="-0.37814">
        <ele>24.79</ele>
        <time>2017-01-15T09:22:40Z</time>
      </trkpt>
      <trkpt lat="47.58974" lon="-0.37842">
        <ele>24.93</ele>
        <time>2017-01-15T09:22:45Z</time>
      </trkpt>
      <trkpt lat="47.58982" lon="-0.37868">
        <ele>24.95</ele>
        <time>2017-01-15T09:22:50Z</time>
      </trkpt>
      <trkpt lat="47.58991" lon="-0.37894">
        <ele>24.7</ele>
        <time>2017-01-15T09:22:54Z</time>
      </trkpt>
      <trkpt lat="47.58999" lon="-0.37919">
        <ele>24.9</ele>
        <time>2017-01-15T09:22:58Z</time>
      </trkpt>
      <trkpt lat="47.59008" lon="-0.37944">
        <ele>25.01</ele>
        <time>2017-01-15T09:23:02Z</time>
      </trkpt>
      <trkpt lat="47.59017" lon="-0.37971">
        <ele>25.18</ele>
        <time>2017-01-15T09:23:06Z</time>
      </trkpt>
      <trkpt lat="47.59026" lon="-0.37996">
        <ele>25.21</ele>
        <time>2017-01-15T09:23:10Z</time>
      </trkpt>
      <trkpt lat="47.59033" lon="-0.38023">
        <ele>25.39</ele>
        <time>2017-01-15T09:23:14Z</time>
      </trkpt>
      <trkpt lat="47.59037" lon="-0.3805">
        <ele>25.41</ele>
        <time>2017-01-15T09:23:18Z</time>
      </trkpt>
      <trkpt lat="47.5904" lon="-0.38079">
        <ele>25.49</ele>
        <time>2017-01-15T09:23:22Z</time>
      </trkpt>
      <trkpt lat="47.59044" lon="-0.38111">
        <ele>25.72</ele>
        <time>2017-01-15T09:23:27Z</time>
      </trkpt>
      <trkpt lat="47.59062" lon="-0.38116">
        <ele>26.36</ele>
        <time>2017-01-15T09:23:35Z</time>
      </trkpt>
      <trkpt lat="47.59077" lon="-0.38101">
        <ele>26.51</ele>
        <time>2017-01-15T09:23:40Z</time>
      </trkpt>
      <trkpt lat="47.59094" lon="-0.38086">
        <ele>26.88</ele>
        <time>2017-01-15T09:23:45Z</time>
      </trkpt>
      <trkpt lat="47.5911" lon="-0.38068">
        <ele>27.28</ele>
        <time>2017-01-15T09:23:49Z</time>
      </trkpt>
      <trkpt lat="47.59124" lon="-0.38051">
        <ele>27.68</ele>
        <time>2017-01-15T09:23:53Z</time>
      </trkpt>
      <trkpt lat="47.59139" lon="-0.38035">
        <ele>27.87</ele>
        <time>2017-01-15T09:23:58Z</time>
      </trkpt>
      <trkpt lat="47.59154" lon="-0.38016">
        <ele>28.5</ele>
        <time>2017-01-15T09:24:02Z</time>
      </trkpt>
      <trkpt lat="47.59168" lon="-0.37999">
        <ele>28.71</ele>
        <time>2017-01-15T09:24:06Z</time>
      </trkpt>
      <trkpt lat="47.59185" lon="-0.37981">
        <ele>28.87</ele>
        <time>2017-01-15T09:24:10Z</time>
      </trkpt>
      <trkpt lat="47.592" lon="-0.37964">
        <ele>29.29</ele>
        <time>2017-01-15T09:24:14Z</time>
      </trkpt>
      <trkpt lat="47.59214" lon="-0.37941">
        <ele>29.33</ele>
        <time>2017-01-15T09:24:19Z</time>
      </trkpt>
      <trkpt lat="47.59228" lon="-0.37918">
        <ele>29.78</ele>
        <time>2017-01-15T09:24:24Z</time>
      </trkpt>
      <trkpt lat="47.5924" lon="-0.37898">
        <ele>29.99</ele>
        <time>2017-01-15T09:24:29Z</time>
      </trkpt>
      <trkpt lat="47.59254" lon="-0.37875">
        <ele>29.7</ele>
        <time>2017-01-15T09:24:34Z</time>
      </trkpt>
      <trkpt lat="47.59267" lon="-0.37858">
        <ele>29.35</ele>
        <time>2017-01-15T09:24:38Z</time>
      </trkpt>
      <trkpt lat="47.59284" lon="-0.37838">
        <ele>28.31</ele>
        <time>2017-01-15T09:24:42Z</time>
      </trkpt>
      <trkpt lat="47.59304" lon="-0.37822">
        <ele>28.41</ele>
        <time>2017-01-15T09:24:47Z</time>
      </trkpt>
      <trkpt lat="47.59323" lon="-0.37807">
        <ele>28.11</ele>
        <time>2017-01-15T09:24:52Z</time>
      </trkpt>
      <trkpt lat="47.59342" lon="-0.37794">
        <ele>28.39</ele>
        <time>2017-01-15T09:24:57Z</time>
      </trkpt>
      <trkpt lat="47.5936" lon="-0.3778">
        <ele>28.23</ele>
        <time>2017-01-15T09:25:02Z</time>
      </trkpt>
      <trkpt lat="47.59377" lon="-0.37769">
        <ele>28.23</ele>
        <time>2017-01-15T09:25:07Z</time>
      </trkpt>
      <trkpt lat="47.59396" lon="-0.37776">
        <ele>27.91</ele>
        <time>2017-01-15T09:25:13Z</time>
      </trkpt>
      <trkpt lat="47.59409" lon="-0.37795">
        <ele>28.01</ele>
        <time>2017-01-15T09:25:18Z</time>
      </trkpt>
      <trkpt lat="47.59427" lon="-0.37785">
        <ele>27.07</ele>
        <time>2017-01-15T09:31:52Z</time>
      </trkpt>
      <trkpt lat="47.59443" lon="-0.37767">
        <ele>27.11</ele>
        <time>2017-01-15T09:32:05Z</time>
      </trkpt>
      <trkpt lat="47.59459" lon="-0.37749">
        <ele>26.79</ele>
        <time>2017-01-15T09:32:14Z</time>
      </trkpt>
      <trkpt lat="47.59476" lon="-0.37732">
        <ele>27.4</ele>
        <time>2017-01-15T09:32:20Z</time>
      </trkpt>
      <trkpt lat="47.59492" lon="-0.37716">
        <ele>27.33</ele>
        <time>2017-01-15T09:32:25Z</time>
      </trkpt>
      <trkpt lat="47.59508" lon="-0.377">
        <ele>27.31</ele>
        <time>2017-01-15T09:32:29Z</time>
      </trkpt>
      <trkpt lat="47.59525" lon="-0.37681">
        <ele>27.21</ele>
        <time>2017-01-15T09:32:34Z</time>
      </trkpt>
      <trkpt lat="47.59544" lon="-0.37669">
        <ele>26.83</ele>
        <time>2017-01-15T09:32:39Z</time>
      </trkpt>
      <trkpt lat="47.59565" lon="-0.37661">
        <ele>26.24</ele>
        <time>2017-01-15T09:32:44Z</time>
      </trkpt>
      <trkpt lat="47.59585" lon="-0.37656">
        <ele>25.73</ele>
        <time>2017-01-15T09:32:49Z</time>
      </trkpt>
      <trkpt lat="47.59606" lon="-0.3765">
        <ele>24.86</ele>
        <time>2017-01-15T09:32:54Z</time>
      </trkpt>
      <trkpt lat="47.59626" lon="-0.37637">
        <ele>24.71</ele>
        <time>2017-01-15T09:32:58Z</time>
      </trkpt>
      <trkpt lat="47.59642" lon="-0.37621">
        <ele>24.79</ele>
        <time>2017-01-15T09:33:01Z</time>
      </trkpt>
      <trkpt lat="47.5965" lon="-0.37597">
        <ele>24.81</ele>
        <time>2017-01-15T09:33:04Z</time>
      </trkpt>
      <trkpt lat="47.5965" lon="-0.37569">
        <ele>24.98</ele>
        <time>2017-01-15T09:33:07Z</time>
      </trkpt>
      <trkpt lat="47.59661" lon="-0.37541">
        <ele>25.6</ele>
        <time>2017-01-15T09:33:11Z</time>
      </trkpt>
      <trkpt lat="47.59676" lon="-0.37522">
        <ele>24.94</ele>
        <time>2017-01-15T09:33:15Z</time>
      </trkpt>
      <trkpt lat="47.59693" lon="-0.37536">
        <ele>24.34</ele>
        <time>2017-01-15T09:33:24Z</time>
      </trkpt>
      <trkpt lat="47.597" lon="-0.37564">
        <ele>22.93</ele>
        <time>2017-01-15T09:33:33Z</time>
      </trkpt>
      <trkpt lat="47.59709" lon="-0.3759">
        <ele>22.13</ele>
        <time>2017-01-15T09:33:39Z</time>
      </trkpt>
      <trkpt lat="47.59718" lon="-0.37612">
        <ele>22.19</ele>
        <time>2017-01-15T09:33:45Z</time>
      </trkpt>
      <trkpt lat="47.59728" lon="-0.37635">
        <ele>22.43</ele>
        <time>2017-01-15T09:33:52Z</time>
      </trkpt>
      <trkpt lat="47.59738" lon="-0.37661">
        <ele>22.32</ele>
        <time>2017-01-15T09:33:58Z</time>
      </trkpt>
      <trkpt lat="47.59748" lon="-0.37684">
        <ele>22.22</ele>
        <time>2017-01-15T09:34:03Z</time>
      </trkpt>
      <trkpt lat="47.59757" lon="-0.37708">
        <ele>22.01</ele>
        <time>2017-01-15T09:34:08Z</time>
      </trkpt>
      <trkpt lat="47.59768" lon="-0.37731">
        <ele>22.03</ele>
        <time>2017-01-15T09:34:14Z</time>
      </trkpt>
      <trkpt lat="47.59778" lon="-0.37757">
        <ele>22.2</ele>
        <time>2017-01-15T09:34:20Z</time>
      </trkpt>
      <trkpt lat="47.59791" lon="-0.37779">
        <ele>22.81</ele>
        <time>2017-01-15T09:34:29Z</time>
      </trkpt>
      <trkpt lat="47.59799" lon="-0.37808">
        <ele>21.83</ele>
        <time>2017-01-15T09:34:36Z</time>
      </trkpt>
      <trkpt lat="47.5981" lon="-0.37832">
        <ele>21.03</ele>
        <time>2017-01-15T09:34:43Z</time>
      </trkpt>
      <trkpt lat="47.59819" lon="-0.37857">
        <ele>20.59</ele>
        <time>2017-01-15T09:34:50Z</time>
      </trkpt>
      <trkpt lat="47.59827" lon="-0.37885">
        <ele>21.3</ele>
        <time>2017-01-15T09:34:57Z</time>
      </trkpt>
      <trkpt lat="47.59835" lon="-0.37911">
        <ele>21.6</ele>
        <time>2017-01-15T09:35:03Z</time>
      </trkpt>
      <trkpt lat="47.59842" lon="-0.37936">
        <ele>21.98</ele>
        <time>2017-01-15T09:35:09Z</time>
      </trkpt>
      <trkpt lat="47.59851" lon="-0.37962">
        <ele>22.38</ele>
        <time>2017-01-15T09:35:15Z</time>
      </trkpt>
      <trkpt lat="47.5986" lon="-0.37991">
        <ele>22.68</ele>
        <time>2017-01-15T09:35:21Z</time>
      </trkpt>
      <trkpt lat="47.5987" lon="-0.38016">
        <ele>23.1</ele>
        <time>2017-01-15T09:35:26Z</time>
      </trkpt>
      <trkpt lat="47.59879" lon="-0.38044">
        <ele>23.48</ele>
        <time>2017-01-15T09:35:32Z</time>
      </trkpt>
      <trkpt lat="47.59889" lon="-0.38068">
        <ele>23.69</ele>
        <time>2017-01-15T09:35:37Z</time>
      </trkpt>
      <trkpt lat="47.59897" lon="-0.38094">
        <ele>24.42</ele>
        <time>2017-01-15T09:35:43Z</time>
      </trkpt>
      <trkpt lat="47.59901" lon="-0.38123">
        <ele>23.44</ele>
        <time>2017-01-15T09:35:49Z</time>
      </trkpt>
      <trkpt lat="47.59909" lon="-0.38149">
        <ele>23.39</ele>
        <time>2017-01-15T09:35:58Z</time>
      </trkpt>
      <trkpt lat="47.59915" lon="-0.38174">
        <ele>23.13</ele>
        <time>2017-01-15T09:36:04Z</time>
      </trkpt>
      <trkpt lat="47.59923" lon="-0.38201">
        <ele>22.81</ele>
        <time>2017-01-15T09:36:10Z</time>
      </trkpt>
      <trkpt lat="47.59931" lon="-0.38226">
        <ele>22.33</ele>
        <time>2017-01-15T09:36:16Z</time>
      </trkpt>
      <trkpt lat="47.59939" lon="-0.38254">
        <ele>22.35</ele>
        <time>2017-01-15T09:36:22Z</time>
      </trkpt>
      <trkpt lat="47.59948" lon="-0.38282">
        <ele>21.58</ele>
        <time>2017-01-15T09:36:28Z</time>
      </trkpt>
      <trkpt lat="47.59953" lon="-0.38309">
        <ele>20.35</ele>
        <time>2017-01-15T09:36:34Z</time>
      </trkpt>
      <trkpt lat="47.59943" lon="-0.38333">
        <ele>20.11</ele>
        <time>2017-01-15T09:36:43Z</time>
      </trkpt>
      <trkpt lat="47.59924" lon="-0.38337">
        <ele>21.18</ele>
        <time>2017-01-15T09:36:53Z</time>
      </trkpt>
      <trkpt lat="47.59908" lon="-0.38349">
        <ele>22.14</ele>
        <time>2017-01-15T09:37:01Z</time>
      </trkpt>
      <trkpt lat="47.59895" lon="-0.38372">
        <ele>22.62</ele>
        <time>2017-01-15T09:37:09Z</time>
      </trkpt>
      <trkpt lat="47.5988" lon="-0.38387">
        <ele>23.56</ele>
        <time>2017-01-15T09:37:16Z</time>
      </trkpt>
      <trkpt lat="47.5986" lon="-0.38389">
        <ele>25.93</ele>
        <time>2017-01-15T09:37:25Z</time>
      </trkpt>
      <trkpt lat="47.59859" lon="-0.38419">
        <ele>27.29</ele>
        <time>2017-01-15T09:37:34Z</time>
      </trkpt>
      <trkpt lat="47.59863" lon="-0.38448">
        <ele>28.84</ele>
        <time>2017-01-15T09:37:41Z</time>
      </trkpt>
      <trkpt lat="47.59866" lon="-0.38477">
        <ele>29.78</ele>
        <time>2017-01-15T09:37:47Z</time>
      </trkpt>
      <trkpt lat="47.59868" lon="-0.38506">
        <ele>30.3</ele>
        <time>2017-01-15T09:37:53Z</time>
      </trkpt>
      <trkpt lat="47.59871" lon="-0.38533">
        <ele>30.58</ele>
        <time>2017-01-15T09:37:58Z</time>
      </trkpt>
      <trkpt lat="47.59874" lon="-0.3856">
        <ele>30.98</ele>
        <time>2017-01-15T09:38:03Z</time>
      </trkpt>
      <trkpt lat="47.59876" lon="-0.38589">
        <ele>31.96</ele>
        <time>2017-01-15T09:38:08Z</time>
      </trkpt>
      <trkpt lat="47.5988" lon="-0.38618">
        <ele>32.78</ele>
        <time>2017-01-15T09:38:13Z</time>
      </trkpt>
      <trkpt lat="47.59885" lon="-0.38647">
        <ele>33.2</ele>
        <time>2017-01-15T09:38:18Z</time>
      </trkpt>
      <trkpt lat="47.59892" lon="-0.38677">
        <ele>33.79</ele>
        <time>2017-01-15T09:38:23Z</time>
      </trkpt>
      <trkpt lat="47.59899" lon="-0.38706">
        <ele>33.61</ele>
        <time>2017-01-15T09:38:28Z</time>
      </trkpt>
      <trkpt lat="47.59905" lon="-0.38732">
        <ele>33.71</ele>
        <time>2017-01-15T09:38:33Z</time>
      </trkpt>
      <trkpt lat="47.59908" lon="-0.38763">
        <ele>33.98</ele>
        <time>2017-01-15T09:38:39Z</time>
      </trkpt>
      <trkpt lat="47.59898" lon="-0.3879">
        <ele>34.28</ele>
        <time>2017-01-15T09:38:45Z</time>
      </trkpt>
      <trkpt lat="47.5988" lon="-0.388">
        <ele>34.98</ele>
        <time>2017-01-15T09:38:50Z</time>
      </trkpt>
      <trkpt lat="47.5986" lon="-0.3881">
        <ele>35.48</ele>
        <time>2017-01-15T09:38:55Z</time>
      </trkpt>
      <trkpt lat="47.59844" lon="-0.3882">
        <ele>35.59</ele>
        <time>2017-01-15T09:38:59Z</time>
      </trkpt>
      <trkpt lat="47.59826" lon="-0.3883">
        <ele>35.71</ele>
        <time>2017-01-15T09:39:03Z</time>
      </trkpt>
      <trkpt lat="47.59808" lon="-0.38841">
        <ele>36.36</ele>
        <time>2017-01-15T09:39:07Z</time>
      </trkpt>
      <trkpt lat="47.59789" lon="-0.38852">
        <ele>36.88</ele>
        <time>2017-01-15T09:39:11Z</time>
      </trkpt>
      <trkpt lat="47.59772" lon="-0.38863">
        <ele>37.19</ele>
        <time>2017-01-15T09:39:15Z</time>
      </trkpt>
      <trkpt lat="47.59754" lon="-0.38875">
        <ele>37.76</ele>
        <time>2017-01-15T09:39:19Z</time>
      </trkpt>
      <trkpt lat="47.59736" lon="-0.38889">
        <ele>38.1</ele>
        <time>2017-01-15T09:39:23Z</time>
      </trkpt>
      <trkpt lat="47.59717" lon="-0.38905">
        <ele>38.31</ele>
        <time>2017-01-15T09:39:27Z</time>
      </trkpt>
      <trkpt lat="47.59699" lon="-0.3892">
        <ele>38.68</ele>
        <time>2017-01-15T09:39:31Z</time>
      </trkpt>
      <trkpt lat="47.59678" lon="-0.38935">
        <ele>38.61</ele>
        <time>2017-01-15T09:39:35Z</time>
      </trkpt>
      <trkpt lat="47.5966" lon="-0.38951">
        <ele>38.81</ele>
        <time>2017-01-15T09:39:39Z</time>
      </trkpt>
      <trkpt lat="47.59642" lon="-0.38968">
        <ele>38.73</ele>
        <time>2017-01-15T09:39:43Z</time>
      </trkpt>
      <trkpt lat="47.59622" lon="-0.38986">
        <ele>38.6</ele>
        <time>2017-01-15T09:39:47Z</time>
      </trkpt>
      <trkpt lat="47.59602" lon="-0.39">
        <ele>38.63</ele>
        <time>2017-01-15T09:39:51Z</time>
      </trkpt>
      <trkpt lat="47.59587" lon="-0.39015">
        <ele>38.17</ele>
        <time>2017-01-15T09:39:54Z</time>
      </trkpt>
      <trkpt lat="47.5957" lon="-0.39035">
        <ele>36.45</ele>
        <time>2017-01-15T09:39:57Z</time>
      </trkpt>
      <trkpt lat="47.59556" lon="-0.39051">
        <ele>35.39</ele>
        <time>2017-01-15T09:40:00Z</time>
      </trkpt>
      <trkpt lat="47.59559" lon="-0.39083">
        <ele>34.3</ele>
        <time>2017-01-15T09:40:05Z</time>
      </trkpt>
      <trkpt lat="47.59575" lon="-0.39105">
        <ele>33.6</ele>
        <time>2017-01-15T09:40:09Z</time>
      </trkpt>
      <trkpt lat="47.59589" lon="-0.39125">
        <ele>33.69</ele>
        <time>2017-01-15T09:40:13Z</time>
      </trkpt>
      <trkpt lat="47.59597" lon="-0.39151">
        <ele>33.98</ele>
        <time>2017-01-15T09:40:17Z</time>
      </trkpt>
      <trkpt lat="47.59599" lon="-0.39179">
        <ele>34.28</ele>
        <time>2017-01-15T09:40:21Z</time>
      </trkpt>
      <trkpt lat="47.59597" lon="-0.39211">
        <ele>34.7</ele>
        <time>2017-01-15T09:40:26Z</time>
      </trkpt>
      <trkpt lat="47.59589" lon="-0.39237">
        <ele>34.73</ele>
        <time>2017-01-15T09:40:30Z</time>
      </trkpt>
      <trkpt lat="47.59576" lon="-0.39257">
        <ele>34.22</ele>
        <time>2017-01-15T09:40:35Z</time>
      </trkpt>
      <trkpt lat="47.59564" lon="-0.39283">
        <ele>35.03</ele>
        <time>2017-01-15T09:40:42Z</time>
      </trkpt>
      <trkpt lat="47.59551" lon="-0.39304">
        <ele>34.98</ele>
        <time>2017-01-15T09:40:47Z</time>
      </trkpt>
      <trkpt lat="47.59541" lon="-0.39333">
        <ele>35.18</ele>
        <time>2017-01-15T09:40:52Z</time>
      </trkpt>
      <trkpt lat="47.59534" lon="-0.39363">
        <ele>34.72</ele>
        <time>2017-01-15T09:40:56Z</time>
      </trkpt>
      <trkpt lat="47.59527" lon="-0.3939">
        <ele>35.27</ele>
        <time>2017-01-15T09:41:00Z</time>
      </trkpt>
      <trkpt lat="47.59519" lon="-0.39418">
        <ele>35.33</ele>
        <time>2017-01-15T09:41:04Z</time>
      </trkpt>
      <trkpt lat="47.59515" lon="-0.39445">
        <ele>34.9</ele>
        <time>2017-01-15T09:41:07Z</time>
      </trkpt>
      <trkpt lat="47.59512" lon="-0.39474">
        <ele>35.19</ele>
        <time>2017-01-15T09:41:11Z</time>
      </trkpt>
      <trkpt lat="47.59509" lon="-0.39505">
        <ele>35.33</ele>
        <time>2017-01-15T09:41:15Z</time>
      </trkpt>
      <trkpt lat="47.59507" lon="-0.39535">
        <ele>35.41</ele>
        <time>2017-01-15T09:41:19Z</time>
      </trkpt>
      <trkpt lat="47.59501" lon="-0.39563">
        <ele>34.98</ele>
        <time>2017-01-15T09:41:23Z</time>
      </trkpt>
      <trkpt lat="47.59498" lon="-0.39597">
        <ele>34.72</ele>
        <time>2017-01-15T09:41:27Z</time>
      </trkpt>
      <trkpt lat="47.59499" lon="-0.39631">
        <ele>35.16</ele>
        <time>2017-01-15T09:41:31Z</time>
      </trkpt>
      <trkpt lat="47.595" lon="-0.39665">
        <ele>35.33</ele>
        <time>2017-01-15T09:41:35Z</time>
      </trkpt>
      <trkpt lat="47.59498" lon="-0.39695">
        <ele>34.74</ele>
        <time>2017-01-15T09:41:38Z</time>
      </trkpt>
      <trkpt lat="47.59493" lon="-0.39721">
        <ele>34.44</ele>
        <time>2017-01-15T09:41:41Z</time>
      </trkpt>
      <trkpt lat="47.59486" lon="-0.39747">
        <ele>33.94</ele>
        <time>2017-01-15T09:41:44Z</time>
      </trkpt>
      <trkpt lat="47.59475" lon="-0.39772">
        <ele>33.45</ele>
        <time>2017-01-15T09:41:47Z</time>
      </trkpt>
      <trkpt lat="47.59464" lon="-0.39799">
        <ele>33.13</ele>
        <time>2017-01-15T09:41:50Z</time>
      </trkpt>
      <trkpt lat="47.59452" lon="-0.39829">
        <ele>32.83</ele>
        <time>2017-01-15T09:41:54Z</time>
      </trkpt>
      <trkpt lat="47.59443" lon="-0.39854">
        <ele>32.71</ele>
        <time>2017-01-15T09:41:58Z</time>
      </trkpt>
      <trkpt lat="47.59441" lon="-0.39884">
        <ele>33.08</ele>
        <time>2017-01-15T09:42:02Z</time>
      </trkpt>
      <trkpt lat="47.5946" lon="-0.39909">
        <ele>33.93</ele>
        <time>2017-01-15T09:42:06Z</time>
      </trkpt>
      <trkpt lat="47.59477" lon="-0.39926">
        <ele>34.56</ele>
        <time>2017-01-15T09:42:09Z</time>
      </trkpt>
      <trkpt lat="47.59494" lon="-0.39943">
        <ele>34.97</ele>
        <time>2017-01-15T09:42:13Z</time>
      </trkpt>
      <trkpt lat="47.59511" lon="-0.39958">
        <ele>35.85</ele>
        <time>2017-01-15T09:42:17Z</time>
      </trkpt>
      <trkpt lat="47.59527" lon="-0.39972">
        <ele>36.56</ele>
        <time>2017-01-15T09:42:20Z</time>
      </trkpt>
      <trkpt lat="47.59544" lon="-0.39983">
        <ele>37.04</ele>
        <time>2017-01-15T09:42:23Z</time>
      </trkpt>
      <trkpt lat="47.59564" lon="-0.39996">
        <ele>37.76</ele>
        <time>2017-01-15T09:42:27Z</time>
      </trkpt>
      <trkpt lat="47.59583" lon="-0.40008">
        <ele>38.83</ele>
        <time>2017-01-15T09:42:31Z</time>
      </trkpt>
      <trkpt lat="47.59602" lon="-0.40018">
        <ele>39.48</ele>
        <time>2017-01-15T09:42:35Z</time>
      </trkpt>
      <trkpt lat="47.59623" lon="-0.40029">
        <ele>40.08</ele>
        <time>2017-01-15T09:42:39Z</time>
      </trkpt>
      <trkpt lat="47.59643" lon="-0.4004">
        <ele>40.2</ele>
        <time>2017-01-15T09:42:43Z</time>
      </trkpt>
      <trkpt lat="47.59662" lon="-0.40054">
        <ele>40.39</ele>
        <time>2017-01-15T09:42:47Z</time>
      </trkpt>
      <trkpt lat="47.5968" lon="-0.40067">
        <ele>40.9</ele>
        <time>2017-01-15T09:42:51Z</time>
      </trkpt>
      <trkpt lat="47.597" lon="-0.40082">
        <ele>41.28</ele>
        <time>2017-01-15T09:42:55Z</time>
      </trkpt>
      <trkpt lat="47.59718" lon="-0.40095">
        <ele>41.47</ele>
        <time>2017-01-15T09:42:58Z</time>
      </trkpt>
      <trkpt lat="47.59734" lon="-0.40109">
        <ele>41.51</ele>
        <time>2017-01-15T09:43:01Z</time>
      </trkpt>
      <trkpt lat="47.59754" lon="-0.40126">
        <ele>41.7</ele>
        <time>2017-01-15T09:43:05Z</time>
      </trkpt>
      <trkpt lat="47.59773" lon="-0.4014">
        <ele>41.26</ele>
        <time>2017-01-15T09:43:09Z</time>
      </trkpt>
      <trkpt lat="47.59795" lon="-0.40155">
        <ele>40.01</ele>
        <time>2017-01-15T09:43:13Z</time>
      </trkpt>
      <trkpt lat="47.59815" lon="-0.40172">
        <ele>38.96</ele>
        <time>2017-01-15T09:43:17Z</time>
      </trkpt>
      <trkpt lat="47.59835" lon="-0.40191">
        <ele>38.61</ele>
        <time>2017-01-15T09:43:21Z</time>
      </trkpt>
      <trkpt lat="47.5985" lon="-0.40206">
        <ele>38.41</ele>
        <time>2017-01-15T09:43:24Z</time>
      </trkpt>
      <trkpt lat="47.59866" lon="-0.40221">
        <ele>38.41</ele>
        <time>2017-01-15T09:43:27Z</time>
      </trkpt>
      <trkpt lat="47.59882" lon="-0.40235">
        <ele>38.33</ele>
        <time>2017-01-15T09:43:30Z</time>
      </trkpt>
      <trkpt lat="47.59902" lon="-0.40251">
        <ele>38.03</ele>
        <time>2017-01-15T09:43:34Z</time>
      </trkpt>
      <trkpt lat="47.59923" lon="-0.40263">
        <ele>38.38</ele>
        <time>2017-01-15T09:43:38Z</time>
      </trkpt>
      <trkpt lat="47.59941" lon="-0.40272">
        <ele>38.86</ele>
        <time>2017-01-15T09:43:41Z</time>
      </trkpt>
      <trkpt lat="47.59959" lon="-0.4028">
        <ele>39.02</ele>
        <time>2017-01-15T09:43:44Z</time>
      </trkpt>
      <trkpt lat="47.59976" lon="-0.4029">
        <ele>38.66</ele>
        <time>2017-01-15T09:43:48Z</time>
      </trkpt>
      <trkpt lat="47.59996" lon="-0.40305">
        <ele>37.75</ele>
        <time>2017-01-15T09:43:52Z</time>
      </trkpt>
      <trkpt lat="47.60013" lon="-0.40317">
        <ele>37.42</ele>
        <time>2017-01-15T09:43:55Z</time>
      </trkpt>
      <trkpt lat="47.60031" lon="-0.40329">
        <ele>36.68</ele>
        <time>2017-01-15T09:43:58Z</time>
      </trkpt>
      <trkpt lat="47.60049" lon="-0.40343">
        <ele>35.55</ele>
        <time>2017-01-15T09:44:01Z</time>
      </trkpt>
      <trkpt lat="47.60071" lon="-0.40357">
        <ele>34.79</ele>
        <time>2017-01-15T09:44:05Z</time>
      </trkpt>
      <trkpt lat="47.60089" lon="-0.40365">
        <ele>33.88</ele>
        <time>2017-01-15T09:44:08Z</time>
      </trkpt>
      <trkpt lat="47.60111" lon="-0.40377">
        <ele>33.12</ele>
        <time>2017-01-15T09:44:12Z</time>
      </trkpt>
      <trkpt lat="47.60132" lon="-0.40386">
        <ele>32.82</ele>
        <time>2017-01-15T09:44:16Z</time>
      </trkpt>
      <trkpt lat="47.60154" lon="-0.40396">
        <ele>33.67</ele>
        <time>2017-01-15T09:44:20Z</time>
      </trkpt>
      <trkpt lat="47.60176" lon="-0.40407">
        <ele>33.99</ele>
        <time>2017-01-15T09:44:24Z</time>
      </trkpt>
      <trkpt lat="47.60197" lon="-0.40415">
        <ele>34.01</ele>
        <time>2017-01-15T09:44:28Z</time>
      </trkpt>
      <trkpt lat="47.60217" lon="-0.40423">
        <ele>33.65</ele>
        <time>2017-01-15T09:44:32Z</time>
      </trkpt>
      <trkpt lat="47.60235" lon="-0.4043">
        <ele>33.81</ele>
        <time>2017-01-15T09:44:36Z</time>
      </trkpt>
      <trkpt lat="47.60255" lon="-0.40435">
        <ele>33.88</ele>
        <time>2017-01-15T09:44:40Z</time>
      </trkpt>
      <trkpt lat="47.60274" lon="-0.40439">
        <ele>34.2</ele>
        <time>2017-01-15T09:44:44Z</time>
      </trkpt>
      <trkpt lat="47.60292" lon="-0.40443">
        <ele>34.19</ele>
        <time>2017-01-15T09:44:48Z</time>
      </trkpt>
      <trkpt lat="47.6031" lon="-0.40448">
        <ele>34.41</ele>
        <time>2017-01-15T09:44:52Z</time>
      </trkpt>
      <trkpt lat="47.60331" lon="-0.40456">
        <ele>34.92</ele>
        <time>2017-01-15T09:44:57Z</time>
      </trkpt>
      <trkpt lat="47.6035" lon="-0.40466">
        <ele>35.01</ele>
        <time>2017-01-15T09:45:02Z</time>
      </trkpt>
      <trkpt lat="47.6037" lon="-0.40478">
        <ele>34.61</ele>
        <time>2017-01-15T09:45:06Z</time>
      </trkpt>
      <trkpt lat="47.6039" lon="-0.40488">
        <ele>34.52</ele>
        <time>2017-01-15T09:45:10Z</time>
      </trkpt>
      <trkpt lat="47.6041" lon="-0.40495">
        <ele>34.21</ele>
        <time>2017-01-15T09:45:14Z</time>
      </trkpt>
      <trkpt lat="47.60428" lon="-0.40501">
        <ele>33.8</ele>
        <time>2017-01-15T09:45:18Z</time>
      </trkpt>
      <trkpt lat="47.60448" lon="-0.40507">
        <ele>33.91</ele>
        <time>2017-01-15T09:45:22Z</time>
      </trkpt>
      <trkpt lat="47.6047" lon="-0.40514">
        <ele>33.69</ele>
        <time>2017-01-15T09:45:26Z</time>
      </trkpt>
      <trkpt lat="47.60493" lon="-0.40518">
        <ele>32.9</ele>
        <time>2017-01-15T09:45:30Z</time>
      </trkpt>
      <trkpt lat="47.60514" lon="-0.40519">
        <ele>31.19</ele>
        <time>2017-01-15T09:45:34Z</time>
      </trkpt>
      <trkpt lat="47.60533" lon="-0.40521">
        <ele>30.73</ele>
        <time>2017-01-15T09:45:38Z</time>
      </trkpt>
      <trkpt lat="47.60551" lon="-0.40521">
        <ele>31.08</ele>
        <time>2017-01-15T09:45:43Z</time>
      </trkpt>
      <trkpt lat="47.6057" lon="-0.40524">
        <ele>31.01</ele>
        <time>2017-01-15T09:45:48Z</time>
      </trkpt>
      <trkpt lat="47.60587" lon="-0.40534">
        <ele>31.2</ele>
        <time>2017-01-15T09:45:52Z</time>
      </trkpt>
      <trkpt lat="47.60604" lon="-0.40549">
        <ele>31.03</ele>
        <time>2017-01-15T09:45:56Z</time>
      </trkpt>
      <trkpt lat="47.60619" lon="-0.40568">
        <ele>30.83</ele>
        <time>2017-01-15T09:46:00Z</time>
      </trkpt>
      <trkpt lat="47.60634" lon="-0.40586">
        <ele>30.43</ele>
        <time>2017-01-15T09:46:04Z</time>
      </trkpt>
      <trkpt lat="47.60649" lon="-0.40606">
        <ele>30.13</ele>
        <time>2017-01-15T09:46:08Z</time>
      </trkpt>
      <trkpt lat="47.60664" lon="-0.40625">
        <ele>29.91</ele>
        <time>2017-01-15T09:46:12Z</time>
      </trkpt>
      <trkpt lat="47.60679" lon="-0.40644">
        <ele>29.71</ele>
        <time>2017-01-15T09:46:16Z</time>
      </trkpt>
      <trkpt lat="47.60694" lon="-0.4066">
        <ele>29.53</ele>
        <time>2017-01-15T09:46:20Z</time>
      </trkpt>
      <trkpt lat="47.6071" lon="-0.40678">
        <ele>29.41</ele>
        <time>2017-01-15T09:46:24Z</time>
      </trkpt>
      <trkpt lat="47.60725" lon="-0.40697">
        <ele>29.41</ele>
        <time>2017-01-15T09:46:28Z</time>
      </trkpt>
      <trkpt lat="47.60741" lon="-0.40715">
        <ele>29.41</ele>
        <time>2017-01-15T09:46:32Z</time>
      </trkpt>
      <trkpt lat="47.60758" lon="-0.40731">
        <ele>29.21</ele>
        <time>2017-01-15T09:46:36Z</time>
      </trkpt>
      <trkpt lat="47.60776" lon="-0.40743">
        <ele>29.18</ele>
        <time>2017-01-15T09:46:40Z</time>
      </trkpt>
      <trkpt lat="47.60795" lon="-0.40727">
        <ele>29.32</ele>
        <time>2017-01-15T09:46:45Z</time>
      </trkpt>
      <trkpt lat="47.60806" lon="-0.40701">
        <ele>29.77</ele>
        <time>2017-01-15T09:46:49Z</time>
      </trkpt>
      <trkpt lat="47.60826" lon="-0.40693">
        <ele>30.4</ele>
        <time>2017-01-15T09:46:54Z</time>
      </trkpt>
      <trkpt lat="47.60845" lon="-0.40705">
        <ele>30.11</ele>
        <time>2017-01-15T09:46:58Z</time>
      </trkpt>
      <trkpt lat="47.60863" lon="-0.40718">
        <ele>30.11</ele>
        <time>2017-01-15T09:47:02Z</time>
      </trkpt>
      <trkpt lat="47.6088" lon="-0.40737">
        <ele>29.81</ele>
        <time>2017-01-15T09:47:06Z</time>
      </trkpt>
      <trkpt lat="47.60897" lon="-0.40755">
        <ele>29.63</ele>
        <time>2017-01-15T09:47:10Z</time>
      </trkpt>
      <trkpt lat="47.60914" lon="-0.40773">
        <ele>29.25</ele>
        <time>2017-01-15T09:47:14Z</time>
      </trkpt>
      <trkpt lat="47.60929" lon="-0.40793">
        <ele>29.01</ele>
        <time>2017-01-15T09:47:18Z</time>
      </trkpt>
      <trkpt lat="47.60937" lon="-0.40819">
        <ele>28.91</ele>
        <time>2017-01-15T09:47:23Z</time>
      </trkpt>
      <trkpt lat="47.60929" lon="-0.40848">
        <ele>28.83</ele>
        <time>2017-01-15T09:47:27Z</time>
      </trkpt>
      <trkpt lat="47.60919" lon="-0.40878">
        <ele>28.99</ele>
        <time>2017-01-15T09:47:31Z</time>
      </trkpt>
      <trkpt lat="47.60908" lon="-0.40908">
        <ele>29.11</ele>
        <time>2017-01-15T09:47:35Z</time>
      </trkpt>
      <trkpt lat="47.60896" lon="-0.40938">
        <ele>29.01</ele>
        <time>2017-01-15T09:47:39Z</time>
      </trkpt>
      <trkpt lat="47.60889" lon="-0.40963">
        <ele>28.73</ele>
        <time>2017-01-15T09:47:42Z</time>
      </trkpt>
      <trkpt lat="47.60878" lon="-0.40993">
        <ele>28.33</ele>
        <time>2017-01-15T09:47:46Z</time>
      </trkpt>
      <trkpt lat="47.60867" lon="-0.41024">
        <ele>27.94</ele>
        <time>2017-01-15T09:47:50Z</time>
      </trkpt>
      <trkpt lat="47.60857" lon="-0.41054">
        <ele>27.24</ele>
        <time>2017-01-15T09:47:54Z</time>
      </trkpt>
      <trkpt lat="47.60846" lon="-0.41084">
        <ele>26.74</ele>
        <time>2017-01-15T09:47:58Z</time>
      </trkpt>
      <trkpt lat="47.60837" lon="-0.41115">
        <ele>26.68</ele>
        <time>2017-01-15T09:48:02Z</time>
      </trkpt>
      <trkpt lat="47.60827" lon="-0.41144">
        <ele>26.71</ele>
        <time>2017-01-15T09:48:06Z</time>
      </trkpt>
      <trkpt lat="47.60815" lon="-0.41174">
        <ele>26.59</ele>
        <time>2017-01-15T09:48:10Z</time>
      </trkpt>
      <trkpt lat="47.60807" lon="-0.41204">
        <ele>26.67</ele>
        <time>2017-01-15T09:48:14Z</time>
      </trkpt>
      <trkpt lat="47.6082" lon="-0.41231">
        <ele>26.75</ele>
        <time>2017-01-15T09:48:19Z</time>
      </trkpt>
      <trkpt lat="47.60835" lon="-0.4125">
        <ele>26.71</ele>
        <time>2017-01-15T09:48:23Z</time>
      </trkpt>
      <trkpt lat="47.6085" lon="-0.4127">
        <ele>26.53</ele>
        <time>2017-01-15T09:48:27Z</time>
      </trkpt>
      <trkpt lat="47.60865" lon="-0.41292">
        <ele>26.31</ele>
        <time>2017-01-15T09:48:31Z</time>
      </trkpt>
      <trkpt lat="47.60881" lon="-0.41315">
        <ele>26.38</ele>
        <time>2017-01-15T09:48:35Z</time>
      </trkpt>
      <trkpt lat="47.60896" lon="-0.41336">
        <ele>26.49</ele>
        <time>2017-01-15T09:48:39Z</time>
      </trkpt>
      <trkpt lat="47.60909" lon="-0.41359">
        <ele>26.31</ele>
        <time>2017-01-15T09:48:44Z</time>
      </trkpt>
      <trkpt lat="47.60923" lon="-0.41381">
        <ele>26.31</ele>
        <time>2017-01-15T09:48:48Z</time>
      </trkpt>
      <trkpt lat="47.60936" lon="-0.41401">
        <ele>26.41</ele>
        <time>2017-01-15T09:48:52Z</time>
      </trkpt>
      <trkpt lat="47.6095" lon="-0.41422">
        <ele>26.88</ele>
        <time>2017-01-15T09:48:56Z</time>
      </trkpt>
      <trkpt lat="47.60966" lon="-0.41444">
        <ele>27.3</ele>
        <time>2017-01-15T09:49:01Z</time>
      </trkpt>
      <trkpt lat="47.60979" lon="-0.41465">
        <ele>27.41</ele>
        <time>2017-01-15T09:49:05Z</time>
      </trkpt>
      <trkpt lat="47.60994" lon="-0.41489">
        <ele>27.68</ele>
        <time>2017-01-15T09:49:10Z</time>
      </trkpt>
      <trkpt lat="47.61005" lon="-0.41516">
        <ele>28.48</ele>
        <time>2017-01-15T09:49:15Z</time>
      </trkpt>
      <trkpt lat="47.61009" lon="-0.41544">
        <ele>28.5</ele>
        <time>2017-01-15T09:49:20Z</time>
      </trkpt>
      <trkpt lat="47.61014" lon="-0.41577">
        <ele>28.68</ele>
        <time>2017-01-15T09:49:25Z</time>
      </trkpt>
      <trkpt lat="47.61021" lon="-0.41602">
        <ele>29.06</ele>
        <time>2017-01-15T09:49:29Z</time>
      </trkpt>
      <trkpt lat="47.61023" lon="-0.41629">
        <ele>28.6</ele>
        <time>2017-01-15T09:49:34Z</time>
      </trkpt>
      <trkpt lat="47.61008" lon="-0.41653">
        <ele>28.39</ele>
        <time>2017-01-15T09:49:40Z</time>
      </trkpt>
      <trkpt lat="47.60996" lon="-0.41677">
        <ele>27.97</ele>
        <time>2017-01-15T09:49:45Z</time>
      </trkpt>
      <trkpt lat="47.60979" lon="-0.41695">
        <ele>27.24</ele>
        <time>2017-01-15T09:49:51Z</time>
      </trkpt>
      <trkpt lat="47.60966" lon="-0.41715">
        <ele>26.46</ele>
        <time>2017-01-15T09:49:55Z</time>
      </trkpt>
      <trkpt lat="47.60958" lon="-0.4174">
        <ele>27.18</ele>
        <time>2017-01-15T09:50:00Z</time>
      </trkpt>
      <trkpt lat="47.60948" lon="-0.41764">
        <ele>27.6</ele>
        <time>2017-01-15T09:50:05Z</time>
      </trkpt>
      <trkpt lat="47.60938" lon="-0.41787">
        <ele>28</ele>
        <time>2017-01-15T09:50:10Z</time>
      </trkpt>
      <trkpt lat="47.60927" lon="-0.41814">
        <ele>28.19</ele>
        <time>2017-01-15T09:50:16Z</time>
      </trkpt>
      <trkpt lat="47.60916" lon="-0.4184">
        <ele>28.01</ele>
        <time>2017-01-15T09:50:22Z</time>
      </trkpt>
      <trkpt lat="47.60906" lon="-0.41865">
        <ele>27.61</ele>
        <time>2017-01-15T09:50:28Z</time>
      </trkpt>
      <trkpt lat="47.60896" lon="-0.41892">
        <ele>27.87</ele>
        <time>2017-01-15T09:50:34Z</time>
      </trkpt>
      <trkpt lat="47.60885" lon="-0.41918">
        <ele>28.31</ele>
        <time>2017-01-15T09:50:40Z</time>
      </trkpt>
      <trkpt lat="47.60875" lon="-0.41945">
        <ele>28.29</ele>
        <time>2017-01-15T09:50:46Z</time>
      </trkpt>
      <trkpt lat="47.60865" lon="-0.41971">
        <ele>28.2</ele>
        <time>2017-01-15T09:50:52Z</time>
      </trkpt>
      <trkpt lat="47.60856" lon="-0.41997">
        <ele>28.3</ele>
        <time>2017-01-15T09:50:59Z</time>
      </trkpt>
      <trkpt lat="47.6086" lon="-0.42024">
        <ele>28.87</ele>
        <time>2017-01-15T09:51:28Z</time>
      </trkpt>
      <trkpt lat="47.60847" lon="-0.42045">
        <ele>29.86</ele>
        <time>2017-01-15T09:51:35Z</time>
      </trkpt>
      <trkpt lat="47.60834" lon="-0.42068">
        <ele>31.18</ele>
        <time>2017-01-15T09:51:43Z</time>
      </trkpt>
      <trkpt lat="47.6082" lon="-0.42088">
        <ele>31.63</ele>
        <time>2017-01-15T09:51:49Z</time>
      </trkpt>
      <trkpt lat="47.60806" lon="-0.42108">
        <ele>31.97</ele>
        <time>2017-01-15T09:51:55Z</time>
      </trkpt>
      <trkpt lat="47.60791" lon="-0.4213">
        <ele>32.61</ele>
        <time>2017-01-15T09:52:01Z</time>
      </trkpt>
      <trkpt lat="47.60776" lon="-0.42154">
        <ele>32.12</ele>
        <time>2017-01-15T09:52:06Z</time>
      </trkpt>
      <trkpt lat="47.60762" lon="-0.42172">
        <ele>31.75</ele>
        <time>2017-01-15T09:52:11Z</time>
      </trkpt>
      <trkpt lat="47.60747" lon="-0.42192">
        <ele>32.5</ele>
        <time>2017-01-15T09:52:17Z</time>
      </trkpt>
      <trkpt lat="47.60731" lon="-0.42211">
        <ele>32.61</ele>
        <time>2017-01-15T09:52:23Z</time>
      </trkpt>
      <trkpt lat="47.60716" lon="-0.4223">
        <ele>33.16</ele>
        <time>2017-01-15T09:52:29Z</time>
      </trkpt>
      <trkpt lat="47.60702" lon="-0.42251">
        <ele>34.86</ele>
        <time>2017-01-15T09:52:34Z</time>
      </trkpt>
      <trkpt lat="47.60687" lon="-0.42272">
        <ele>34.89</ele>
        <time>2017-01-15T09:52:39Z</time>
      </trkpt>
      <trkpt lat="47.60673" lon="-0.42291">
        <ele>36.49</ele>
        <time>2017-01-15T09:52:44Z</time>
      </trkpt>
      <trkpt lat="47.60661" lon="-0.42311">
        <ele>37.41</ele>
        <time>2017-01-15T09:52:50Z</time>
      </trkpt>
      <trkpt lat="47.60647" lon="-0.42328">
        <ele>37.78</ele>
        <time>2017-01-15T09:52:58Z</time>
      </trkpt>
      <trkpt lat="47.60631" lon="-0.42346">
        <ele>38.42</ele>
        <time>2017-01-15T09:53:04Z</time>
      </trkpt>
      <trkpt lat="47.60616" lon="-0.42364">
        <ele>37.88</ele>
        <time>2017-01-15T09:53:08Z</time>
      </trkpt>
      <trkpt lat="47.60599" lon="-0.4238">
        <ele>38.2</ele>
        <time>2017-01-15T09:53:13Z</time>
      </trkpt>
      <trkpt lat="47.60585" lon="-0.42396">
        <ele>38.22</ele>
        <time>2017-01-15T09:53:18Z</time>
      </trkpt>
      <trkpt lat="47.60568" lon="-0.42414">
        <ele>38.37</ele>
        <time>2017-01-15T09:53:24Z</time>
      </trkpt>
      <trkpt lat="47.60553" lon="-0.42433">
        <ele>38.42</ele>
        <time>2017-01-15T09:53:30Z</time>
      </trkpt>
      <trkpt lat="47.60537" lon="-0.42454">
        <ele>38.17</ele>
        <time>2017-01-15T09:53:36Z</time>
      </trkpt>
      <trkpt lat="47.60524" lon="-0.42474">
        <ele>38.41</ele>
        <time>2017-01-15T09:53:42Z</time>
      </trkpt>
      <trkpt lat="47.60509" lon="-0.42491">
        <ele>38.01</ele>
        <time>2017-01-15T09:53:48Z</time>
      </trkpt>
      <trkpt lat="47.60496" lon="-0.42513">
        <ele>36.76</ele>
        <time>2017-01-15T09:53:55Z</time>
      </trkpt>
      <trkpt lat="47.60501" lon="-0.42539">
        <ele>35.51</ele>
        <time>2017-01-15T09:54:37Z</time>
      </trkpt>
      <trkpt lat="47.60513" lon="-0.42561">
        <ele>35.21</ele>
        <time>2017-01-15T09:54:45Z</time>
      </trkpt>
      <trkpt lat="47.60525" lon="-0.42582">
        <ele>34.35</ele>
        <time>2017-01-15T09:54:52Z</time>
      </trkpt>
      <trkpt lat="47.60537" lon="-0.42606">
        <ele>34.23</ele>
        <time>2017-01-15T09:54:59Z</time>
      </trkpt>
      <trkpt lat="47.6055" lon="-0.42629">
        <ele>34.11</ele>
        <time>2017-01-15T09:55:05Z</time>
      </trkpt>
      <trkpt lat="47.60561" lon="-0.4265">
        <ele>33.84</ele>
        <time>2017-01-15T09:55:10Z</time>
      </trkpt>
      <trkpt lat="47.60572" lon="-0.42672">
        <ele>34</ele>
        <time>2017-01-15T09:55:15Z</time>
      </trkpt>
      <trkpt lat="47.60583" lon="-0.42695">
        <ele>34.11</ele>
        <time>2017-01-15T09:55:20Z</time>
      </trkpt>
      <trkpt lat="47.60595" lon="-0.42718">
        <ele>34.02</ele>
        <time>2017-01-15T09:55:25Z</time>
      </trkpt>
      <trkpt lat="47.60599" lon="-0.42744">
        <ele>34.12</ele>
        <time>2017-01-15T09:55:30Z</time>
      </trkpt>
      <trkpt lat="47.60584" lon="-0.42763">
        <ele>34.7</ele>
        <time>2017-01-15T09:55:36Z</time>
      </trkpt>
      <trkpt lat="47.60563" lon="-0.42773">
        <ele>35.17</ele>
        <time>2017-01-15T09:55:41Z</time>
      </trkpt>
      <trkpt lat="47.60544" lon="-0.42782">
        <ele>35.96</ele>
        <time>2017-01-15T09:55:45Z</time>
      </trkpt>
      <trkpt lat="47.60525" lon="-0.42791">
        <ele>36.47</ele>
        <time>2017-01-15T09:55:49Z</time>
      </trkpt>
      <trkpt lat="47.60506" lon="-0.42803">
        <ele>36.51</ele>
        <time>2017-01-15T09:55:53Z</time>
      </trkpt>
      <trkpt lat="47.60485" lon="-0.42812">
        <ele>36.9</ele>
        <time>2017-01-15T09:55:57Z</time>
      </trkpt>
      <trkpt lat="47.60462" lon="-0.42815">
        <ele>37.29</ele>
        <time>2017-01-15T09:56:01Z</time>
      </trkpt>
      <trkpt lat="47.60439" lon="-0.42814">
        <ele>37.68</ele>
        <time>2017-01-15T09:56:05Z</time>
      </trkpt>
      <trkpt lat="47.60417" lon="-0.4281">
        <ele>38.36</ele>
        <time>2017-01-15T09:56:09Z</time>
      </trkpt>
      <trkpt lat="47.60396" lon="-0.42804">
        <ele>39.52</ele>
        <time>2017-01-15T09:56:13Z</time>
      </trkpt>
      <trkpt lat="47.60376" lon="-0.42799">
        <ele>40.36</ele>
        <time>2017-01-15T09:56:17Z</time>
      </trkpt>
      <trkpt lat="47.60355" lon="-0.42797">
        <ele>40.72</ele>
        <time>2017-01-15T09:56:21Z</time>
      </trkpt>
      <trkpt lat="47.60334" lon="-0.42801">
        <ele>39.42</ele>
        <time>2017-01-15T09:56:25Z</time>
      </trkpt>
      <trkpt lat="47.60315" lon="-0.42806">
        <ele>38.34</ele>
        <time>2017-01-15T09:56:29Z</time>
      </trkpt>
      <trkpt lat="47.60293" lon="-0.42813">
        <ele>37.81</ele>
        <time>2017-01-15T09:56:33Z</time>
      </trkpt>
      <trkpt lat="47.60272" lon="-0.42823">
        <ele>37.71</ele>
        <time>2017-01-15T09:56:37Z</time>
      </trkpt>
      <trkpt lat="47.60252" lon="-0.42834">
        <ele>37.52</ele>
        <time>2017-01-15T09:56:41Z</time>
      </trkpt>
      <trkpt lat="47.60232" lon="-0.42848">
        <ele>37.51</ele>
        <time>2017-01-15T09:56:45Z</time>
      </trkpt>
      <trkpt lat="47.60212" lon="-0.42864">
        <ele>37.53</ele>
        <time>2017-01-15T09:56:49Z</time>
      </trkpt>
      <trkpt lat="47.60192" lon="-0.42883">
        <ele>37.24</ele>
        <time>2017-01-15T09:56:53Z</time>
      </trkpt>
      <trkpt lat="47.60176" lon="-0.42898">
        <ele>37.03</ele>
        <time>2017-01-15T09:56:56Z</time>
      </trkpt>
      <trkpt lat="47.60157" lon="-0.42918">
        <ele>36.73</ele>
        <time>2017-01-15T09:57:00Z</time>
      </trkpt>
      <trkpt lat="47.60139" lon="-0.42938">
        <ele>36.61</ele>
        <time>2017-01-15T09:57:04Z</time>
      </trkpt>
      <trkpt lat="47.60121" lon="-0.42957">
        <ele>36.51</ele>
        <time>2017-01-15T09:57:08Z</time>
      </trkpt>
      <trkpt lat="47.60103" lon="-0.42976">
        <ele>36.42</ele>
        <time>2017-01-15T09:57:12Z</time>
      </trkpt>
      <trkpt lat="47.60086" lon="-0.42995">
        <ele>36.23</ele>
        <time>2017-01-15T09:57:16Z</time>
      </trkpt>
      <trkpt lat="47.6007" lon="-0.43014">
        <ele>36.03</ele>
        <time>2017-01-15T09:57:20Z</time>
      </trkpt>
      <trkpt lat="47.60057" lon="-0.43033">
        <ele>36.01</ele>
        <time>2017-01-15T09:57:24Z</time>
      </trkpt>
      <trkpt lat="47.60065" lon="-0.4306">
        <ele>35.64</ele>
        <time>2017-01-15T09:57:29Z</time>
      </trkpt>
      <trkpt lat="47.60085" lon="-0.43069">
        <ele>35.43</ele>
        <time>2017-01-15T09:57:33Z</time>
      </trkpt>
      <trkpt lat="47.60107" lon="-0.43081">
        <ele>35.43</ele>
        <time>2017-01-15T09:57:37Z</time>
      </trkpt>
      <trkpt lat="47.60128" lon="-0.43094">
        <ele>34.93</ele>
        <time>2017-01-15T09:57:41Z</time>
      </trkpt>
      <trkpt lat="47.60149" lon="-0.43105">
        <ele>34.79</ele>
        <time>2017-01-15T09:57:45Z</time>
      </trkpt>
      <trkpt lat="47.6017" lon="-0.43114">
        <ele>35.18</ele>
        <time>2017-01-15T09:57:49Z</time>
      </trkpt>
      <trkpt lat="47.6019" lon="-0.43118">
        <ele>35.52</ele>
        <time>2017-01-15T09:57:53Z</time>
      </trkpt>
      <trkpt lat="47.60212" lon="-0.43119">
        <ele>35.78</ele>
        <time>2017-01-15T09:57:57Z</time>
      </trkpt>
      <trkpt lat="47.60232" lon="-0.43121">
        <ele>36.18</ele>
        <time>2017-01-15T09:58:01Z</time>
      </trkpt>
      <trkpt lat="47.60252" lon="-0.43128">
        <ele>36.05</ele>
        <time>2017-01-15T09:58:05Z</time>
      </trkpt>
      <trkpt lat="47.60272" lon="-0.43142">
        <ele>35.16</ele>
        <time>2017-01-15T09:58:09Z</time>
      </trkpt>
      <trkpt lat="47.60291" lon="-0.43158">
        <ele>34.24</ele>
        <time>2017-01-15T09:58:13Z</time>
      </trkpt>
      <trkpt lat="47.6031" lon="-0.43176">
        <ele>33.93</ele>
        <time>2017-01-15T09:58:17Z</time>
      </trkpt>
      <trkpt lat="47.60328" lon="-0.43193">
        <ele>33.81</ele>
        <time>2017-01-15T09:58:21Z</time>
      </trkpt>
      <trkpt lat="47.60345" lon="-0.4321">
        <ele>33.71</ele>
        <time>2017-01-15T09:58:25Z</time>
      </trkpt>
      <trkpt lat="47.60362" lon="-0.43227">
        <ele>33.88</ele>
        <time>2017-01-15T09:58:29Z</time>
      </trkpt>
      <trkpt lat="47.60379" lon="-0.43244">
        <ele>34.46</ele>
        <time>2017-01-15T09:58:33Z</time>
      </trkpt>
      <trkpt lat="47.60397" lon="-0.43262">
        <ele>34.53</ele>
        <time>2017-01-15T09:58:37Z</time>
      </trkpt>
      <trkpt lat="47.60412" lon="-0.43284">
        <ele>34.41</ele>
        <time>2017-01-15T09:58:41Z</time>
      </trkpt>
      <trkpt lat="47.6042" lon="-0.43314">
        <ele>34.03</ele>
        <time>2017-01-15T09:58:45Z</time>
      </trkpt>
      <trkpt lat="47.60419" lon="-0.43346">
        <ele>33.64</ele>
        <time>2017-01-15T09:58:49Z</time>
      </trkpt>
      <trkpt lat="47.60415" lon="-0.43378">
        <ele>33.31</ele>
        <time>2017-01-15T09:58:53Z</time>
      </trkpt>
      <trkpt lat="47.60411" lon="-0.43413">
        <ele>32.94</ele>
        <time>2017-01-15T09:58:57Z</time>
      </trkpt>
      <trkpt lat="47.60407" lon="-0.43448">
        <ele>32.53</ele>
        <time>2017-01-15T09:59:01Z</time>
      </trkpt>
      <trkpt lat="47.60406" lon="-0.43474">
        <ele>32.23</ele>
        <time>2017-01-15T09:59:04Z</time>
      </trkpt>
      <trkpt lat="47.60407" lon="-0.43509">
        <ele>32.11</ele>
        <time>2017-01-15T09:59:08Z</time>
      </trkpt>
      <trkpt lat="47.6041" lon="-0.43543">
        <ele>32.11</ele>
        <time>2017-01-15T09:59:12Z</time>
      </trkpt>
      <trkpt lat="47.60416" lon="-0.43575">
        <ele>31.65</ele>
        <time>2017-01-15T09:59:16Z</time>
      </trkpt>
      <trkpt lat="47.60424" lon="-0.436">
        <ele>31.43</ele>
        <time>2017-01-15T09:59:19Z</time>
      </trkpt>
      <trkpt lat="47.60435" lon="-0.43623">
        <ele>31.41</ele>
        <time>2017-01-15T09:59:22Z</time>
      </trkpt>
      <trkpt lat="47.6045" lon="-0.4365">
        <ele>30.99</ele>
        <time>2017-01-15T09:59:26Z</time>
      </trkpt>
      <trkpt lat="47.60465" lon="-0.43677">
        <ele>30.14</ele>
        <time>2017-01-15T09:59:30Z</time>
      </trkpt>
      <trkpt lat="47.60476" lon="-0.43699">
        <ele>30.03</ele>
        <time>2017-01-15T09:59:33Z</time>
      </trkpt>
      <trkpt lat="47.60487" lon="-0.43721">
        <ele>29.83</ele>
        <time>2017-01-15T09:59:36Z</time>
      </trkpt>
      <trkpt lat="47.60498" lon="-0.43742">
        <ele>29.63</ele>
        <time>2017-01-15T09:59:39Z</time>
      </trkpt>
      <trkpt lat="47.60514" lon="-0.43769">
        <ele>29.41</ele>
        <time>2017-01-15T09:59:43Z</time>
      </trkpt>
      <trkpt lat="47.6053" lon="-0.43795">
        <ele>28.84</ele>
        <time>2017-01-15T09:59:47Z</time>
      </trkpt>
      <trkpt lat="47.60546" lon="-0.43821">
        <ele>28.33</ele>
        <time>2017-01-15T09:59:51Z</time>
      </trkpt>
      <trkpt lat="47.60561" lon="-0.43848">
        <ele>28.31</ele>
        <time>2017-01-15T09:59:55Z</time>
      </trkpt>
      <trkpt lat="47.60576" lon="-0.43875">
        <ele>28.48</ele>
        <time>2017-01-15T09:59:59Z</time>
      </trkpt>
      <trkpt lat="47.6059" lon="-0.43902">
        <ele>28.51</ele>
        <time>2017-01-15T10:00:03Z</time>
      </trkpt>
      <trkpt lat="47.60604" lon="-0.43928">
        <ele>28.43</ele>
        <time>2017-01-15T10:00:07Z</time>
      </trkpt>
      <trkpt lat="47.60618" lon="-0.43952">
        <ele>28.42</ele>
        <time>2017-01-15T10:00:11Z</time>
      </trkpt>
      <trkpt lat="47.60629" lon="-0.43973">
        <ele>28.05</ele>
        <time>2017-01-15T10:00:15Z</time>
      </trkpt>
      <trkpt lat="47.60624" lon="-0.44001">
        <ele>27.71</ele>
        <time>2017-01-15T10:00:19Z</time>
      </trkpt>
      <trkpt lat="47.60609" lon="-0.44024">
        <ele>27.61</ele>
        <time>2017-01-15T10:00:23Z</time>
      </trkpt>
      <trkpt lat="47.60593" lon="-0.44049">
        <ele>27.7</ele>
        <time>2017-01-15T10:00:27Z</time>
      </trkpt>
      <trkpt lat="47.60578" lon="-0.44074">
        <ele>28</ele>
        <time>2017-01-15T10:00:31Z</time>
      </trkpt>
      <trkpt lat="47.60566" lon="-0.44095">
        <ele>28.01</ele>
        <time>2017-01-15T10:00:34Z</time>
      </trkpt>
      <trkpt lat="47.60553" lon="-0.44116">
        <ele>28.2</ele>
        <time>2017-01-15T10:00:37Z</time>
      </trkpt>
      <trkpt lat="47.6054" lon="-0.44138">
        <ele>28.11</ele>
        <time>2017-01-15T10:00:40Z</time>
      </trkpt>
      <trkpt lat="47.60528" lon="-0.44159">
        <ele>28.11</ele>
        <time>2017-01-15T10:00:43Z</time>
      </trkpt>
      <trkpt lat="47.60515" lon="-0.4418">
        <ele>28.02</ele>
        <time>2017-01-15T10:00:46Z</time>
      </trkpt>
      <trkpt lat="47.60502" lon="-0.44202">
        <ele>28.01</ele>
        <time>2017-01-15T10:00:49Z</time>
      </trkpt>
      <trkpt lat="47.6049" lon="-0.44222">
        <ele>28.11</ele>
        <time>2017-01-15T10:00:52Z</time>
      </trkpt>
      <trkpt lat="47.60478" lon="-0.44243">
        <ele>28.2</ele>
        <time>2017-01-15T10:00:55Z</time>
      </trkpt>
      <trkpt lat="47.60466" lon="-0.44263">
        <ele>28.31</ele>
        <time>2017-01-15T10:00:58Z</time>
      </trkpt>
      <trkpt lat="47.60451" lon="-0.4429">
        <ele>28.21</ele>
        <time>2017-01-15T10:01:02Z</time>
      </trkpt>
      <trkpt lat="47.60436" lon="-0.44317">
        <ele>28.3</ele>
        <time>2017-01-15T10:01:06Z</time>
      </trkpt>
      <trkpt lat="47.6042" lon="-0.44342">
        <ele>28.49</ele>
        <time>2017-01-15T10:01:10Z</time>
      </trkpt>
      <trkpt lat="47.60405" lon="-0.44368">
        <ele>28.51</ele>
        <time>2017-01-15T10:01:14Z</time>
      </trkpt>
      <trkpt lat="47.6039" lon="-0.44394">
        <ele>28.41</ele>
        <time>2017-01-15T10:01:18Z</time>
      </trkpt>
      <trkpt lat="47.60375" lon="-0.44421">
        <ele>28.41</ele>
        <time>2017-01-15T10:01:22Z</time>
      </trkpt>
      <trkpt lat="47.60363" lon="-0.44442">
        <ele>28.41</ele>
        <time>2017-01-15T10:01:25Z</time>
      </trkpt>
      <trkpt lat="47.60351" lon="-0.44463">
        <ele>28.5</ele>
        <time>2017-01-15T10:01:28Z</time>
      </trkpt>
      <trkpt lat="47.60339" lon="-0.44484">
        <ele>28.51</ele>
        <time>2017-01-15T10:01:31Z</time>
      </trkpt>
      <trkpt lat="47.60326" lon="-0.44505">
        <ele>28.33</ele>
        <time>2017-01-15T10:01:34Z</time>
      </trkpt>
      <trkpt lat="47.60314" lon="-0.44525">
        <ele>28.29</ele>
        <time>2017-01-15T10:01:37Z</time>
      </trkpt>
      <trkpt lat="47.60299" lon="-0.44551">
        <ele>28.21</ele>
        <time>2017-01-15T10:01:41Z</time>
      </trkpt>
      <trkpt lat="47.60285" lon="-0.44576">
        <ele>27.93</ele>
        <time>2017-01-15T10:01:45Z</time>
      </trkpt>
      <trkpt lat="47.60269" lon="-0.44602">
        <ele>27.71</ele>
        <time>2017-01-15T10:01:49Z</time>
      </trkpt>
      <trkpt lat="47.60254" lon="-0.44629">
        <ele>27.51</ele>
        <time>2017-01-15T10:01:53Z</time>
      </trkpt>
      <trkpt lat="47.60248" lon="-0.4466">
        <ele>27.68</ele>
        <time>2017-01-15T10:01:57Z</time>
      </trkpt>
      <trkpt lat="47.60261" lon="-0.44688">
        <ele>26.66</ele>
        <time>2017-01-15T10:02:01Z</time>
      </trkpt>
      <trkpt lat="47.60272" lon="-0.44709">
        <ele>26.15</ele>
        <time>2017-01-15T10:02:04Z</time>
      </trkpt>
      <trkpt lat="47.60284" lon="-0.4473">
        <ele>25.83</ele>
        <time>2017-01-15T10:02:07Z</time>
      </trkpt>
      <trkpt lat="47.60295" lon="-0.44751">
        <ele>25.61</ele>
        <time>2017-01-15T10:02:10Z</time>
      </trkpt>
      <trkpt lat="47.60306" lon="-0.44773">
        <ele>25.33</ele>
        <time>2017-01-15T10:02:13Z</time>
      </trkpt>
      <trkpt lat="47.60318" lon="-0.44795">
        <ele>25.13</ele>
        <time>2017-01-15T10:02:16Z</time>
      </trkpt>
      <trkpt lat="47.60329" lon="-0.44818">
        <ele>25.01</ele>
        <time>2017-01-15T10:02:19Z</time>
      </trkpt>
      <trkpt lat="47.60341" lon="-0.4484">
        <ele>24.83</ele>
        <time>2017-01-15T10:02:22Z</time>
      </trkpt>
      <trkpt lat="47.60354" lon="-0.4486">
        <ele>24.73</ele>
        <time>2017-01-15T10:02:25Z</time>
      </trkpt>
      <trkpt lat="47.60367" lon="-0.44879">
        <ele>24.81</ele>
        <time>2017-01-15T10:02:28Z</time>
      </trkpt>
      <trkpt lat="47.60385" lon="-0.449">
        <ele>24.81</ele>
        <time>2017-01-15T10:02:32Z</time>
      </trkpt>
      <trkpt lat="47.60406" lon="-0.44918">
        <ele>25.09</ele>
        <time>2017-01-15T10:02:36Z</time>
      </trkpt>
      <trkpt lat="47.60426" lon="-0.44935">
        <ele>25.68</ele>
        <time>2017-01-15T10:02:40Z</time>
      </trkpt>
      <trkpt lat="47.60447" lon="-0.44952">
        <ele>26.28</ele>
        <time>2017-01-15T10:02:44Z</time>
      </trkpt>
      <trkpt lat="47.60467" lon="-0.4497">
        <ele>26.59</ele>
        <time>2017-01-15T10:02:48Z</time>
      </trkpt>
      <trkpt lat="47.60483" lon="-0.44983">
        <ele>26.88</ele>
        <time>2017-01-15T10:02:51Z</time>
      </trkpt>
      <trkpt lat="47.60499" lon="-0.44996">
        <ele>27.01</ele>
        <time>2017-01-15T10:02:54Z</time>
      </trkpt>
      <trkpt lat="47.60515" lon="-0.45009">
        <ele>27.28</ele>
        <time>2017-01-15T10:02:57Z</time>
      </trkpt>
      <trkpt lat="47.60531" lon="-0.45022">
        <ele>27.41</ele>
        <time>2017-01-15T10:03:00Z</time>
      </trkpt>
      <trkpt lat="47.60547" lon="-0.45035">
        <ele>27.6</ele>
        <time>2017-01-15T10:03:03Z</time>
      </trkpt>
      <trkpt lat="47.60568" lon="-0.45052">
        <ele>27.78</ele>
        <time>2017-01-15T10:03:07Z</time>
      </trkpt>
      <trkpt lat="47.60589" lon="-0.45069">
        <ele>27.71</ele>
        <time>2017-01-15T10:03:11Z</time>
      </trkpt>
      <trkpt lat="47.60609" lon="-0.45086">
        <ele>27.71</ele>
        <time>2017-01-15T10:03:15Z</time>
      </trkpt>
      <trkpt lat="47.60629" lon="-0.45103">
        <ele>27.79</ele>
        <time>2017-01-15T10:03:19Z</time>
      </trkpt>
      <trkpt lat="47.60649" lon="-0.45118">
        <ele>27.53</ele>
        <time>2017-01-15T10:03:23Z</time>
      </trkpt>
      <trkpt lat="47.60668" lon="-0.45133">
        <ele>27.43</ele>
        <time>2017-01-15T10:03:27Z</time>
      </trkpt>
      <trkpt lat="47.60686" lon="-0.45147">
        <ele>27.13</ele>
        <time>2017-01-15T10:03:31Z</time>
      </trkpt>
      <trkpt lat="47.607" lon="-0.45166">
        <ele>27.19</ele>
        <time>2017-01-15T10:03:35Z</time>
      </trkpt>
      <trkpt lat="47.60698" lon="-0.45195">
        <ele>27.11</ele>
        <time>2017-01-15T10:03:39Z</time>
      </trkpt>
      <trkpt lat="47.60691" lon="-0.45223">
        <ele>27.11</ele>
        <time>2017-01-15T10:03:43Z</time>
      </trkpt>
      <trkpt lat="47.60684" lon="-0.45251">
        <ele>27.11</ele>
        <time>2017-01-15T10:03:47Z</time>
      </trkpt>
      <trkpt lat="47.60676" lon="-0.45279">
        <ele>27.19</ele>
        <time>2017-01-15T10:03:51Z</time>
      </trkpt>
      <trkpt lat="47.6067" lon="-0.45308">
        <ele>27.21</ele>
        <time>2017-01-15T10:03:55Z</time>
      </trkpt>
      <trkpt lat="47.60663" lon="-0.45336">
        <ele>27.03</ele>
        <time>2017-01-15T10:03:59Z</time>
      </trkpt>
      <trkpt lat="47.60657" lon="-0.45365">
        <ele>26.73</ele>
        <time>2017-01-15T10:04:03Z</time>
      </trkpt>
      <trkpt lat="47.6065" lon="-0.45395">
        <ele>26.78</ele>
        <time>2017-01-15T10:04:07Z</time>
      </trkpt>
      <trkpt lat="47.60643" lon="-0.45425">
        <ele>27.2</ele>
        <time>2017-01-15T10:04:11Z</time>
      </trkpt>
      <trkpt lat="47.60636" lon="-0.45455">
        <ele>27.68</ele>
        <time>2017-01-15T10:04:15Z</time>
      </trkpt>
      <trkpt lat="47.60629" lon="-0.45485">
        <ele>27.97</ele>
        <time>2017-01-15T10:04:19Z</time>
      </trkpt>
      <trkpt lat="47.60622" lon="-0.45516">
        <ele>28.03</ele>
        <time>2017-01-15T10:04:23Z</time>
      </trkpt>
      <trkpt lat="47.60615" lon="-0.45546">
        <ele>28.38</ele>
        <time>2017-01-15T10:04:27Z</time>
      </trkpt>
      <trkpt lat="47.60608" lon="-0.45576">
        <ele>28.5</ele>
        <time>2017-01-15T10:04:31Z</time>
      </trkpt>
      <trkpt lat="47.60601" lon="-0.45606">
        <ele>28.59</ele>
        <time>2017-01-15T10:04:35Z</time>
      </trkpt>
      <trkpt lat="47.60594" lon="-0.45636">
        <ele>28.8</ele>
        <time>2017-01-15T10:04:39Z</time>
      </trkpt>
      <trkpt lat="47.60587" lon="-0.45666">
        <ele>28.89</ele>
        <time>2017-01-15T10:04:43Z</time>
      </trkpt>
      <trkpt lat="47.60581" lon="-0.45696">
        <ele>29.01</ele>
        <time>2017-01-15T10:04:47Z</time>
      </trkpt>
      <trkpt lat="47.60575" lon="-0.45726">
        <ele>29.28</ele>
        <time>2017-01-15T10:04:51Z</time>
      </trkpt>
      <trkpt lat="47.6057" lon="-0.45756">
        <ele>29.5</ele>
        <time>2017-01-15T10:04:55Z</time>
      </trkpt>
      <trkpt lat="47.60565" lon="-0.45785">
        <ele>29.61</ele>
        <time>2017-01-15T10:04:59Z</time>
      </trkpt>
      <trkpt lat="47.60561" lon="-0.45814">
        <ele>29.89</ele>
        <time>2017-01-15T10:05:03Z</time>
      </trkpt>
      <trkpt lat="47.60556" lon="-0.45842">
        <ele>30.08</ele>
        <time>2017-01-15T10:05:07Z</time>
      </trkpt>
      <trkpt lat="47.60553" lon="-0.45869">
        <ele>30.58</ele>
        <time>2017-01-15T10:05:11Z</time>
      </trkpt>
      <trkpt lat="47.60549" lon="-0.459">
        <ele>30.49</ele>
        <time>2017-01-15T10:05:16Z</time>
      </trkpt>
      <trkpt lat="47.60546" lon="-0.45931">
        <ele>31.68</ele>
        <time>2017-01-15T10:05:24Z</time>
      </trkpt>
      <trkpt lat="47.6054" lon="-0.45961">
        <ele>33.33</ele>
        <time>2017-01-15T10:05:30Z</time>
      </trkpt>
      <trkpt lat="47.60534" lon="-0.45987">
        <ele>34.64</ele>
        <time>2017-01-15T10:05:35Z</time>
      </trkpt>
      <trkpt lat="47.60526" lon="-0.46011">
        <ele>35.54</ele>
        <time>2017-01-15T10:05:40Z</time>
      </trkpt>
      <trkpt lat="47.60515" lon="-0.46037">
        <ele>36.06</ele>
        <time>2017-01-15T10:05:46Z</time>
      </trkpt>
      <trkpt lat="47.60507" lon="-0.46063">
        <ele>36.5</ele>
        <time>2017-01-15T10:05:51Z</time>
      </trkpt>
      <trkpt lat="47.60499" lon="-0.46088">
        <ele>37.34</ele>
        <time>2017-01-15T10:05:56Z</time>
      </trkpt>
      <trkpt lat="47.60496" lon="-0.46119">
        <ele>38.92</ele>
        <time>2017-01-15T10:06:02Z</time>
      </trkpt>
      <trkpt lat="47.60495" lon="-0.46148">
        <ele>39.75</ele>
        <time>2017-01-15T10:06:08Z</time>
      </trkpt>
      <trkpt lat="47.60498" lon="-0.46175">
        <ele>41.54</ele>
        <time>2017-01-15T10:06:14Z</time>
      </trkpt>
      <trkpt lat="47.60496" lon="-0.46206">
        <ele>42.48</ele>
        <time>2017-01-15T10:06:20Z</time>
      </trkpt>
      <trkpt lat="47.60484" lon="-0.4623">
        <ele>43.08</ele>
        <time>2017-01-15T10:06:26Z</time>
      </trkpt>
      <trkpt lat="47.60473" lon="-0.46254">
        <ele>43.51</ele>
        <time>2017-01-15T10:06:32Z</time>
      </trkpt>
      <trkpt lat="47.60462" lon="-0.46277">
        <ele>44.23</ele>
        <time>2017-01-15T10:06:39Z</time>
      </trkpt>
      <trkpt lat="47.60445" lon="-0.46293">
        <ele>45.78</ele>
        <time>2017-01-15T10:06:47Z</time>
      </trkpt>
      <trkpt lat="47.60433" lon="-0.46316">
        <ele>47.04</ele>
        <time>2017-01-15T10:06:55Z</time>
      </trkpt>
      <trkpt lat="47.60424" lon="-0.46342">
        <ele>48.44</ele>
        <time>2017-01-15T10:07:02Z</time>
      </trkpt>
      <trkpt lat="47.60418" lon="-0.4637">
        <ele>49.38</ele>
        <time>2017-01-15T10:07:09Z</time>
      </trkpt>
      <trkpt lat="47.60417" lon="-0.46397">
        <ele>49.98</ele>
        <time>2017-01-15T10:07:15Z</time>
      </trkpt>
      <trkpt lat="47.6042" lon="-0.46424">
        <ele>50.21</ele>
        <time>2017-01-15T10:07:21Z</time>
      </trkpt>
      <trkpt lat="47.60422" lon="-0.46455">
        <ele>50.01</ele>
        <time>2017-01-15T10:07:27Z</time>
      </trkpt>
      <trkpt lat="47.60425" lon="-0.46484">
        <ele>50.6</ele>
        <time>2017-01-15T10:07:33Z</time>
      </trkpt>
      <trkpt lat="47.60429" lon="-0.46514">
        <ele>50.81</ele>
        <time>2017-01-15T10:07:39Z</time>
      </trkpt>
      <trkpt lat="47.60439" lon="-0.46541">
        <ele>51.66</ele>
        <time>2017-01-15T10:07:45Z</time>
      </trkpt>
      <trkpt lat="47.60451" lon="-0.46566">
        <ele>52.39</ele>
        <time>2017-01-15T10:07:51Z</time>
      </trkpt>
      <trkpt lat="47.60463" lon="-0.46587">
        <ele>52.7</ele>
        <time>2017-01-15T10:07:56Z</time>
      </trkpt>
      <trkpt lat="47.60478" lon="-0.46605">
        <ele>53.18</ele>
        <time>2017-01-15T10:08:01Z</time>
      </trkpt>
      <trkpt lat="47.60494" lon="-0.46622">
        <ele>53.78</ele>
        <time>2017-01-15T10:08:06Z</time>
      </trkpt>
      <trkpt lat="47.60512" lon="-0.4664">
        <ele>54.48</ele>
        <time>2017-01-15T10:08:11Z</time>
      </trkpt>
      <trkpt lat="47.60528" lon="-0.46662">
        <ele>54.61</ele>
        <time>2017-01-15T10:08:16Z</time>
      </trkpt>
      <trkpt lat="47.60539" lon="-0.4669">
        <ele>54.31</ele>
        <time>2017-01-15T10:08:21Z</time>
      </trkpt>
      <trkpt lat="47.60548" lon="-0.46714">
        <ele>53.75</ele>
        <time>2017-01-15T10:08:25Z</time>
      </trkpt>
      <trkpt lat="47.60558" lon="-0.46741">
        <ele>53.5</ele>
        <time>2017-01-15T10:08:31Z</time>
      </trkpt>
      <trkpt lat="47.60576" lon="-0.46753">
        <ele>53.53</ele>
        <time>2017-01-15T10:08:35Z</time>
      </trkpt>
      <trkpt lat="47.60594" lon="-0.46765">
        <ele>53.51</ele>
        <time>2017-01-15T10:08:38Z</time>
      </trkpt>
      <trkpt lat="47.60613" lon="-0.46777">
        <ele>53.53</ele>
        <time>2017-01-15T10:08:41Z</time>
      </trkpt>
      <trkpt lat="47.6063" lon="-0.46791">
        <ele>53.14</ele>
        <time>2017-01-15T10:08:44Z</time>
      </trkpt>
      <trkpt lat="47.60646" lon="-0.46806">
        <ele>52.82</ele>
        <time>2017-01-15T10:08:47Z</time>
      </trkpt>
      <trkpt lat="47.60663" lon="-0.46818">
        <ele>52.71</ele>
        <time>2017-01-15T10:08:50Z</time>
      </trkpt>
      <trkpt lat="47.60682" lon="-0.46832">
        <ele>52.37</ele>
        <time>2017-01-15T10:08:53Z</time>
      </trkpt>
      <trkpt lat="47.60702" lon="-0.46845">
        <ele>52.19</ele>
        <time>2017-01-15T10:08:56Z</time>
      </trkpt>
      <trkpt lat="47.60723" lon="-0.46856">
        <ele>52.55</ele>
        <time>2017-01-15T10:08:59Z</time>
      </trkpt>
      <trkpt lat="47.60743" lon="-0.46857">
        <ele>52.63</ele>
        <time>2017-01-15T10:09:02Z</time>
      </trkpt>
      <trkpt lat="47.60764" lon="-0.46856">
        <ele>52.01</ele>
        <time>2017-01-15T10:09:07Z</time>
      </trkpt>
      <trkpt lat="47.60785" lon="-0.46854">
        <ele>52.09</ele>
        <time>2017-01-15T10:09:11Z</time>
      </trkpt>
      <trkpt lat="47.60808" lon="-0.46853">
        <ele>51.83</ele>
        <time>2017-01-15T10:09:15Z</time>
      </trkpt>
      <trkpt lat="47.60828" lon="-0.46847">
        <ele>51.23</ele>
        <time>2017-01-15T10:09:19Z</time>
      </trkpt>
      <trkpt lat="47.60833" lon="-0.46816">
        <ele>50.22</ele>
        <time>2017-01-15T10:09:23Z</time>
      </trkpt>
      <trkpt lat="47.60832" lon="-0.46783">
        <ele>48.91</ele>
        <time>2017-01-15T10:09:26Z</time>
      </trkpt>
      <trkpt lat="47.60834" lon="-0.46749">
        <ele>47.43</ele>
        <time>2017-01-15T10:09:29Z</time>
      </trkpt>
      <trkpt lat="47.60838" lon="-0.46713">
        <ele>46.19</ele>
        <time>2017-01-15T10:09:32Z</time>
      </trkpt>
      <trkpt lat="47.60842" lon="-0.46678">
        <ele>45.18</ele>
        <time>2017-01-15T10:09:35Z</time>
      </trkpt>
      <trkpt lat="47.60842" lon="-0.46644">
        <ele>44.01</ele>
        <time>2017-01-15T10:09:38Z</time>
      </trkpt>
      <trkpt lat="47.60841" lon="-0.4661">
        <ele>43.08</ele>
        <time>2017-01-15T10:09:41Z</time>
      </trkpt>
      <trkpt lat="47.60842" lon="-0.46577">
        <ele>42.44</ele>
        <time>2017-01-15T10:09:44Z</time>
      </trkpt>
      <trkpt lat="47.60841" lon="-0.46545">
        <ele>41.78</ele>
        <time>2017-01-15T10:09:47Z</time>
      </trkpt>
      <trkpt lat="47.60848" lon="-0.46517">
        <ele>41.25</ele>
        <time>2017-01-15T10:09:50Z</time>
      </trkpt>
      <trkpt lat="47.6087" lon="-0.46508">
        <ele>41.39</ele>
        <time>2017-01-15T10:09:54Z</time>
      </trkpt>
      <trkpt lat="47.60886" lon="-0.4652">
        <ele>41.79</ele>
        <time>2017-01-15T10:09:58Z</time>
      </trkpt>
      <trkpt lat="47.60902" lon="-0.46544">
        <ele>41.43</ele>
        <time>2017-01-15T10:10:02Z</time>
      </trkpt>
      <trkpt lat="47.60917" lon="-0.46568">
        <ele>41.03</ele>
        <time>2017-01-15T10:10:06Z</time>
      </trkpt>
      <trkpt lat="47.60934" lon="-0.46587">
        <ele>41.96</ele>
        <time>2017-01-15T10:10:15Z</time>
      </trkpt>
      <trkpt lat="47.60955" lon="-0.46583">
        <ele>42.58</ele>
        <time>2017-01-15T10:10:19Z</time>
      </trkpt>
      <trkpt lat="47.60965" lon="-0.46556">
        <ele>43.1</ele>
        <time>2017-01-15T10:10:23Z</time>
      </trkpt>
      <trkpt lat="47.60983" lon="-0.46539">
        <ele>43.5</ele>
        <time>2017-01-15T10:10:29Z</time>
      </trkpt>
      <trkpt lat="47.60998" lon="-0.46521">
        <ele>43.67</ele>
        <time>2017-01-15T10:10:33Z</time>
      </trkpt>
      <trkpt lat="47.6101" lon="-0.46495">
        <ele>43.8</ele>
        <time>2017-01-15T10:10:37Z</time>
      </trkpt>
      <trkpt lat="47.6103" lon="-0.46487">
        <ele>42.91</ele>
        <time>2017-01-15T10:10:42Z</time>
      </trkpt>
      <trkpt lat="47.61049" lon="-0.46485">
        <ele>43.48</ele>
        <time>2017-01-15T10:10:46Z</time>
      </trkpt>
      <trkpt lat="47.61068" lon="-0.46484">
        <ele>43.61</ele>
        <time>2017-01-15T10:10:50Z</time>
      </trkpt>
      <trkpt lat="47.61081" lon="-0.46507">
        <ele>43.21</ele>
        <time>2017-01-15T10:10:55Z</time>
      </trkpt>
      <trkpt lat="47.61081" lon="-0.46536">
        <ele>43.48</ele>
        <time>2017-01-15T10:11:00Z</time>
      </trkpt>
      <trkpt lat="47.61102" lon="-0.46539">
        <ele>44.46</ele>
        <time>2017-01-15T10:11:09Z</time>
      </trkpt>
      <trkpt lat="47.61121" lon="-0.46549">
        <ele>45.08</ele>
        <time>2017-01-15T10:11:15Z</time>
      </trkpt>
      <trkpt lat="47.6114" lon="-0.46558">
        <ele>45.74</ele>
        <time>2017-01-15T10:11:20Z</time>
      </trkpt>
      <trkpt lat="47.61157" lon="-0.46569">
        <ele>46.19</ele>
        <time>2017-01-15T10:11:26Z</time>
      </trkpt>
      <trkpt lat="47.61174" lon="-0.46583">
        <ele>46.38</ele>
        <time>2017-01-15T10:11:31Z</time>
      </trkpt>
      <trkpt lat="47.61196" lon="-0.4659">
        <ele>47</ele>
        <time>2017-01-15T10:11:35Z</time>
      </trkpt>
      <trkpt lat="47.61215" lon="-0.46595">
        <ele>46.77</ele>
        <time>2017-01-15T10:11:38Z</time>
      </trkpt>
      <trkpt lat="47.61237" lon="-0.46601">
        <ele>45.86</ele>
        <time>2017-01-15T10:11:43Z</time>
      </trkpt>
      <trkpt lat="47.6126" lon="-0.46606">
        <ele>45.81</ele>
        <time>2017-01-15T10:11:47Z</time>
      </trkpt>
      <trkpt lat="47.61263" lon="-0.46579">
        <ele>45.33</ele>
        <time>2017-01-15T10:11:54Z</time>
      </trkpt>
      <trkpt lat="47.61272" lon="-0.46551">
        <ele>43.73</ele>
        <time>2017-01-15T10:12:00Z</time>
      </trkpt>
      <trkpt lat="47.61289" lon="-0.46536">
        <ele>42.56</ele>
        <time>2017-01-15T10:12:04Z</time>
      </trkpt>
      <trkpt lat="47.61307" lon="-0.46525">
        <ele>41.98</ele>
        <time>2017-01-15T10:12:08Z</time>
      </trkpt>
      <trkpt lat="47.61323" lon="-0.46501">
        <ele>39.82</ele>
        <time>2017-01-15T10:12:13Z</time>
      </trkpt>
      <trkpt lat="47.6133" lon="-0.46471">
        <ele>37.5</ele>
        <time>2017-01-15T10:12:17Z</time>
      </trkpt>
      <trkpt lat="47.61349" lon="-0.46465">
        <ele>35.53</ele>
        <time>2017-01-15T10:12:23Z</time>
      </trkpt>
      <trkpt lat="47.61367" lon="-0.46475">
        <ele>35.17</ele>
        <time>2017-01-15T10:12:27Z</time>
      </trkpt>
      <trkpt lat="47.61384" lon="-0.46491">
        <ele>34.08</ele>
        <time>2017-01-15T10:12:31Z</time>
      </trkpt>
      <trkpt lat="47.614" lon="-0.46507">
        <ele>33.04</ele>
        <time>2017-01-15T10:12:35Z</time>
      </trkpt>
      <trkpt lat="47.61419" lon="-0.46507">
        <ele>33.2</ele>
        <time>2017-01-15T10:12:39Z</time>
      </trkpt>
      <trkpt lat="47.6144" lon="-0.46501">
        <ele>33.19</ele>
        <time>2017-01-15T10:12:43Z</time>
      </trkpt>
      <trkpt lat="47.61458" lon="-0.46494">
        <ele>32.93</ele>
        <time>2017-01-15T10:12:56Z</time>
      </trkpt>
      <trkpt lat="47.6146" lon="-0.46467">
        <ele>32.22</ele>
        <time>2017-01-15T10:13:00Z</time>
      </trkpt>
      <trkpt lat="47.61474" lon="-0.46449">
        <ele>30.39</ele>
        <time>2017-01-15T10:13:05Z</time>
      </trkpt>
      <trkpt lat="47.61492" lon="-0.46442">
        <ele>31.83</ele>
        <time>2017-01-15T10:13:10Z</time>
      </trkpt>
      <trkpt lat="47.6151" lon="-0.46435">
        <ele>34.2</ele>
        <time>2017-01-15T10:26:31Z</time>
      </trkpt>
      <trkpt lat="47.61527" lon="-0.46447">
        <ele>34.96</ele>
        <time>2017-01-15T10:26:46Z</time>
      </trkpt>
      <trkpt lat="47.61547" lon="-0.4645">
        <ele>33.93</ele>
        <time>2017-01-15T10:26:56Z</time>
      </trkpt>
      <trkpt lat="47.61556" lon="-0.46476">
        <ele>33.29</ele>
        <time>2017-01-15T10:27:08Z</time>
      </trkpt>
      <trkpt lat="47.61558" lon="-0.46504">
        <ele>33.51</ele>
        <time>2017-01-15T10:27:14Z</time>
      </trkpt>
      <trkpt lat="47.61565" lon="-0.46531">
        <ele>32.85</ele>
        <time>2017-01-15T10:27:20Z</time>
      </trkpt>
      <trkpt lat="47.61584" lon="-0.46542">
        <ele>32.55</ele>
        <time>2017-01-15T10:27:26Z</time>
      </trkpt>
      <trkpt lat="47.61605" lon="-0.46547">
        <ele>31.66</ele>
        <time>2017-01-15T10:27:32Z</time>
      </trkpt>
      <trkpt lat="47.61624" lon="-0.4655">
        <ele>31.13</ele>
        <time>2017-01-15T10:27:37Z</time>
      </trkpt>
      <trkpt lat="47.61646" lon="-0.46554">
        <ele>31.11</ele>
        <time>2017-01-15T10:27:42Z</time>
      </trkpt>
      <trkpt lat="47.61667" lon="-0.46555">
        <ele>31.5</ele>
        <time>2017-01-15T10:27:47Z</time>
      </trkpt>
      <trkpt lat="47.61689" lon="-0.46554">
        <ele>31.78</ele>
        <time>2017-01-15T10:27:52Z</time>
      </trkpt>
      <trkpt lat="47.61707" lon="-0.46554">
        <ele>31.89</ele>
        <time>2017-01-15T10:27:56Z</time>
      </trkpt>
      <trkpt lat="47.61726" lon="-0.46553">
        <ele>32.01</ele>
        <time>2017-01-15T10:28:00Z</time>
      </trkpt>
      <trkpt lat="47.61744" lon="-0.46553">
        <ele>32.2</ele>
        <time>2017-01-15T10:28:04Z</time>
      </trkpt>
      <trkpt lat="47.61763" lon="-0.46553">
        <ele>32.56</ele>
        <time>2017-01-15T10:28:08Z</time>
      </trkpt>
      <trkpt lat="47.61784" lon="-0.46549">
        <ele>32.51</ele>
        <time>2017-01-15T10:28:13Z</time>
      </trkpt>
      <trkpt lat="47.61803" lon="-0.46544">
        <ele>32.39</ele>
        <time>2017-01-15T10:28:17Z</time>
      </trkpt>
      <trkpt lat="47.61822" lon="-0.46538">
        <ele>32.21</ele>
        <time>2017-01-15T10:28:21Z</time>
      </trkpt>
      <trkpt lat="47.61841" lon="-0.46533">
        <ele>32.39</ele>
        <time>2017-01-15T10:28:25Z</time>
      </trkpt>
      <trkpt lat="47.6186" lon="-0.46528">
        <ele>32.7</ele>
        <time>2017-01-15T10:28:29Z</time>
      </trkpt>
      <trkpt lat="47.61878" lon="-0.46522">
        <ele>32.63</ele>
        <time>2017-01-15T10:28:33Z</time>
      </trkpt>
      <trkpt lat="47.61897" lon="-0.46516">
        <ele>32.5</ele>
        <time>2017-01-15T10:28:37Z</time>
      </trkpt>
      <trkpt lat="47.61917" lon="-0.46511">
        <ele>32.59</ele>
        <time>2017-01-15T10:28:41Z</time>
      </trkpt>
      <trkpt lat="47.61935" lon="-0.46506">
        <ele>32.4</ele>
        <time>2017-01-15T10:28:45Z</time>
      </trkpt>
      <trkpt lat="47.61953" lon="-0.46502">
        <ele>32.79</ele>
        <time>2017-01-15T10:28:49Z</time>
      </trkpt>
      <trkpt lat="47.61975" lon="-0.46501">
        <ele>33.08</ele>
        <time>2017-01-15T10:28:54Z</time>
      </trkpt>
      <trkpt lat="47.61994" lon="-0.46511">
        <ele>33.4</ele>
        <time>2017-01-15T10:28:59Z</time>
      </trkpt>
      <trkpt lat="47.62006" lon="-0.46539">
        <ele>33.39</ele>
        <time>2017-01-15T10:29:04Z</time>
      </trkpt>
      <trkpt lat="47.62018" lon="-0.46566">
        <ele>33.21</ele>
        <time>2017-01-15T10:29:09Z</time>
      </trkpt>
      <trkpt lat="47.62028" lon="-0.46592">
        <ele>32.83</ele>
        <time>2017-01-15T10:29:14Z</time>
      </trkpt>
      <trkpt lat="47.62035" lon="-0.46619">
        <ele>33.08</ele>
        <time>2017-01-15T10:29:21Z</time>
      </trkpt>
      <trkpt lat="47.62055" lon="-0.46625">
        <ele>33.8</ele>
        <time>2017-01-15T10:29:32Z</time>
      </trkpt>
      <trkpt lat="47.62075" lon="-0.46614">
        <ele>34.01</ele>
        <time>2017-01-15T10:29:38Z</time>
      </trkpt>
      <trkpt lat="47.62096" lon="-0.46606">
        <ele>34.39</ele>
        <time>2017-01-15T10:29:43Z</time>
      </trkpt>
      <trkpt lat="47.62115" lon="-0.466">
        <ele>34.39</ele>
        <time>2017-01-15T10:29:47Z</time>
      </trkpt>
      <trkpt lat="47.62135" lon="-0.46593">
        <ele>34.61</ele>
        <time>2017-01-15T10:29:52Z</time>
      </trkpt>
      <trkpt lat="47.62154" lon="-0.46589">
        <ele>34.73</ele>
        <time>2017-01-15T10:29:57Z</time>
      </trkpt>
      <trkpt lat="47.62172" lon="-0.46589">
        <ele>35.01</ele>
        <time>2017-01-15T10:30:07Z</time>
      </trkpt>
      <trkpt lat="47.62183" lon="-0.46612">
        <ele>35.03</ele>
        <time>2017-01-15T10:30:20Z</time>
      </trkpt>
    </trkseg>
  </trk>
</gpx>